<?xml version="1.0" encoding="UTF-8" standalone="no" ?>
<gpx xmlns="http://www.topografix.com/GPX/1/1" xmlns:xsi="http://www.w3.org/2001/XMLSchema-instance" xsi:schemaLocation="http://www.topografix.com/GPX/1/1 http://www.topografix.com/GPX/1/1/gpx.xsd" version="1.1" creator="VisuGPX - https://www.visugpx.com">
  <metadata>
    <name>Beuzec</name>
    <desc><![CDATA[Départ parking de l\'église de Beuzec-Cap-Sizun. 
Face à l\'église, prendre la rte à droite, et suivre le balisage jaune jusque Pors Lanvers, suivre alors le GR à gauche en direction de La Pte de Beuzec (Kastel Coz)suivre ensuite le GR  vers Luguénez, mais le quitter en direction de Pellay. Suivre ensuite le balisage jaune jusque Beuzec.
ch]]></desc>
  </metadata>
  <trk>
    <name><![CDATA[Beuzec]]></name>
    <trkseg>
      <trkpt lat="48.07569" lon="-4.5118">
        <ele>91.400001525879</ele>
        <time>2014-05-06T11:55:30Z</time>
      </trkpt>
      <trkpt lat="48.07524" lon="-4.51196">
        <ele>90.400001525879</ele>
        <time>2014-05-06T11:55:52Z</time>
      </trkpt>
      <trkpt lat="48.0753" lon="-4.51194">
        <ele>90.599998474121</ele>
        <time>2014-05-06T11:56:15Z</time>
      </trkpt>
      <trkpt lat="48.07533" lon="-4.51193">
        <ele>90.599998474121</ele>
        <time>2014-05-06T11:56:35Z</time>
      </trkpt>
      <trkpt lat="48.07533" lon="-4.51193">
        <ele>90.599998474121</ele>
        <time>2014-05-06T11:56:45Z</time>
      </trkpt>
      <trkpt lat="48.07534" lon="-4.51191">
        <ele>90.599998474121</ele>
        <time>2014-05-06T11:57:12Z</time>
      </trkpt>
      <trkpt lat="48.07533" lon="-4.51189">
        <ele>90.400001525879</ele>
        <time>2014-05-06T11:57:40Z</time>
      </trkpt>
      <trkpt lat="48.07532" lon="-4.5119">
        <ele>90.400001525879</ele>
        <time>2014-05-06T11:58:03Z</time>
      </trkpt>
      <trkpt lat="48.07532" lon="-4.5119">
        <ele>90.400001525879</ele>
        <time>2014-05-06T11:58:15Z</time>
      </trkpt>
      <trkpt lat="48.07532" lon="-4.51189">
        <ele>90.400001525879</ele>
        <time>2014-05-06T11:58:26Z</time>
      </trkpt>
      <trkpt lat="48.07532" lon="-4.51188">
        <ele>90.400001525879</ele>
        <time>2014-05-06T11:58:37Z</time>
      </trkpt>
      <trkpt lat="48.07532" lon="-4.51189">
        <ele>90.400001525879</ele>
        <time>2014-05-06T11:58:45Z</time>
      </trkpt>
      <trkpt lat="48.07533" lon="-4.5119">
        <ele>90.400001525879</ele>
        <time>2014-05-06T11:58:59Z</time>
      </trkpt>
      <trkpt lat="48.07534" lon="-4.5119">
        <ele>90.400001525879</ele>
        <time>2014-05-06T11:59:01Z</time>
      </trkpt>
      <trkpt lat="48.07538" lon="-4.51189">
        <ele>90.599998474121</ele>
        <time>2014-05-06T11:59:05Z</time>
      </trkpt>
      <trkpt lat="48.07542" lon="-4.51186">
        <ele>90.599998474121</ele>
        <time>2014-05-06T11:59:13Z</time>
      </trkpt>
      <trkpt lat="48.07549" lon="-4.51183">
        <ele>90.800003051758</ele>
        <time>2014-05-06T11:59:22Z</time>
      </trkpt>
      <trkpt lat="48.07552" lon="-4.5118">
        <ele>90.800003051758</ele>
        <time>2014-05-06T11:59:27Z</time>
      </trkpt>
      <trkpt lat="48.07551" lon="-4.51167">
        <ele>90.199996948242</ele>
        <time>2014-05-06T11:59:38Z</time>
      </trkpt>
      <trkpt lat="48.0755" lon="-4.51166">
        <ele>90.199996948242</ele>
        <time>2014-05-06T11:59:40Z</time>
      </trkpt>
      <trkpt lat="48.07549" lon="-4.51162">
        <ele>90</ele>
        <time>2014-05-06T11:59:43Z</time>
      </trkpt>
      <trkpt lat="48.0755" lon="-4.51148">
        <ele>89.599998474121</ele>
        <time>2014-05-06T11:59:53Z</time>
      </trkpt>
      <trkpt lat="48.07551" lon="-4.51128">
        <ele>89</ele>
        <time>2014-05-06T12:00:07Z</time>
      </trkpt>
      <trkpt lat="48.0755" lon="-4.51114">
        <ele>88.400001525879</ele>
        <time>2014-05-06T12:00:18Z</time>
      </trkpt>
      <trkpt lat="48.07548" lon="-4.51104">
        <ele>88</ele>
        <time>2014-05-06T12:00:29Z</time>
      </trkpt>
      <trkpt lat="48.07548" lon="-4.51102">
        <ele>87.800003051758</ele>
        <time>2014-05-06T12:00:30Z</time>
      </trkpt>
      <trkpt lat="48.07549" lon="-4.51094">
        <ele>87.599998474121</ele>
        <time>2014-05-06T12:00:35Z</time>
      </trkpt>
      <trkpt lat="48.07549" lon="-4.51086">
        <ele>87.400001525879</ele>
        <time>2014-05-06T12:00:39Z</time>
      </trkpt>
      <trkpt lat="48.07549" lon="-4.51064">
        <ele>86.599998474121</ele>
        <time>2014-05-06T12:00:51Z</time>
      </trkpt>
      <trkpt lat="48.07549" lon="-4.51052">
        <ele>86.400001525879</ele>
        <time>2014-05-06T12:00:59Z</time>
      </trkpt>
      <trkpt lat="48.0755" lon="-4.51049">
        <ele>86.400001525879</ele>
        <time>2014-05-06T12:01:01Z</time>
      </trkpt>
      <trkpt lat="48.07552" lon="-4.51033">
        <ele>86</ele>
        <time>2014-05-06T12:01:12Z</time>
      </trkpt>
      <trkpt lat="48.07552" lon="-4.51019">
        <ele>85.400001525879</ele>
        <time>2014-05-06T12:01:24Z</time>
      </trkpt>
      <trkpt lat="48.07559" lon="-4.5101">
        <ele>85.400001525879</ele>
        <time>2014-05-06T12:01:34Z</time>
      </trkpt>
      <trkpt lat="48.07558" lon="-4.51007">
        <ele>85.199996948242</ele>
        <time>2014-05-06T12:01:36Z</time>
      </trkpt>
      <trkpt lat="48.07558" lon="-4.50999">
        <ele>85</ele>
        <time>2014-05-06T12:01:41Z</time>
      </trkpt>
      <trkpt lat="48.07559" lon="-4.5097">
        <ele>84.199996948242</ele>
        <time>2014-05-06T12:01:55Z</time>
      </trkpt>
      <trkpt lat="48.07561" lon="-4.50956">
        <ele>84</ele>
        <time>2014-05-06T12:02:04Z</time>
      </trkpt>
      <trkpt lat="48.07561" lon="-4.50951">
        <ele>84</ele>
        <time>2014-05-06T12:02:07Z</time>
      </trkpt>
      <trkpt lat="48.07562" lon="-4.50944">
        <ele>84</ele>
        <time>2014-05-06T12:02:11Z</time>
      </trkpt>
      <trkpt lat="48.07562" lon="-4.50936">
        <ele>83.800003051758</ele>
        <time>2014-05-06T12:02:16Z</time>
      </trkpt>
      <trkpt lat="48.07561" lon="-4.50931">
        <ele>83.800003051758</ele>
        <time>2014-05-06T12:02:20Z</time>
      </trkpt>
      <trkpt lat="48.07562" lon="-4.50911">
        <ele>83.599998474121</ele>
        <time>2014-05-06T12:02:33Z</time>
      </trkpt>
      <trkpt lat="48.07558" lon="-4.50893">
        <ele>83.599998474121</ele>
        <time>2014-05-06T12:02:44Z</time>
      </trkpt>
      <trkpt lat="48.07559" lon="-4.50887">
        <ele>83.599998474121</ele>
        <time>2014-05-06T12:02:47Z</time>
      </trkpt>
      <trkpt lat="48.07556" lon="-4.50874">
        <ele>83.800003051758</ele>
        <time>2014-05-06T12:02:54Z</time>
      </trkpt>
      <trkpt lat="48.07553" lon="-4.50862">
        <ele>84</ele>
        <time>2014-05-06T12:03:03Z</time>
      </trkpt>
      <trkpt lat="48.07551" lon="-4.5085">
        <ele>83.800003051758</ele>
        <time>2014-05-06T12:03:12Z</time>
      </trkpt>
      <trkpt lat="48.07551" lon="-4.50848">
        <ele>83.800003051758</ele>
        <time>2014-05-06T12:03:13Z</time>
      </trkpt>
      <trkpt lat="48.07551" lon="-4.50842">
        <ele>83.800003051758</ele>
        <time>2014-05-06T12:03:17Z</time>
      </trkpt>
      <trkpt lat="48.07549" lon="-4.50834">
        <ele>83.599998474121</ele>
        <time>2014-05-06T12:03:21Z</time>
      </trkpt>
      <trkpt lat="48.07544" lon="-4.50813">
        <ele>83.199996948242</ele>
        <time>2014-05-06T12:03:33Z</time>
      </trkpt>
      <trkpt lat="48.07542" lon="-4.50806">
        <ele>83.199996948242</ele>
        <time>2014-05-06T12:03:37Z</time>
      </trkpt>
      <trkpt lat="48.0754" lon="-4.50798">
        <ele>83</ele>
        <time>2014-05-06T12:03:41Z</time>
      </trkpt>
      <trkpt lat="48.07538" lon="-4.50789">
        <ele>82.800003051758</ele>
        <time>2014-05-06T12:03:45Z</time>
      </trkpt>
      <trkpt lat="48.07537" lon="-4.50786">
        <ele>82.800003051758</ele>
        <time>2014-05-06T12:03:47Z</time>
      </trkpt>
      <trkpt lat="48.07529" lon="-4.50767">
        <ele>82.400001525879</ele>
        <time>2014-05-06T12:03:58Z</time>
      </trkpt>
      <trkpt lat="48.07524" lon="-4.50751">
        <ele>81.800003051758</ele>
        <time>2014-05-06T12:04:08Z</time>
      </trkpt>
      <trkpt lat="48.0752" lon="-4.50742">
        <ele>81.599998474121</ele>
        <time>2014-05-06T12:04:14Z</time>
      </trkpt>
      <trkpt lat="48.07513" lon="-4.50729">
        <ele>81</ele>
        <time>2014-05-06T12:04:22Z</time>
      </trkpt>
      <trkpt lat="48.07512" lon="-4.50726">
        <ele>81</ele>
        <time>2014-05-06T12:04:24Z</time>
      </trkpt>
      <trkpt lat="48.0751" lon="-4.5072">
        <ele>80.800003051758</ele>
        <time>2014-05-06T12:04:28Z</time>
      </trkpt>
      <trkpt lat="48.07504" lon="-4.50706">
        <ele>80</ele>
        <time>2014-05-06T12:04:39Z</time>
      </trkpt>
      <trkpt lat="48.07497" lon="-4.50694">
        <ele>79.400001525879</ele>
        <time>2014-05-06T12:04:48Z</time>
      </trkpt>
      <trkpt lat="48.07495" lon="-4.50683">
        <ele>79</ele>
        <time>2014-05-06T12:04:57Z</time>
      </trkpt>
      <trkpt lat="48.07494" lon="-4.50674">
        <ele>78.800003051758</ele>
        <time>2014-05-06T12:05:03Z</time>
      </trkpt>
      <trkpt lat="48.07494" lon="-4.50667">
        <ele>78.599998474121</ele>
        <time>2014-05-06T12:05:07Z</time>
      </trkpt>
      <trkpt lat="48.07493" lon="-4.50665">
        <ele>78.599998474121</ele>
        <time>2014-05-06T12:05:09Z</time>
      </trkpt>
      <trkpt lat="48.07494" lon="-4.50645">
        <ele>78.199996948242</ele>
        <time>2014-05-06T12:05:17Z</time>
      </trkpt>
      <trkpt lat="48.0749" lon="-4.50628">
        <ele>77.800003051758</ele>
        <time>2014-05-06T12:05:26Z</time>
      </trkpt>
      <trkpt lat="48.07489" lon="-4.50612">
        <ele>77.800003051758</ele>
        <time>2014-05-06T12:05:35Z</time>
      </trkpt>
      <trkpt lat="48.07491" lon="-4.50595">
        <ele>77.800003051758</ele>
        <time>2014-05-06T12:05:44Z</time>
      </trkpt>
      <trkpt lat="48.07489" lon="-4.50573">
        <ele>77.800003051758</ele>
        <time>2014-05-06T12:05:56Z</time>
      </trkpt>
      <trkpt lat="48.07489" lon="-4.50568">
        <ele>77.800003051758</ele>
        <time>2014-05-06T12:05:58Z</time>
      </trkpt>
      <trkpt lat="48.0749" lon="-4.5055">
        <ele>77.800003051758</ele>
        <time>2014-05-06T12:06:07Z</time>
      </trkpt>
      <trkpt lat="48.07489" lon="-4.50529">
        <ele>77.400001525879</ele>
        <time>2014-05-06T12:06:17Z</time>
      </trkpt>
      <trkpt lat="48.07489" lon="-4.50517">
        <ele>77.400001525879</ele>
        <time>2014-05-06T12:06:24Z</time>
      </trkpt>
      <trkpt lat="48.07489" lon="-4.50499">
        <ele>77</ele>
        <time>2014-05-06T12:06:33Z</time>
      </trkpt>
      <trkpt lat="48.07486" lon="-4.50479">
        <ele>76.800003051758</ele>
        <time>2014-05-06T12:06:43Z</time>
      </trkpt>
      <trkpt lat="48.07485" lon="-4.50464">
        <ele>76.800003051758</ele>
        <time>2014-05-06T12:06:52Z</time>
      </trkpt>
      <trkpt lat="48.07485" lon="-4.50442">
        <ele>76.800003051758</ele>
        <time>2014-05-06T12:07:02Z</time>
      </trkpt>
      <trkpt lat="48.07488" lon="-4.50419">
        <ele>77.400001525879</ele>
        <time>2014-05-06T12:07:13Z</time>
      </trkpt>
      <trkpt lat="48.07489" lon="-4.50411">
        <ele>77.800003051758</ele>
        <time>2014-05-06T12:07:17Z</time>
      </trkpt>
      <trkpt lat="48.07491" lon="-4.50401">
        <ele>78</ele>
        <time>2014-05-06T12:07:22Z</time>
      </trkpt>
      <trkpt lat="48.07493" lon="-4.50394">
        <ele>78.199996948242</ele>
        <time>2014-05-06T12:07:25Z</time>
      </trkpt>
      <trkpt lat="48.07498" lon="-4.50371">
        <ele>78.800003051758</ele>
        <time>2014-05-06T12:07:35Z</time>
      </trkpt>
      <trkpt lat="48.07499" lon="-4.50367">
        <ele>78.800003051758</ele>
        <time>2014-05-06T12:07:38Z</time>
      </trkpt>
      <trkpt lat="48.07501" lon="-4.50357">
        <ele>79.199996948242</ele>
        <time>2014-05-06T12:07:43Z</time>
      </trkpt>
      <trkpt lat="48.07501" lon="-4.5035">
        <ele>79.400001525879</ele>
        <time>2014-05-06T12:07:47Z</time>
      </trkpt>
      <trkpt lat="48.07505" lon="-4.50331">
        <ele>79.800003051758</ele>
        <time>2014-05-06T12:07:58Z</time>
      </trkpt>
      <trkpt lat="48.07507" lon="-4.50318">
        <ele>80.199996948242</ele>
        <time>2014-05-06T12:08:05Z</time>
      </trkpt>
      <trkpt lat="48.07511" lon="-4.503">
        <ele>80.599998474121</ele>
        <time>2014-05-06T12:08:15Z</time>
      </trkpt>
      <trkpt lat="48.07513" lon="-4.50278">
        <ele>81.199996948242</ele>
        <time>2014-05-06T12:08:25Z</time>
      </trkpt>
      <trkpt lat="48.07513" lon="-4.50276">
        <ele>81.400001525879</ele>
        <time>2014-05-06T12:08:26Z</time>
      </trkpt>
      <trkpt lat="48.07514" lon="-4.50257">
        <ele>82</ele>
        <time>2014-05-06T12:08:36Z</time>
      </trkpt>
      <trkpt lat="48.07514" lon="-4.50249">
        <ele>82.400001525879</ele>
        <time>2014-05-06T12:08:40Z</time>
      </trkpt>
      <trkpt lat="48.07512" lon="-4.50225">
        <ele>83.199996948242</ele>
        <time>2014-05-06T12:08:52Z</time>
      </trkpt>
      <trkpt lat="48.07511" lon="-4.50215">
        <ele>83.400001525879</ele>
        <time>2014-05-06T12:08:58Z</time>
      </trkpt>
      <trkpt lat="48.07512" lon="-4.50197">
        <ele>84</ele>
        <time>2014-05-06T12:09:07Z</time>
      </trkpt>
      <trkpt lat="48.07511" lon="-4.50187">
        <ele>84.400001525879</ele>
        <time>2014-05-06T12:09:12Z</time>
      </trkpt>
      <trkpt lat="48.07511" lon="-4.5017">
        <ele>84.800003051758</ele>
        <time>2014-05-06T12:09:21Z</time>
      </trkpt>
      <trkpt lat="48.0751" lon="-4.50156">
        <ele>85</ele>
        <time>2014-05-06T12:09:28Z</time>
      </trkpt>
      <trkpt lat="48.07509" lon="-4.50143">
        <ele>85.400001525879</ele>
        <time>2014-05-06T12:09:35Z</time>
      </trkpt>
      <trkpt lat="48.07509" lon="-4.50127">
        <ele>85.800003051758</ele>
        <time>2014-05-06T12:09:44Z</time>
      </trkpt>
      <trkpt lat="48.0751" lon="-4.50113">
        <ele>86</ele>
        <time>2014-05-06T12:09:52Z</time>
      </trkpt>
      <trkpt lat="48.07509" lon="-4.50098">
        <ele>86</ele>
        <time>2014-05-06T12:10:01Z</time>
      </trkpt>
      <trkpt lat="48.07507" lon="-4.50083">
        <ele>85.800003051758</ele>
        <time>2014-05-06T12:10:10Z</time>
      </trkpt>
      <trkpt lat="48.07505" lon="-4.50072">
        <ele>85.800003051758</ele>
        <time>2014-05-06T12:10:16Z</time>
      </trkpt>
      <trkpt lat="48.07503" lon="-4.5006">
        <ele>85.599998474121</ele>
        <time>2014-05-06T12:10:24Z</time>
      </trkpt>
      <trkpt lat="48.07502" lon="-4.5005">
        <ele>85.599998474121</ele>
        <time>2014-05-06T12:10:30Z</time>
      </trkpt>
      <trkpt lat="48.07502" lon="-4.50043">
        <ele>85.599998474121</ele>
        <time>2014-05-06T12:10:34Z</time>
      </trkpt>
      <trkpt lat="48.07501" lon="-4.50038">
        <ele>85.599998474121</ele>
        <time>2014-05-06T12:10:37Z</time>
      </trkpt>
      <trkpt lat="48.07501" lon="-4.5003">
        <ele>85.800003051758</ele>
        <time>2014-05-06T12:10:41Z</time>
      </trkpt>
      <trkpt lat="48.075" lon="-4.50023">
        <ele>86</ele>
        <time>2014-05-06T12:10:46Z</time>
      </trkpt>
      <trkpt lat="48.075" lon="-4.50016">
        <ele>86.199996948242</ele>
        <time>2014-05-06T12:10:50Z</time>
      </trkpt>
      <trkpt lat="48.07497" lon="-4.49997">
        <ele>86.599998474121</ele>
        <time>2014-05-06T12:10:59Z</time>
      </trkpt>
      <trkpt lat="48.07497" lon="-4.49992">
        <ele>86.599998474121</ele>
        <time>2014-05-06T12:11:02Z</time>
      </trkpt>
      <trkpt lat="48.07496" lon="-4.49985">
        <ele>86.800003051758</ele>
        <time>2014-05-06T12:11:05Z</time>
      </trkpt>
      <trkpt lat="48.07496" lon="-4.49959">
        <ele>87.400001525879</ele>
        <time>2014-05-06T12:11:17Z</time>
      </trkpt>
      <trkpt lat="48.07496" lon="-4.49945">
        <ele>87.599998474121</ele>
        <time>2014-05-06T12:11:25Z</time>
      </trkpt>
      <trkpt lat="48.07495" lon="-4.49932">
        <ele>88.199996948242</ele>
        <time>2014-05-06T12:11:30Z</time>
      </trkpt>
      <trkpt lat="48.07496" lon="-4.49906">
        <ele>89.199996948242</ele>
        <time>2014-05-06T12:11:41Z</time>
      </trkpt>
      <trkpt lat="48.075" lon="-4.49875">
        <ele>90.400001525879</ele>
        <time>2014-05-06T12:11:53Z</time>
      </trkpt>
      <trkpt lat="48.07499" lon="-4.49851">
        <ele>90.400001525879</ele>
        <time>2014-05-06T12:12:05Z</time>
      </trkpt>
      <trkpt lat="48.07498" lon="-4.49826">
        <ele>90</ele>
        <time>2014-05-06T12:12:17Z</time>
      </trkpt>
      <trkpt lat="48.07497" lon="-4.49802">
        <ele>89.599998474121</ele>
        <time>2014-05-06T12:12:28Z</time>
      </trkpt>
      <trkpt lat="48.07497" lon="-4.49789">
        <ele>89.599998474121</ele>
        <time>2014-05-06T12:12:33Z</time>
      </trkpt>
      <trkpt lat="48.07497" lon="-4.49786">
        <ele>89.599998474121</ele>
        <time>2014-05-06T12:12:35Z</time>
      </trkpt>
      <trkpt lat="48.07496" lon="-4.49768">
        <ele>89.400001525879</ele>
        <time>2014-05-06T12:12:45Z</time>
      </trkpt>
      <trkpt lat="48.07496" lon="-4.49746">
        <ele>89</ele>
        <time>2014-05-06T12:12:57Z</time>
      </trkpt>
      <trkpt lat="48.07497" lon="-4.49729">
        <ele>89</ele>
        <time>2014-05-06T12:13:08Z</time>
      </trkpt>
      <trkpt lat="48.07498" lon="-4.49718">
        <ele>88.800003051758</ele>
        <time>2014-05-06T12:13:15Z</time>
      </trkpt>
      <trkpt lat="48.07497" lon="-4.49699">
        <ele>88.599998474121</ele>
        <time>2014-05-06T12:13:24Z</time>
      </trkpt>
      <trkpt lat="48.07499" lon="-4.49677">
        <ele>87.800003051758</ele>
        <time>2014-05-06T12:13:36Z</time>
      </trkpt>
      <trkpt lat="48.075" lon="-4.49659">
        <ele>87.199996948242</ele>
        <time>2014-05-06T12:13:46Z</time>
      </trkpt>
      <trkpt lat="48.07501" lon="-4.49657">
        <ele>87.199996948242</ele>
        <time>2014-05-06T12:13:55Z</time>
      </trkpt>
      <trkpt lat="48.07501" lon="-4.49655">
        <ele>87</ele>
        <time>2014-05-06T12:14:05Z</time>
      </trkpt>
      <trkpt lat="48.07501" lon="-4.49651">
        <ele>87</ele>
        <time>2014-05-06T12:14:17Z</time>
      </trkpt>
      <trkpt lat="48.07503" lon="-4.4963">
        <ele>86.199996948242</ele>
        <time>2014-05-06T12:14:30Z</time>
      </trkpt>
      <trkpt lat="48.07507" lon="-4.49616">
        <ele>86</ele>
        <time>2014-05-06T12:14:42Z</time>
      </trkpt>
      <trkpt lat="48.0751" lon="-4.49605">
        <ele>85.400001525879</ele>
        <time>2014-05-06T12:14:53Z</time>
      </trkpt>
      <trkpt lat="48.07515" lon="-4.49589">
        <ele>84.599998474121</ele>
        <time>2014-05-06T12:15:03Z</time>
      </trkpt>
      <trkpt lat="48.07516" lon="-4.4958">
        <ele>84</ele>
        <time>2014-05-06T12:15:08Z</time>
      </trkpt>
      <trkpt lat="48.07518" lon="-4.49577">
        <ele>83.800003051758</ele>
        <time>2014-05-06T12:15:10Z</time>
      </trkpt>
      <trkpt lat="48.07517" lon="-4.49559">
        <ele>83</ele>
        <time>2014-05-06T12:15:19Z</time>
      </trkpt>
      <trkpt lat="48.07515" lon="-4.49552">
        <ele>82.800003051758</ele>
        <time>2014-05-06T12:15:23Z</time>
      </trkpt>
      <trkpt lat="48.07512" lon="-4.4954">
        <ele>82.199996948242</ele>
        <time>2014-05-06T12:15:29Z</time>
      </trkpt>
      <trkpt lat="48.07505" lon="-4.49523">
        <ele>82</ele>
        <time>2014-05-06T12:15:38Z</time>
      </trkpt>
      <trkpt lat="48.07503" lon="-4.49518">
        <ele>81.800003051758</ele>
        <time>2014-05-06T12:15:41Z</time>
      </trkpt>
      <trkpt lat="48.07496" lon="-4.495">
        <ele>81.599998474121</ele>
        <time>2014-05-06T12:15:52Z</time>
      </trkpt>
      <trkpt lat="48.07492" lon="-4.49489">
        <ele>81.599998474121</ele>
        <time>2014-05-06T12:15:59Z</time>
      </trkpt>
      <trkpt lat="48.07485" lon="-4.49471">
        <ele>81.400001525879</ele>
        <time>2014-05-06T12:16:10Z</time>
      </trkpt>
      <trkpt lat="48.07484" lon="-4.4947">
        <ele>81.400001525879</ele>
        <time>2014-05-06T12:16:11Z</time>
      </trkpt>
      <trkpt lat="48.07478" lon="-4.49455">
        <ele>81</ele>
        <time>2014-05-06T12:16:21Z</time>
      </trkpt>
      <trkpt lat="48.07475" lon="-4.49449">
        <ele>80.800003051758</ele>
        <time>2014-05-06T12:16:25Z</time>
      </trkpt>
      <trkpt lat="48.07473" lon="-4.49445">
        <ele>80.800003051758</ele>
        <time>2014-05-06T12:16:28Z</time>
      </trkpt>
      <trkpt lat="48.07473" lon="-4.49442">
        <ele>80.800003051758</ele>
        <time>2014-05-06T12:16:30Z</time>
      </trkpt>
      <trkpt lat="48.07467" lon="-4.49426">
        <ele>80.800003051758</ele>
        <time>2014-05-06T12:16:39Z</time>
      </trkpt>
      <trkpt lat="48.0746" lon="-4.49407">
        <ele>80.599998474121</ele>
        <time>2014-05-06T12:16:50Z</time>
      </trkpt>
      <trkpt lat="48.07458" lon="-4.49402">
        <ele>80.599998474121</ele>
        <time>2014-05-06T12:16:53Z</time>
      </trkpt>
      <trkpt lat="48.07453" lon="-4.49384">
        <ele>80.599998474121</ele>
        <time>2014-05-06T12:17:03Z</time>
      </trkpt>
      <trkpt lat="48.07446" lon="-4.49364">
        <ele>80.400001525879</ele>
        <time>2014-05-06T12:17:16Z</time>
      </trkpt>
      <trkpt lat="48.07444" lon="-4.49357">
        <ele>80.400001525879</ele>
        <time>2014-05-06T12:17:20Z</time>
      </trkpt>
      <trkpt lat="48.07441" lon="-4.49348">
        <ele>80.199996948242</ele>
        <time>2014-05-06T12:17:26Z</time>
      </trkpt>
      <trkpt lat="48.07437" lon="-4.49332">
        <ele>79.599998474121</ele>
        <time>2014-05-06T12:17:35Z</time>
      </trkpt>
      <trkpt lat="48.0743" lon="-4.49313">
        <ele>79</ele>
        <time>2014-05-06T12:17:46Z</time>
      </trkpt>
      <trkpt lat="48.07429" lon="-4.49308">
        <ele>78.800003051758</ele>
        <time>2014-05-06T12:17:49Z</time>
      </trkpt>
      <trkpt lat="48.07422" lon="-4.49292">
        <ele>78.400001525879</ele>
        <time>2014-05-06T12:17:59Z</time>
      </trkpt>
      <trkpt lat="48.07419" lon="-4.49285">
        <ele>78.199996948242</ele>
        <time>2014-05-06T12:18:04Z</time>
      </trkpt>
      <trkpt lat="48.07412" lon="-4.49269">
        <ele>78</ele>
        <time>2014-05-06T12:18:14Z</time>
      </trkpt>
      <trkpt lat="48.07405" lon="-4.49253">
        <ele>77.800003051758</ele>
        <time>2014-05-06T12:18:25Z</time>
      </trkpt>
      <trkpt lat="48.07394" lon="-4.49235">
        <ele>77.599998474121</ele>
        <time>2014-05-06T12:18:36Z</time>
      </trkpt>
      <trkpt lat="48.07393" lon="-4.49232">
        <ele>77.599998474121</ele>
        <time>2014-05-06T12:18:38Z</time>
      </trkpt>
      <trkpt lat="48.07388" lon="-4.49224">
        <ele>77.400001525879</ele>
        <time>2014-05-06T12:18:48Z</time>
      </trkpt>
      <trkpt lat="48.0738" lon="-4.49202">
        <ele>77.199996948242</ele>
        <time>2014-05-06T12:19:00Z</time>
      </trkpt>
      <trkpt lat="48.07375" lon="-4.49187">
        <ele>77</ele>
        <time>2014-05-06T12:19:09Z</time>
      </trkpt>
      <trkpt lat="48.07371" lon="-4.49173">
        <ele>76.599998474121</ele>
        <time>2014-05-06T12:19:17Z</time>
      </trkpt>
      <trkpt lat="48.07366" lon="-4.49164">
        <ele>76.400001525879</ele>
        <time>2014-05-06T12:19:23Z</time>
      </trkpt>
      <trkpt lat="48.07363" lon="-4.49145">
        <ele>75.800003051758</ele>
        <time>2014-05-06T12:19:34Z</time>
      </trkpt>
      <trkpt lat="48.07363" lon="-4.49142">
        <ele>75.599998474121</ele>
        <time>2014-05-06T12:19:35Z</time>
      </trkpt>
      <trkpt lat="48.07365" lon="-4.49139">
        <ele>75.599998474121</ele>
        <time>2014-05-06T12:19:38Z</time>
      </trkpt>
      <trkpt lat="48.07373" lon="-4.49134">
        <ele>75.199996948242</ele>
        <time>2014-05-06T12:19:47Z</time>
      </trkpt>
      <trkpt lat="48.07379" lon="-4.49129">
        <ele>75</ele>
        <time>2014-05-06T12:19:53Z</time>
      </trkpt>
      <trkpt lat="48.07385" lon="-4.49124">
        <ele>74.800003051758</ele>
        <time>2014-05-06T12:19:59Z</time>
      </trkpt>
      <trkpt lat="48.07397" lon="-4.49115">
        <ele>74.400001525879</ele>
        <time>2014-05-06T12:20:10Z</time>
      </trkpt>
      <trkpt lat="48.07407" lon="-4.49106">
        <ele>74</ele>
        <time>2014-05-06T12:20:20Z</time>
      </trkpt>
      <trkpt lat="48.07416" lon="-4.49096">
        <ele>73.599998474121</ele>
        <time>2014-05-06T12:20:30Z</time>
      </trkpt>
      <trkpt lat="48.07426" lon="-4.4909">
        <ele>73.400001525879</ele>
        <time>2014-05-06T12:20:39Z</time>
      </trkpt>
      <trkpt lat="48.07437" lon="-4.4908">
        <ele>72.599998474121</ele>
        <time>2014-05-06T12:20:50Z</time>
      </trkpt>
      <trkpt lat="48.07446" lon="-4.49071">
        <ele>72</ele>
        <time>2014-05-06T12:21:00Z</time>
      </trkpt>
      <trkpt lat="48.07452" lon="-4.49067">
        <ele>71.599998474121</ele>
        <time>2014-05-06T12:21:05Z</time>
      </trkpt>
      <trkpt lat="48.07456" lon="-4.49066">
        <ele>71.400001525879</ele>
        <time>2014-05-06T12:21:09Z</time>
      </trkpt>
      <trkpt lat="48.0746" lon="-4.49065">
        <ele>71.199996948242</ele>
        <time>2014-05-06T12:21:12Z</time>
      </trkpt>
      <trkpt lat="48.07465" lon="-4.49065">
        <ele>70.800003051758</ele>
        <time>2014-05-06T12:21:16Z</time>
      </trkpt>
      <trkpt lat="48.07477" lon="-4.49062">
        <ele>70.199996948242</ele>
        <time>2014-05-06T12:21:26Z</time>
      </trkpt>
      <trkpt lat="48.07491" lon="-4.4906">
        <ele>69.800003051758</ele>
        <time>2014-05-06T12:21:37Z</time>
      </trkpt>
      <trkpt lat="48.07496" lon="-4.4906">
        <ele>69.599998474121</ele>
        <time>2014-05-06T12:21:41Z</time>
      </trkpt>
      <trkpt lat="48.07502" lon="-4.49059">
        <ele>69.400001525879</ele>
        <time>2014-05-06T12:21:46Z</time>
      </trkpt>
      <trkpt lat="48.0751" lon="-4.49061">
        <ele>69.400001525879</ele>
        <time>2014-05-06T12:21:53Z</time>
      </trkpt>
      <trkpt lat="48.0752" lon="-4.49063">
        <ele>69.400001525879</ele>
        <time>2014-05-06T12:22:02Z</time>
      </trkpt>
      <trkpt lat="48.07535" lon="-4.49067">
        <ele>69.599998474121</ele>
        <time>2014-05-06T12:22:14Z</time>
      </trkpt>
      <trkpt lat="48.07549" lon="-4.49071">
        <ele>69.800003051758</ele>
        <time>2014-05-06T12:22:25Z</time>
      </trkpt>
      <trkpt lat="48.07554" lon="-4.49072">
        <ele>69.800003051758</ele>
        <time>2014-05-06T12:22:29Z</time>
      </trkpt>
      <trkpt lat="48.07569" lon="-4.49073">
        <ele>69.599998474121</ele>
        <time>2014-05-06T12:22:40Z</time>
      </trkpt>
      <trkpt lat="48.07577" lon="-4.49076">
        <ele>69.400001525879</ele>
        <time>2014-05-06T12:22:49Z</time>
      </trkpt>
      <trkpt lat="48.07583" lon="-4.49073">
        <ele>69.199996948242</ele>
        <time>2014-05-06T12:22:55Z</time>
      </trkpt>
      <trkpt lat="48.07586" lon="-4.49068">
        <ele>69</ele>
        <time>2014-05-06T12:22:59Z</time>
      </trkpt>
      <trkpt lat="48.07588" lon="-4.49057">
        <ele>68.800003051758</ele>
        <time>2014-05-06T12:23:05Z</time>
      </trkpt>
      <trkpt lat="48.07591" lon="-4.49038">
        <ele>68.199996948242</ele>
        <time>2014-05-06T12:23:16Z</time>
      </trkpt>
      <trkpt lat="48.07594" lon="-4.4902">
        <ele>68</ele>
        <time>2014-05-06T12:23:26Z</time>
      </trkpt>
      <trkpt lat="48.07598" lon="-4.48997">
        <ele>67.599998474121</ele>
        <time>2014-05-06T12:23:39Z</time>
      </trkpt>
      <trkpt lat="48.07601" lon="-4.48975">
        <ele>67.599998474121</ele>
        <time>2014-05-06T12:23:51Z</time>
      </trkpt>
      <trkpt lat="48.07603" lon="-4.48954">
        <ele>67.400001525879</ele>
        <time>2014-05-06T12:24:04Z</time>
      </trkpt>
      <trkpt lat="48.07604" lon="-4.48931">
        <ele>67.400001525879</ele>
        <time>2014-05-06T12:24:17Z</time>
      </trkpt>
      <trkpt lat="48.07605" lon="-4.48922">
        <ele>67.400001525879</ele>
        <time>2014-05-06T12:24:21Z</time>
      </trkpt>
      <trkpt lat="48.0761" lon="-4.48903">
        <ele>67.400001525879</ele>
        <time>2014-05-06T12:24:32Z</time>
      </trkpt>
      <trkpt lat="48.07612" lon="-4.48898">
        <ele>67.199996948242</ele>
        <time>2014-05-06T12:24:35Z</time>
      </trkpt>
      <trkpt lat="48.07616" lon="-4.48888">
        <ele>67</ele>
        <time>2014-05-06T12:24:41Z</time>
      </trkpt>
      <trkpt lat="48.07621" lon="-4.48873">
        <ele>67</ele>
        <time>2014-05-06T12:24:50Z</time>
      </trkpt>
      <trkpt lat="48.07622" lon="-4.48871">
        <ele>66.800003051758</ele>
        <time>2014-05-06T12:24:51Z</time>
      </trkpt>
      <trkpt lat="48.07623" lon="-4.48867">
        <ele>66.800003051758</ele>
        <time>2014-05-06T12:24:53Z</time>
      </trkpt>
      <trkpt lat="48.07625" lon="-4.4886">
        <ele>66.599998474121</ele>
        <time>2014-05-06T12:24:57Z</time>
      </trkpt>
      <trkpt lat="48.07626" lon="-4.48857">
        <ele>66.400001525879</ele>
        <time>2014-05-06T12:24:59Z</time>
      </trkpt>
      <trkpt lat="48.07634" lon="-4.48834">
        <ele>65.199996948242</ele>
        <time>2014-05-06T12:25:12Z</time>
      </trkpt>
      <trkpt lat="48.07641" lon="-4.48819">
        <ele>64.400001525879</ele>
        <time>2014-05-06T12:25:23Z</time>
      </trkpt>
      <trkpt lat="48.07651" lon="-4.48797">
        <ele>63</ele>
        <time>2014-05-06T12:25:37Z</time>
      </trkpt>
      <trkpt lat="48.0766" lon="-4.4878">
        <ele>62</ele>
        <time>2014-05-06T12:25:49Z</time>
      </trkpt>
      <trkpt lat="48.07669" lon="-4.48763">
        <ele>61.200000762939</ele>
        <time>2014-05-06T12:25:59Z</time>
      </trkpt>
      <trkpt lat="48.07679" lon="-4.48743">
        <ele>60.400001525879</ele>
        <time>2014-05-06T12:26:12Z</time>
      </trkpt>
      <trkpt lat="48.0768" lon="-4.4874">
        <ele>60.400001525879</ele>
        <time>2014-05-06T12:26:14Z</time>
      </trkpt>
      <trkpt lat="48.07686" lon="-4.48722">
        <ele>60</ele>
        <time>2014-05-06T12:26:25Z</time>
      </trkpt>
      <trkpt lat="48.07687" lon="-4.48718">
        <ele>59.799999237061</ele>
        <time>2014-05-06T12:26:28Z</time>
      </trkpt>
      <trkpt lat="48.0769" lon="-4.48709">
        <ele>59.599998474121</ele>
        <time>2014-05-06T12:26:33Z</time>
      </trkpt>
      <trkpt lat="48.07695" lon="-4.48694">
        <ele>59.400001525879</ele>
        <time>2014-05-06T12:26:43Z</time>
      </trkpt>
      <trkpt lat="48.07706" lon="-4.48672">
        <ele>59.200000762939</ele>
        <time>2014-05-06T12:26:56Z</time>
      </trkpt>
      <trkpt lat="48.07708" lon="-4.48667">
        <ele>59.200000762939</ele>
        <time>2014-05-06T12:26:59Z</time>
      </trkpt>
      <trkpt lat="48.07713" lon="-4.48648">
        <ele>59</ele>
        <time>2014-05-06T12:27:10Z</time>
      </trkpt>
      <trkpt lat="48.07718" lon="-4.48627">
        <ele>58.599998474121</ele>
        <time>2014-05-06T12:27:22Z</time>
      </trkpt>
      <trkpt lat="48.07722" lon="-4.4861">
        <ele>58.599998474121</ele>
        <time>2014-05-06T12:27:31Z</time>
      </trkpt>
      <trkpt lat="48.0773" lon="-4.48591">
        <ele>58.599998474121</ele>
        <time>2014-05-06T12:27:42Z</time>
      </trkpt>
      <trkpt lat="48.07734" lon="-4.48574">
        <ele>58.799999237061</ele>
        <time>2014-05-06T12:27:50Z</time>
      </trkpt>
      <trkpt lat="48.07736" lon="-4.48563">
        <ele>59</ele>
        <time>2014-05-06T12:27:56Z</time>
      </trkpt>
      <trkpt lat="48.07739" lon="-4.48553">
        <ele>59</ele>
        <time>2014-05-06T12:28:01Z</time>
      </trkpt>
      <trkpt lat="48.07738" lon="-4.4855">
        <ele>59.200000762939</ele>
        <time>2014-05-06T12:28:03Z</time>
      </trkpt>
      <trkpt lat="48.07746" lon="-4.48526">
        <ele>59.599998474121</ele>
        <time>2014-05-06T12:28:15Z</time>
      </trkpt>
      <trkpt lat="48.0775" lon="-4.48517">
        <ele>59.799999237061</ele>
        <time>2014-05-06T12:28:20Z</time>
      </trkpt>
      <trkpt lat="48.07754" lon="-4.48505">
        <ele>60.200000762939</ele>
        <time>2014-05-06T12:28:27Z</time>
      </trkpt>
      <trkpt lat="48.0776" lon="-4.48487">
        <ele>60.599998474121</ele>
        <time>2014-05-06T12:28:38Z</time>
      </trkpt>
      <trkpt lat="48.07762" lon="-4.48486">
        <ele>60.599998474121</ele>
        <time>2014-05-06T12:28:39Z</time>
      </trkpt>
      <trkpt lat="48.07773" lon="-4.48487">
        <ele>60.400001525879</ele>
        <time>2014-05-06T12:28:49Z</time>
      </trkpt>
      <trkpt lat="48.07779" lon="-4.48489">
        <ele>60.400001525879</ele>
        <time>2014-05-06T12:28:54Z</time>
      </trkpt>
      <trkpt lat="48.07795" lon="-4.48495">
        <ele>60</ele>
        <time>2014-05-06T12:29:06Z</time>
      </trkpt>
      <trkpt lat="48.07799" lon="-4.48495">
        <ele>60</ele>
        <time>2014-05-06T12:29:09Z</time>
      </trkpt>
      <trkpt lat="48.07804" lon="-4.48496">
        <ele>60</ele>
        <time>2014-05-06T12:29:13Z</time>
      </trkpt>
      <trkpt lat="48.07806" lon="-4.48498">
        <ele>60.200000762939</ele>
        <time>2014-05-06T12:29:15Z</time>
      </trkpt>
      <trkpt lat="48.07809" lon="-4.48498">
        <ele>60.200000762939</ele>
        <time>2014-05-06T12:29:18Z</time>
      </trkpt>
      <trkpt lat="48.07811" lon="-4.48499">
        <ele>60.200000762939</ele>
        <time>2014-05-06T12:29:20Z</time>
      </trkpt>
      <trkpt lat="48.07824" lon="-4.48502">
        <ele>60.599998474121</ele>
        <time>2014-05-06T12:29:32Z</time>
      </trkpt>
      <trkpt lat="48.07835" lon="-4.48514">
        <ele>60.799999237061</ele>
        <time>2014-05-06T12:29:42Z</time>
      </trkpt>
      <trkpt lat="48.07836" lon="-4.48515">
        <ele>60.799999237061</ele>
        <time>2014-05-06T12:29:43Z</time>
      </trkpt>
      <trkpt lat="48.07845" lon="-4.48524">
        <ele>61</ele>
        <time>2014-05-06T12:29:53Z</time>
      </trkpt>
      <trkpt lat="48.07858" lon="-4.48524">
        <ele>60.599998474121</ele>
        <time>2014-05-06T12:30:03Z</time>
      </trkpt>
      <trkpt lat="48.07871" lon="-4.48522">
        <ele>60.200000762939</ele>
        <time>2014-05-06T12:30:13Z</time>
      </trkpt>
      <trkpt lat="48.07882" lon="-4.48523">
        <ele>60</ele>
        <time>2014-05-06T12:30:21Z</time>
      </trkpt>
      <trkpt lat="48.07895" lon="-4.48525">
        <ele>59.599998474121</ele>
        <time>2014-05-06T12:30:31Z</time>
      </trkpt>
      <trkpt lat="48.07909" lon="-4.48525">
        <ele>59.400001525879</ele>
        <time>2014-05-06T12:30:41Z</time>
      </trkpt>
      <trkpt lat="48.07924" lon="-4.48527">
        <ele>59</ele>
        <time>2014-05-06T12:30:52Z</time>
      </trkpt>
      <trkpt lat="48.0794" lon="-4.48533">
        <ele>58.400001525879</ele>
        <time>2014-05-06T12:31:03Z</time>
      </trkpt>
      <trkpt lat="48.07952" lon="-4.48537">
        <ele>57.799999237061</ele>
        <time>2014-05-06T12:31:12Z</time>
      </trkpt>
      <trkpt lat="48.07961" lon="-4.48538">
        <ele>57.400001525879</ele>
        <time>2014-05-06T12:31:19Z</time>
      </trkpt>
      <trkpt lat="48.07968" lon="-4.48541">
        <ele>57</ele>
        <time>2014-05-06T12:31:25Z</time>
      </trkpt>
      <trkpt lat="48.07976" lon="-4.48531">
        <ele>56.599998474121</ele>
        <time>2014-05-06T12:31:35Z</time>
      </trkpt>
      <trkpt lat="48.07976" lon="-4.48525">
        <ele>56.599998474121</ele>
        <time>2014-05-06T12:31:43Z</time>
      </trkpt>
      <trkpt lat="48.07978" lon="-4.48511">
        <ele>56.200000762939</ele>
        <time>2014-05-06T12:31:51Z</time>
      </trkpt>
      <trkpt lat="48.0798" lon="-4.48499">
        <ele>56</ele>
        <time>2014-05-06T12:31:58Z</time>
      </trkpt>
      <trkpt lat="48.07984" lon="-4.48476">
        <ele>55.599998474121</ele>
        <time>2014-05-06T12:32:12Z</time>
      </trkpt>
      <trkpt lat="48.07988" lon="-4.48472">
        <ele>55.400001525879</ele>
        <time>2014-05-06T12:32:16Z</time>
      </trkpt>
      <trkpt lat="48.07998" lon="-4.48469">
        <ele>54.799999237061</ele>
        <time>2014-05-06T12:32:25Z</time>
      </trkpt>
      <trkpt lat="48.0801" lon="-4.48475">
        <ele>54.200000762939</ele>
        <time>2014-05-06T12:32:38Z</time>
      </trkpt>
      <trkpt lat="48.08017" lon="-4.48477">
        <ele>54</ele>
        <time>2014-05-06T12:32:43Z</time>
      </trkpt>
      <trkpt lat="48.08027" lon="-4.48477">
        <ele>53.799999237061</ele>
        <time>2014-05-06T12:32:48Z</time>
      </trkpt>
      <trkpt lat="48.08034" lon="-4.48481">
        <ele>53.400001525879</ele>
        <time>2014-05-06T12:32:54Z</time>
      </trkpt>
      <trkpt lat="48.08037" lon="-4.48483">
        <ele>53.400001525879</ele>
        <time>2014-05-06T12:32:56Z</time>
      </trkpt>
      <trkpt lat="48.08053" lon="-4.48488">
        <ele>53</ele>
        <time>2014-05-06T12:33:08Z</time>
      </trkpt>
      <trkpt lat="48.08057" lon="-4.48489">
        <ele>52.799999237061</ele>
        <time>2014-05-06T12:33:11Z</time>
      </trkpt>
      <trkpt lat="48.08063" lon="-4.48492">
        <ele>52.599998474121</ele>
        <time>2014-05-06T12:33:16Z</time>
      </trkpt>
      <trkpt lat="48.08076" lon="-4.48497">
        <ele>52.200000762939</ele>
        <time>2014-05-06T12:33:26Z</time>
      </trkpt>
      <trkpt lat="48.08091" lon="-4.48504">
        <ele>51.799999237061</ele>
        <time>2014-05-06T12:33:38Z</time>
      </trkpt>
      <trkpt lat="48.08095" lon="-4.48506">
        <ele>51.599998474121</ele>
        <time>2014-05-06T12:33:48Z</time>
      </trkpt>
      <trkpt lat="48.08108" lon="-4.48512">
        <ele>51.200000762939</ele>
        <time>2014-05-06T12:33:58Z</time>
      </trkpt>
      <trkpt lat="48.0812" lon="-4.48522">
        <ele>51.200000762939</ele>
        <time>2014-05-06T12:34:09Z</time>
      </trkpt>
      <trkpt lat="48.08125" lon="-4.48526">
        <ele>51.400001525879</ele>
        <time>2014-05-06T12:34:13Z</time>
      </trkpt>
      <trkpt lat="48.08133" lon="-4.48535">
        <ele>51.599998474121</ele>
        <time>2014-05-06T12:34:21Z</time>
      </trkpt>
      <trkpt lat="48.08138" lon="-4.48539">
        <ele>51.400001525879</ele>
        <time>2014-05-06T12:34:25Z</time>
      </trkpt>
      <trkpt lat="48.08145" lon="-4.48555">
        <ele>51.400001525879</ele>
        <time>2014-05-06T12:34:35Z</time>
      </trkpt>
      <trkpt lat="48.08146" lon="-4.48562">
        <ele>51.400001525879</ele>
        <time>2014-05-06T12:34:39Z</time>
      </trkpt>
      <trkpt lat="48.0815" lon="-4.48578">
        <ele>52</ele>
        <time>2014-05-06T12:34:48Z</time>
      </trkpt>
      <trkpt lat="48.08156" lon="-4.48597">
        <ele>52.799999237061</ele>
        <time>2014-05-06T12:34:57Z</time>
      </trkpt>
      <trkpt lat="48.08161" lon="-4.4861">
        <ele>53.400001525879</ele>
        <time>2014-05-06T12:35:07Z</time>
      </trkpt>
      <trkpt lat="48.08164" lon="-4.48624">
        <ele>53.599998474121</ele>
        <time>2014-05-06T12:35:16Z</time>
      </trkpt>
      <trkpt lat="48.08168" lon="-4.48637">
        <ele>53.799999237061</ele>
        <time>2014-05-06T12:35:24Z</time>
      </trkpt>
      <trkpt lat="48.08175" lon="-4.4865">
        <ele>54.400001525879</ele>
        <time>2014-05-06T12:35:35Z</time>
      </trkpt>
      <trkpt lat="48.0818" lon="-4.48667">
        <ele>54.599998474121</ele>
        <time>2014-05-06T12:35:45Z</time>
      </trkpt>
      <trkpt lat="48.08185" lon="-4.48683">
        <ele>54.599998474121</ele>
        <time>2014-05-06T12:35:55Z</time>
      </trkpt>
      <trkpt lat="48.08192" lon="-4.48698">
        <ele>54.799999237061</ele>
        <time>2014-05-06T12:36:05Z</time>
      </trkpt>
      <trkpt lat="48.08198" lon="-4.48716">
        <ele>54.599998474121</ele>
        <time>2014-05-06T12:36:16Z</time>
      </trkpt>
      <trkpt lat="48.08204" lon="-4.48731">
        <ele>54.200000762939</ele>
        <time>2014-05-06T12:36:25Z</time>
      </trkpt>
      <trkpt lat="48.08213" lon="-4.48752">
        <ele>53.799999237061</ele>
        <time>2014-05-06T12:36:37Z</time>
      </trkpt>
      <trkpt lat="48.08215" lon="-4.48759">
        <ele>53.599998474121</ele>
        <time>2014-05-06T12:36:41Z</time>
      </trkpt>
      <trkpt lat="48.08222" lon="-4.4878">
        <ele>53</ele>
        <time>2014-05-06T12:36:54Z</time>
      </trkpt>
      <trkpt lat="48.08223" lon="-4.48783">
        <ele>52.799999237061</ele>
        <time>2014-05-06T12:36:56Z</time>
      </trkpt>
      <trkpt lat="48.08227" lon="-4.48791">
        <ele>52.200000762939</ele>
        <time>2014-05-06T12:37:02Z</time>
      </trkpt>
      <trkpt lat="48.08233" lon="-4.48801">
        <ele>51.200000762939</ele>
        <time>2014-05-06T12:37:09Z</time>
      </trkpt>
      <trkpt lat="48.08245" lon="-4.48821">
        <ele>50</ele>
        <time>2014-05-06T12:37:23Z</time>
      </trkpt>
      <trkpt lat="48.08255" lon="-4.48834">
        <ele>49.400001525879</ele>
        <time>2014-05-06T12:37:34Z</time>
      </trkpt>
      <trkpt lat="48.08262" lon="-4.48847">
        <ele>48.799999237061</ele>
        <time>2014-05-06T12:37:44Z</time>
      </trkpt>
      <trkpt lat="48.08273" lon="-4.48859">
        <ele>48</ele>
        <time>2014-05-06T12:37:56Z</time>
      </trkpt>
      <trkpt lat="48.08282" lon="-4.48864">
        <ele>47.799999237061</ele>
        <time>2014-05-06T12:38:02Z</time>
      </trkpt>
      <trkpt lat="48.08288" lon="-4.4887">
        <ele>47.400001525879</ele>
        <time>2014-05-06T12:38:08Z</time>
      </trkpt>
      <trkpt lat="48.08299" lon="-4.48879">
        <ele>46.599998474121</ele>
        <time>2014-05-06T12:38:18Z</time>
      </trkpt>
      <trkpt lat="48.08313" lon="-4.48889">
        <ele>45.799999237061</ele>
        <time>2014-05-06T12:38:28Z</time>
      </trkpt>
      <trkpt lat="48.08327" lon="-4.48899">
        <ele>45.200000762939</ele>
        <time>2014-05-06T12:38:39Z</time>
      </trkpt>
      <trkpt lat="48.08331" lon="-4.48903">
        <ele>45.200000762939</ele>
        <time>2014-05-06T12:38:43Z</time>
      </trkpt>
      <trkpt lat="48.08348" lon="-4.4892">
        <ele>44.200000762939</ele>
        <time>2014-05-06T12:38:58Z</time>
      </trkpt>
      <trkpt lat="48.08361" lon="-4.48931">
        <ele>43</ele>
        <time>2014-05-06T12:39:09Z</time>
      </trkpt>
      <trkpt lat="48.08375" lon="-4.48943">
        <ele>41.799999237061</ele>
        <time>2014-05-06T12:39:21Z</time>
      </trkpt>
      <trkpt lat="48.0839" lon="-4.48954">
        <ele>40.400001525879</ele>
        <time>2014-05-06T12:39:34Z</time>
      </trkpt>
      <trkpt lat="48.08396" lon="-4.48961">
        <ele>39.400001525879</ele>
        <time>2014-05-06T12:39:42Z</time>
      </trkpt>
      <trkpt lat="48.08403" lon="-4.48966">
        <ele>38.799999237061</ele>
        <time>2014-05-06T12:39:53Z</time>
      </trkpt>
      <trkpt lat="48.08403" lon="-4.48966">
        <ele>38.799999237061</ele>
        <time>2014-05-06T12:39:58Z</time>
      </trkpt>
      <trkpt lat="48.08413" lon="-4.48975">
        <ele>37.200000762939</ele>
        <time>2014-05-06T12:40:09Z</time>
      </trkpt>
      <trkpt lat="48.08415" lon="-4.48977">
        <ele>36.799999237061</ele>
        <time>2014-05-06T12:40:11Z</time>
      </trkpt>
      <trkpt lat="48.08417" lon="-4.4898">
        <ele>36.400001525879</ele>
        <time>2014-05-06T12:40:14Z</time>
      </trkpt>
      <trkpt lat="48.0842" lon="-4.48986">
        <ele>35.599998474121</ele>
        <time>2014-05-06T12:40:19Z</time>
      </trkpt>
      <trkpt lat="48.08426" lon="-4.48995">
        <ele>34.200000762939</ele>
        <time>2014-05-06T12:40:29Z</time>
      </trkpt>
      <trkpt lat="48.08433" lon="-4.49007">
        <ele>32.799999237061</ele>
        <time>2014-05-06T12:40:37Z</time>
      </trkpt>
      <trkpt lat="48.08442" lon="-4.49021">
        <ele>31.200000762939</ele>
        <time>2014-05-06T12:40:46Z</time>
      </trkpt>
      <trkpt lat="48.08446" lon="-4.49026">
        <ele>30.799999237061</ele>
        <time>2014-05-06T12:40:50Z</time>
      </trkpt>
      <trkpt lat="48.08449" lon="-4.49031">
        <ele>30.39999961853</ele>
        <time>2014-05-06T12:40:54Z</time>
      </trkpt>
      <trkpt lat="48.08453" lon="-4.49037">
        <ele>30.200000762939</ele>
        <time>2014-05-06T12:40:59Z</time>
      </trkpt>
      <trkpt lat="48.08464" lon="-4.49053">
        <ele>29.39999961853</ele>
        <time>2014-05-06T12:41:11Z</time>
      </trkpt>
      <trkpt lat="48.08472" lon="-4.49066">
        <ele>29</ele>
        <time>2014-05-06T12:41:21Z</time>
      </trkpt>
      <trkpt lat="48.08479" lon="-4.49073">
        <ele>28.200000762939</ele>
        <time>2014-05-06T12:41:30Z</time>
      </trkpt>
      <trkpt lat="48.08489" lon="-4.49087">
        <ele>26.60000038147</ele>
        <time>2014-05-06T12:41:40Z</time>
      </trkpt>
      <trkpt lat="48.08494" lon="-4.49094">
        <ele>25.799999237061</ele>
        <time>2014-05-06T12:41:45Z</time>
      </trkpt>
      <trkpt lat="48.085" lon="-4.49102">
        <ele>24.799999237061</ele>
        <time>2014-05-06T12:41:52Z</time>
      </trkpt>
      <trkpt lat="48.0851" lon="-4.49116">
        <ele>23</ele>
        <time>2014-05-06T12:42:03Z</time>
      </trkpt>
      <trkpt lat="48.0852" lon="-4.49125">
        <ele>23.200000762939</ele>
        <time>2014-05-06T12:42:14Z</time>
      </trkpt>
      <trkpt lat="48.08529" lon="-4.49139">
        <ele>23.39999961853</ele>
        <time>2014-05-06T12:42:25Z</time>
      </trkpt>
      <trkpt lat="48.08533" lon="-4.49143">
        <ele>23.39999961853</ele>
        <time>2014-05-06T12:42:29Z</time>
      </trkpt>
      <trkpt lat="48.08546" lon="-4.49165">
        <ele>23.39999961853</ele>
        <time>2014-05-06T12:42:41Z</time>
      </trkpt>
      <trkpt lat="48.08554" lon="-4.49174">
        <ele>22.200000762939</ele>
        <time>2014-05-06T12:42:50Z</time>
      </trkpt>
      <trkpt lat="48.08557" lon="-4.49178">
        <ele>21.60000038147</ele>
        <time>2014-05-06T12:42:54Z</time>
      </trkpt>
      <trkpt lat="48.08563" lon="-4.49179">
        <ele>21.200000762939</ele>
        <time>2014-05-06T12:43:01Z</time>
      </trkpt>
      <trkpt lat="48.08574" lon="-4.49177">
        <ele>21.200000762939</ele>
        <time>2014-05-06T12:43:12Z</time>
      </trkpt>
      <trkpt lat="48.08584" lon="-4.49191">
        <ele>19.39999961853</ele>
        <time>2014-05-06T12:43:21Z</time>
      </trkpt>
      <trkpt lat="48.08598" lon="-4.49192">
        <ele>17.799999237061</ele>
        <time>2014-05-06T12:43:30Z</time>
      </trkpt>
      <trkpt lat="48.08609" lon="-4.4919">
        <ele>16</ele>
        <time>2014-05-06T12:43:38Z</time>
      </trkpt>
      <trkpt lat="48.08618" lon="-4.49195">
        <ele>14.39999961853</ele>
        <time>2014-05-06T12:43:47Z</time>
      </trkpt>
      <trkpt lat="48.08618" lon="-4.49196">
        <ele>14.39999961853</ele>
        <time>2014-05-06T12:43:56Z</time>
      </trkpt>
      <trkpt lat="48.08612" lon="-4.49189">
        <ele>15.800000190735</ele>
        <time>2014-05-06T12:44:05Z</time>
      </trkpt>
      <trkpt lat="48.08612" lon="-4.4919">
        <ele>15.60000038147</ele>
        <time>2014-05-06T12:44:14Z</time>
      </trkpt>
      <trkpt lat="48.08613" lon="-4.49191">
        <ele>15.39999961853</ele>
        <time>2014-05-06T12:44:22Z</time>
      </trkpt>
      <trkpt lat="48.08616" lon="-4.49194">
        <ele>14.800000190735</ele>
        <time>2014-05-06T12:44:28Z</time>
      </trkpt>
      <trkpt lat="48.08617" lon="-4.49198">
        <ele>14.39999961853</ele>
        <time>2014-05-06T12:44:30Z</time>
      </trkpt>
      <trkpt lat="48.08619" lon="-4.492">
        <ele>14</ele>
        <time>2014-05-06T12:44:32Z</time>
      </trkpt>
      <trkpt lat="48.08623" lon="-4.49207">
        <ele>13.800000190735</ele>
        <time>2014-05-06T12:44:38Z</time>
      </trkpt>
      <trkpt lat="48.08629" lon="-4.49207">
        <ele>12.800000190735</ele>
        <time>2014-05-06T12:44:48Z</time>
      </trkpt>
      <trkpt lat="48.08629" lon="-4.49207">
        <ele>12.800000190735</ele>
        <time>2014-05-06T12:44:59Z</time>
      </trkpt>
      <trkpt lat="48.08627" lon="-4.49212">
        <ele>13.39999961853</ele>
        <time>2014-05-06T12:45:11Z</time>
      </trkpt>
      <trkpt lat="48.08628" lon="-4.49213">
        <ele>13.39999961853</ele>
        <time>2014-05-06T12:45:14Z</time>
      </trkpt>
      <trkpt lat="48.08628" lon="-4.4922">
        <ele>13.800000190735</ele>
        <time>2014-05-06T12:45:21Z</time>
      </trkpt>
      <trkpt lat="48.08628" lon="-4.49221">
        <ele>13.800000190735</ele>
        <time>2014-05-06T12:45:37Z</time>
      </trkpt>
      <trkpt lat="48.08628" lon="-4.49224">
        <ele>14</ele>
        <time>2014-05-06T12:45:39Z</time>
      </trkpt>
      <trkpt lat="48.08631" lon="-4.49237">
        <ele>14.39999961853</ele>
        <time>2014-05-06T12:45:47Z</time>
      </trkpt>
      <trkpt lat="48.08635" lon="-4.49244">
        <ele>14</ele>
        <time>2014-05-06T12:45:57Z</time>
      </trkpt>
      <trkpt lat="48.0864" lon="-4.4925">
        <ele>13.39999961853</ele>
        <time>2014-05-06T12:46:08Z</time>
      </trkpt>
      <trkpt lat="48.08642" lon="-4.49257">
        <ele>13.60000038147</ele>
        <time>2014-05-06T12:46:17Z</time>
      </trkpt>
      <trkpt lat="48.08648" lon="-4.49265">
        <ele>13</ele>
        <time>2014-05-06T12:46:27Z</time>
      </trkpt>
      <trkpt lat="48.08656" lon="-4.49276">
        <ele>12</ele>
        <time>2014-05-06T12:46:36Z</time>
      </trkpt>
      <trkpt lat="48.0866" lon="-4.49278">
        <ele>11.60000038147</ele>
        <time>2014-05-06T12:46:45Z</time>
      </trkpt>
      <trkpt lat="48.08662" lon="-4.49284">
        <ele>11.60000038147</ele>
        <time>2014-05-06T12:46:52Z</time>
      </trkpt>
      <trkpt lat="48.08663" lon="-4.49286">
        <ele>11.60000038147</ele>
        <time>2014-05-06T12:46:57Z</time>
      </trkpt>
      <trkpt lat="48.08666" lon="-4.49296">
        <ele>12.39999961853</ele>
        <time>2014-05-06T12:47:06Z</time>
      </trkpt>
      <trkpt lat="48.08672" lon="-4.49299">
        <ele>12.60000038147</ele>
        <time>2014-05-06T12:47:15Z</time>
      </trkpt>
      <trkpt lat="48.08675" lon="-4.49301">
        <ele>12.800000190735</ele>
        <time>2014-05-06T12:47:18Z</time>
      </trkpt>
      <trkpt lat="48.08684" lon="-4.49303">
        <ele>12.60000038147</ele>
        <time>2014-05-06T12:47:26Z</time>
      </trkpt>
      <trkpt lat="48.08688" lon="-4.49302">
        <ele>12.39999961853</ele>
        <time>2014-05-06T12:47:32Z</time>
      </trkpt>
      <trkpt lat="48.08696" lon="-4.49295">
        <ele>10.60000038147</ele>
        <time>2014-05-06T12:47:42Z</time>
      </trkpt>
      <trkpt lat="48.08707" lon="-4.49287">
        <ele>8.1999998092651</ele>
        <time>2014-05-06T12:47:52Z</time>
      </trkpt>
      <trkpt lat="48.08718" lon="-4.49283">
        <ele>7</ele>
        <time>2014-05-06T12:48:02Z</time>
      </trkpt>
      <trkpt lat="48.08728" lon="-4.49284">
        <ele>6.5999999046326</ele>
        <time>2014-05-06T12:48:11Z</time>
      </trkpt>
      <trkpt lat="48.08733" lon="-4.49298">
        <ele>9.1999998092651</ele>
        <time>2014-05-06T12:48:21Z</time>
      </trkpt>
      <trkpt lat="48.08733" lon="-4.49306">
        <ele>11</ele>
        <time>2014-05-06T12:48:25Z</time>
      </trkpt>
      <trkpt lat="48.08733" lon="-4.49311">
        <ele>11.800000190735</ele>
        <time>2014-05-06T12:48:28Z</time>
      </trkpt>
      <trkpt lat="48.08733" lon="-4.4932">
        <ele>12.39999961853</ele>
        <time>2014-05-06T12:48:34Z</time>
      </trkpt>
      <trkpt lat="48.08729" lon="-4.49333">
        <ele>14</ele>
        <time>2014-05-06T12:48:44Z</time>
      </trkpt>
      <trkpt lat="48.08725" lon="-4.49339">
        <ele>15.199999809265</ele>
        <time>2014-05-06T12:48:51Z</time>
      </trkpt>
      <trkpt lat="48.08722" lon="-4.49347">
        <ele>16</ele>
        <time>2014-05-06T12:48:58Z</time>
      </trkpt>
      <trkpt lat="48.0872" lon="-4.49351">
        <ele>16.799999237061</ele>
        <time>2014-05-06T12:49:07Z</time>
      </trkpt>
      <trkpt lat="48.08719" lon="-4.49364">
        <ele>17.799999237061</ele>
        <time>2014-05-06T12:49:16Z</time>
      </trkpt>
      <trkpt lat="48.08719" lon="-4.49377">
        <ele>18.39999961853</ele>
        <time>2014-05-06T12:49:25Z</time>
      </trkpt>
      <trkpt lat="48.0872" lon="-4.49387">
        <ele>18.60000038147</ele>
        <time>2014-05-06T12:49:32Z</time>
      </trkpt>
      <trkpt lat="48.08723" lon="-4.49404">
        <ele>19</ele>
        <time>2014-05-06T12:49:43Z</time>
      </trkpt>
      <trkpt lat="48.08723" lon="-4.49405">
        <ele>18.799999237061</ele>
        <time>2014-05-06T12:49:44Z</time>
      </trkpt>
      <trkpt lat="48.08725" lon="-4.49405">
        <ele>18.39999961853</ele>
        <time>2014-05-06T12:49:46Z</time>
      </trkpt>
      <trkpt lat="48.08729" lon="-4.49409">
        <ele>17.60000038147</ele>
        <time>2014-05-06T12:49:51Z</time>
      </trkpt>
      <trkpt lat="48.08729" lon="-4.49416">
        <ele>17.60000038147</ele>
        <time>2014-05-06T12:49:57Z</time>
      </trkpt>
      <trkpt lat="48.08728" lon="-4.49421">
        <ele>18</ele>
        <time>2014-05-06T12:50:01Z</time>
      </trkpt>
      <trkpt lat="48.08724" lon="-4.49434">
        <ele>19</ele>
        <time>2014-05-06T12:50:11Z</time>
      </trkpt>
      <trkpt lat="48.08723" lon="-4.49446">
        <ele>19.39999961853</ele>
        <time>2014-05-06T12:50:17Z</time>
      </trkpt>
      <trkpt lat="48.08722" lon="-4.49457">
        <ele>19.60000038147</ele>
        <time>2014-05-06T12:50:23Z</time>
      </trkpt>
      <trkpt lat="48.08725" lon="-4.49465">
        <ele>19</ele>
        <time>2014-05-06T12:50:28Z</time>
      </trkpt>
      <trkpt lat="48.08728" lon="-4.49473">
        <ele>18.200000762939</ele>
        <time>2014-05-06T12:50:34Z</time>
      </trkpt>
      <trkpt lat="48.08731" lon="-4.49483">
        <ele>17.60000038147</ele>
        <time>2014-05-06T12:50:40Z</time>
      </trkpt>
      <trkpt lat="48.08733" lon="-4.49493">
        <ele>17.200000762939</ele>
        <time>2014-05-06T12:50:46Z</time>
      </trkpt>
      <trkpt lat="48.08736" lon="-4.49499">
        <ele>16.799999237061</ele>
        <time>2014-05-06T12:50:50Z</time>
      </trkpt>
      <trkpt lat="48.08737" lon="-4.49506">
        <ele>16.60000038147</ele>
        <time>2014-05-06T12:50:55Z</time>
      </trkpt>
      <trkpt lat="48.0874" lon="-4.49513">
        <ele>16</ele>
        <time>2014-05-06T12:51:02Z</time>
      </trkpt>
      <trkpt lat="48.08744" lon="-4.49518">
        <ele>15.39999961853</ele>
        <time>2014-05-06T12:51:07Z</time>
      </trkpt>
      <trkpt lat="48.08745" lon="-4.49536">
        <ele>15.39999961853</ele>
        <time>2014-05-06T12:51:18Z</time>
      </trkpt>
      <trkpt lat="48.08744" lon="-4.49548">
        <ele>15.800000190735</ele>
        <time>2014-05-06T12:51:24Z</time>
      </trkpt>
      <trkpt lat="48.08743" lon="-4.49567">
        <ele>17.39999961853</ele>
        <time>2014-05-06T12:51:35Z</time>
      </trkpt>
      <trkpt lat="48.08741" lon="-4.49578">
        <ele>18.60000038147</ele>
        <time>2014-05-06T12:51:45Z</time>
      </trkpt>
      <trkpt lat="48.08742" lon="-4.4958">
        <ele>18.60000038147</ele>
        <time>2014-05-06T12:51:46Z</time>
      </trkpt>
      <trkpt lat="48.08745" lon="-4.49588">
        <ele>18.60000038147</ele>
        <time>2014-05-06T12:51:51Z</time>
      </trkpt>
      <trkpt lat="48.08748" lon="-4.49594">
        <ele>18.60000038147</ele>
        <time>2014-05-06T12:52:02Z</time>
      </trkpt>
      <trkpt lat="48.08748" lon="-4.49596">
        <ele>18.60000038147</ele>
        <time>2014-05-06T12:52:07Z</time>
      </trkpt>
      <trkpt lat="48.08757" lon="-4.49609">
        <ele>17.799999237061</ele>
        <time>2014-05-06T12:52:19Z</time>
      </trkpt>
      <trkpt lat="48.08762" lon="-4.49619">
        <ele>17.60000038147</ele>
        <time>2014-05-06T12:52:29Z</time>
      </trkpt>
      <trkpt lat="48.08762" lon="-4.49634">
        <ele>18.60000038147</ele>
        <time>2014-05-06T12:52:41Z</time>
      </trkpt>
      <trkpt lat="48.08762" lon="-4.4964">
        <ele>19</ele>
        <time>2014-05-06T12:52:46Z</time>
      </trkpt>
      <trkpt lat="48.08761" lon="-4.49653">
        <ele>19.799999237061</ele>
        <time>2014-05-06T12:52:56Z</time>
      </trkpt>
      <trkpt lat="48.08761" lon="-4.49656">
        <ele>20</ele>
        <time>2014-05-06T12:52:58Z</time>
      </trkpt>
      <trkpt lat="48.08761" lon="-4.49661">
        <ele>20.39999961853</ele>
        <time>2014-05-06T12:53:08Z</time>
      </trkpt>
      <trkpt lat="48.08761" lon="-4.49661">
        <ele>20.60000038147</ele>
        <time>2014-05-06T12:53:24Z</time>
      </trkpt>
      <trkpt lat="48.0876" lon="-4.49665">
        <ele>20.799999237061</ele>
        <time>2014-05-06T12:53:31Z</time>
      </trkpt>
      <trkpt lat="48.08762" lon="-4.49671">
        <ele>20.799999237061</ele>
        <time>2014-05-06T12:53:40Z</time>
      </trkpt>
      <trkpt lat="48.08764" lon="-4.4968">
        <ele>20.799999237061</ele>
        <time>2014-05-06T12:53:49Z</time>
      </trkpt>
      <trkpt lat="48.08763" lon="-4.49683">
        <ele>21.39999961853</ele>
        <time>2014-05-06T12:53:52Z</time>
      </trkpt>
      <trkpt lat="48.08764" lon="-4.4969">
        <ele>21.60000038147</ele>
        <time>2014-05-06T12:53:58Z</time>
      </trkpt>
      <trkpt lat="48.08759" lon="-4.49695">
        <ele>22.799999237061</ele>
        <time>2014-05-06T12:54:09Z</time>
      </trkpt>
      <trkpt lat="48.08759" lon="-4.49696">
        <ele>23</ele>
        <time>2014-05-06T12:54:16Z</time>
      </trkpt>
      <trkpt lat="48.08757" lon="-4.49699">
        <ele>23.200000762939</ele>
        <time>2014-05-06T12:54:25Z</time>
      </trkpt>
      <trkpt lat="48.08757" lon="-4.49701">
        <ele>23.39999961853</ele>
        <time>2014-05-06T12:54:34Z</time>
      </trkpt>
      <trkpt lat="48.08757" lon="-4.49704">
        <ele>23.39999961853</ele>
        <time>2014-05-06T12:54:42Z</time>
      </trkpt>
      <trkpt lat="48.08756" lon="-4.49707">
        <ele>23.39999961853</ele>
        <time>2014-05-06T12:54:47Z</time>
      </trkpt>
      <trkpt lat="48.08755" lon="-4.49718">
        <ele>23.39999961853</ele>
        <time>2014-05-06T12:54:56Z</time>
      </trkpt>
      <trkpt lat="48.08756" lon="-4.49723">
        <ele>23.200000762939</ele>
        <time>2014-05-06T12:55:00Z</time>
      </trkpt>
      <trkpt lat="48.08754" lon="-4.49734">
        <ele>23.200000762939</ele>
        <time>2014-05-06T12:55:10Z</time>
      </trkpt>
      <trkpt lat="48.08754" lon="-4.49732">
        <ele>23.39999961853</ele>
        <time>2014-05-06T12:55:26Z</time>
      </trkpt>
      <trkpt lat="48.08754" lon="-4.49731">
        <ele>23.39999961853</ele>
        <time>2014-05-06T12:55:48Z</time>
      </trkpt>
      <trkpt lat="48.08754" lon="-4.49731">
        <ele>23.200000762939</ele>
        <time>2014-05-06T12:56:08Z</time>
      </trkpt>
      <trkpt lat="48.08755" lon="-4.49731">
        <ele>23.200000762939</ele>
        <time>2014-05-06T12:56:18Z</time>
      </trkpt>
      <trkpt lat="48.08756" lon="-4.49731">
        <ele>23.200000762939</ele>
        <time>2014-05-06T12:56:33Z</time>
      </trkpt>
      <trkpt lat="48.08756" lon="-4.49733">
        <ele>23</ele>
        <time>2014-05-06T12:56:52Z</time>
      </trkpt>
      <trkpt lat="48.08755" lon="-4.49733">
        <ele>23.200000762939</ele>
        <time>2014-05-06T12:57:00Z</time>
      </trkpt>
      <trkpt lat="48.08756" lon="-4.49732">
        <ele>23</ele>
        <time>2014-05-06T12:57:18Z</time>
      </trkpt>
      <trkpt lat="48.08757" lon="-4.49733">
        <ele>23</ele>
        <time>2014-05-06T12:57:28Z</time>
      </trkpt>
      <trkpt lat="48.0876" lon="-4.49746">
        <ele>22.39999961853</ele>
        <time>2014-05-06T12:57:37Z</time>
      </trkpt>
      <trkpt lat="48.08762" lon="-4.49757">
        <ele>21.60000038147</ele>
        <time>2014-05-06T12:57:44Z</time>
      </trkpt>
      <trkpt lat="48.08772" lon="-4.4976">
        <ele>19.200000762939</ele>
        <time>2014-05-06T12:57:55Z</time>
      </trkpt>
      <trkpt lat="48.08779" lon="-4.49763">
        <ele>17.39999961853</ele>
        <time>2014-05-06T12:58:06Z</time>
      </trkpt>
      <trkpt lat="48.08781" lon="-4.49765">
        <ele>17.200000762939</ele>
        <time>2014-05-06T12:58:16Z</time>
      </trkpt>
      <trkpt lat="48.08787" lon="-4.49776">
        <ele>17</ele>
        <time>2014-05-06T12:58:26Z</time>
      </trkpt>
      <trkpt lat="48.08787" lon="-4.49782">
        <ele>17.200000762939</ele>
        <time>2014-05-06T12:58:36Z</time>
      </trkpt>
      <trkpt lat="48.08789" lon="-4.49789">
        <ele>17.60000038147</ele>
        <time>2014-05-06T12:58:42Z</time>
      </trkpt>
      <trkpt lat="48.08788" lon="-4.49793">
        <ele>18.200000762939</ele>
        <time>2014-05-06T12:58:50Z</time>
      </trkpt>
      <trkpt lat="48.08783" lon="-4.49799">
        <ele>19.60000038147</ele>
        <time>2014-05-06T12:59:00Z</time>
      </trkpt>
      <trkpt lat="48.08784" lon="-4.49803">
        <ele>19.799999237061</ele>
        <time>2014-05-06T12:59:09Z</time>
      </trkpt>
      <trkpt lat="48.08786" lon="-4.49811">
        <ele>20.200000762939</ele>
        <time>2014-05-06T12:59:18Z</time>
      </trkpt>
      <trkpt lat="48.08786" lon="-4.49812">
        <ele>20.200000762939</ele>
        <time>2014-05-06T12:59:19Z</time>
      </trkpt>
      <trkpt lat="48.0879" lon="-4.4982">
        <ele>20.39999961853</ele>
        <time>2014-05-06T12:59:26Z</time>
      </trkpt>
      <trkpt lat="48.08791" lon="-4.49823">
        <ele>20.39999961853</ele>
        <time>2014-05-06T12:59:28Z</time>
      </trkpt>
      <trkpt lat="48.08797" lon="-4.49829">
        <ele>20.200000762939</ele>
        <time>2014-05-06T12:59:36Z</time>
      </trkpt>
      <trkpt lat="48.08799" lon="-4.49835">
        <ele>20.39999961853</ele>
        <time>2014-05-06T12:59:41Z</time>
      </trkpt>
      <trkpt lat="48.08801" lon="-4.49838">
        <ele>20.200000762939</ele>
        <time>2014-05-06T12:59:44Z</time>
      </trkpt>
      <trkpt lat="48.08806" lon="-4.49853">
        <ele>20.799999237061</ele>
        <time>2014-05-06T12:59:55Z</time>
      </trkpt>
      <trkpt lat="48.0881" lon="-4.49871">
        <ele>22</ele>
        <time>2014-05-06T13:00:07Z</time>
      </trkpt>
      <trkpt lat="48.08812" lon="-4.49887">
        <ele>23.200000762939</ele>
        <time>2014-05-06T13:00:19Z</time>
      </trkpt>
      <trkpt lat="48.08818" lon="-4.49904">
        <ele>24.200000762939</ele>
        <time>2014-05-06T13:00:30Z</time>
      </trkpt>
      <trkpt lat="48.08818" lon="-4.49904">
        <ele>24.200000762939</ele>
        <time>2014-05-06T13:00:35Z</time>
      </trkpt>
      <trkpt lat="48.08818" lon="-4.49906">
        <ele>24.60000038147</ele>
        <time>2014-05-06T13:00:37Z</time>
      </trkpt>
      <trkpt lat="48.0882" lon="-4.49913">
        <ele>25.200000762939</ele>
        <time>2014-05-06T13:00:42Z</time>
      </trkpt>
      <trkpt lat="48.08822" lon="-4.49916">
        <ele>25.39999961853</ele>
        <time>2014-05-06T13:00:44Z</time>
      </trkpt>
      <trkpt lat="48.08827" lon="-4.49925">
        <ele>25.799999237061</ele>
        <time>2014-05-06T13:00:52Z</time>
      </trkpt>
      <trkpt lat="48.08834" lon="-4.49934">
        <ele>26.200000762939</ele>
        <time>2014-05-06T13:01:00Z</time>
      </trkpt>
      <trkpt lat="48.08835" lon="-4.49937">
        <ele>26.39999961853</ele>
        <time>2014-05-06T13:01:02Z</time>
      </trkpt>
      <trkpt lat="48.08844" lon="-4.49951">
        <ele>27</ele>
        <time>2014-05-06T13:01:13Z</time>
      </trkpt>
      <trkpt lat="48.08845" lon="-4.49952">
        <ele>26.799999237061</ele>
        <time>2014-05-06T13:01:14Z</time>
      </trkpt>
      <trkpt lat="48.08848" lon="-4.4996">
        <ele>27</ele>
        <time>2014-05-06T13:01:19Z</time>
      </trkpt>
      <trkpt lat="48.08848" lon="-4.49962">
        <ele>27.200000762939</ele>
        <time>2014-05-06T13:01:21Z</time>
      </trkpt>
      <trkpt lat="48.08853" lon="-4.49969">
        <ele>27</ele>
        <time>2014-05-06T13:01:32Z</time>
      </trkpt>
      <trkpt lat="48.08852" lon="-4.49969">
        <ele>27</ele>
        <time>2014-05-06T13:01:43Z</time>
      </trkpt>
      <trkpt lat="48.08852" lon="-4.49969">
        <ele>27</ele>
        <time>2014-05-06T13:01:52Z</time>
      </trkpt>
      <trkpt lat="48.08853" lon="-4.49974">
        <ele>27.39999961853</ele>
        <time>2014-05-06T13:01:59Z</time>
      </trkpt>
      <trkpt lat="48.08855" lon="-4.49979">
        <ele>27.39999961853</ele>
        <time>2014-05-06T13:02:04Z</time>
      </trkpt>
      <trkpt lat="48.08857" lon="-4.49985">
        <ele>27.60000038147</ele>
        <time>2014-05-06T13:02:08Z</time>
      </trkpt>
      <trkpt lat="48.08859" lon="-4.49987">
        <ele>27.39999961853</ele>
        <time>2014-05-06T13:02:10Z</time>
      </trkpt>
      <trkpt lat="48.08865" lon="-4.49997">
        <ele>27.200000762939</ele>
        <time>2014-05-06T13:02:19Z</time>
      </trkpt>
      <trkpt lat="48.08868" lon="-4.50001">
        <ele>27</ele>
        <time>2014-05-06T13:02:23Z</time>
      </trkpt>
      <trkpt lat="48.08875" lon="-4.50011">
        <ele>26.200000762939</ele>
        <time>2014-05-06T13:02:32Z</time>
      </trkpt>
      <trkpt lat="48.08879" lon="-4.50014">
        <ele>25.39999961853</ele>
        <time>2014-05-06T13:02:35Z</time>
      </trkpt>
      <trkpt lat="48.08884" lon="-4.50017">
        <ele>24.200000762939</ele>
        <time>2014-05-06T13:02:42Z</time>
      </trkpt>
      <trkpt lat="48.08892" lon="-4.50018">
        <ele>22.200000762939</ele>
        <time>2014-05-06T13:02:50Z</time>
      </trkpt>
      <trkpt lat="48.08896" lon="-4.5002">
        <ele>21.39999961853</ele>
        <time>2014-05-06T13:02:54Z</time>
      </trkpt>
      <trkpt lat="48.08905" lon="-4.50021">
        <ele>18.60000038147</ele>
        <time>2014-05-06T13:03:03Z</time>
      </trkpt>
      <trkpt lat="48.08914" lon="-4.50023">
        <ele>16.39999961853</ele>
        <time>2014-05-06T13:03:10Z</time>
      </trkpt>
      <trkpt lat="48.0892" lon="-4.50027">
        <ele>15</ele>
        <time>2014-05-06T13:03:15Z</time>
      </trkpt>
      <trkpt lat="48.08928" lon="-4.50029">
        <ele>13.60000038147</ele>
        <time>2014-05-06T13:03:21Z</time>
      </trkpt>
      <trkpt lat="48.0893" lon="-4.50029">
        <ele>13.60000038147</ele>
        <time>2014-05-06T13:03:23Z</time>
      </trkpt>
      <trkpt lat="48.0894" lon="-4.50031">
        <ele>12.60000038147</ele>
        <time>2014-05-06T13:03:33Z</time>
      </trkpt>
      <trkpt lat="48.0894" lon="-4.50032">
        <ele>12.60000038147</ele>
        <time>2014-05-06T13:03:34Z</time>
      </trkpt>
      <trkpt lat="48.08943" lon="-4.50034">
        <ele>12.39999961853</ele>
        <time>2014-05-06T13:03:37Z</time>
      </trkpt>
      <trkpt lat="48.08945" lon="-4.50036">
        <ele>12.39999961853</ele>
        <time>2014-05-06T13:03:39Z</time>
      </trkpt>
      <trkpt lat="48.0895" lon="-4.5005">
        <ele>14</ele>
        <time>2014-05-06T13:03:49Z</time>
      </trkpt>
      <trkpt lat="48.08951" lon="-4.50055">
        <ele>14.800000190735</ele>
        <time>2014-05-06T13:03:52Z</time>
      </trkpt>
      <trkpt lat="48.08957" lon="-4.50066">
        <ele>15.800000190735</ele>
        <time>2014-05-06T13:04:02Z</time>
      </trkpt>
      <trkpt lat="48.08971" lon="-4.50067">
        <ele>14.60000038147</ele>
        <time>2014-05-06T13:04:14Z</time>
      </trkpt>
      <trkpt lat="48.08973" lon="-4.50067">
        <ele>14.199999809265</ele>
        <time>2014-05-06T13:04:16Z</time>
      </trkpt>
      <trkpt lat="48.08988" lon="-4.50071">
        <ele>13.39999961853</ele>
        <time>2014-05-06T13:04:30Z</time>
      </trkpt>
      <trkpt lat="48.08993" lon="-4.50071">
        <ele>12.800000190735</ele>
        <time>2014-05-06T13:04:40Z</time>
      </trkpt>
      <trkpt lat="48.09008" lon="-4.50074">
        <ele>12</ele>
        <time>2014-05-06T13:04:53Z</time>
      </trkpt>
      <trkpt lat="48.09011" lon="-4.50075">
        <ele>12</ele>
        <time>2014-05-06T13:04:55Z</time>
      </trkpt>
      <trkpt lat="48.09015" lon="-4.50073">
        <ele>11.800000190735</ele>
        <time>2014-05-06T13:04:58Z</time>
      </trkpt>
      <trkpt lat="48.09019" lon="-4.50074">
        <ele>12.39999961853</ele>
        <time>2014-05-06T13:05:03Z</time>
      </trkpt>
      <trkpt lat="48.09025" lon="-4.50078">
        <ele>13.199999809265</ele>
        <time>2014-05-06T13:05:09Z</time>
      </trkpt>
      <trkpt lat="48.09028" lon="-4.5009">
        <ele>15.39999961853</ele>
        <time>2014-05-06T13:05:18Z</time>
      </trkpt>
      <trkpt lat="48.09027" lon="-4.50095">
        <ele>16.200000762939</ele>
        <time>2014-05-06T13:05:22Z</time>
      </trkpt>
      <trkpt lat="48.09026" lon="-4.50099">
        <ele>16.799999237061</ele>
        <time>2014-05-06T13:05:25Z</time>
      </trkpt>
      <trkpt lat="48.09025" lon="-4.50103">
        <ele>17</ele>
        <time>2014-05-06T13:05:28Z</time>
      </trkpt>
      <trkpt lat="48.09021" lon="-4.5012">
        <ele>17.200000762939</ele>
        <time>2014-05-06T13:05:40Z</time>
      </trkpt>
      <trkpt lat="48.09019" lon="-4.5013">
        <ele>17.39999961853</ele>
        <time>2014-05-06T13:05:48Z</time>
      </trkpt>
      <trkpt lat="48.09015" lon="-4.50146">
        <ele>18.200000762939</ele>
        <time>2014-05-06T13:05:59Z</time>
      </trkpt>
      <trkpt lat="48.09009" lon="-4.50158">
        <ele>19</ele>
        <time>2014-05-06T13:06:10Z</time>
      </trkpt>
      <trkpt lat="48.09003" lon="-4.50167">
        <ele>20</ele>
        <time>2014-05-06T13:06:19Z</time>
      </trkpt>
      <trkpt lat="48.08994" lon="-4.5018">
        <ele>21.200000762939</ele>
        <time>2014-05-06T13:06:33Z</time>
      </trkpt>
      <trkpt lat="48.08985" lon="-4.50187">
        <ele>22.60000038147</ele>
        <time>2014-05-06T13:06:43Z</time>
      </trkpt>
      <trkpt lat="48.08975" lon="-4.50194">
        <ele>24</ele>
        <time>2014-05-06T13:06:53Z</time>
      </trkpt>
      <trkpt lat="48.08967" lon="-4.50202">
        <ele>25</ele>
        <time>2014-05-06T13:07:02Z</time>
      </trkpt>
      <trkpt lat="48.08964" lon="-4.50204">
        <ele>25.39999961853</ele>
        <time>2014-05-06T13:07:05Z</time>
      </trkpt>
      <trkpt lat="48.0896" lon="-4.50208">
        <ele>25.60000038147</ele>
        <time>2014-05-06T13:07:09Z</time>
      </trkpt>
      <trkpt lat="48.08953" lon="-4.50217">
        <ele>26</ele>
        <time>2014-05-06T13:07:18Z</time>
      </trkpt>
      <trkpt lat="48.08949" lon="-4.50223">
        <ele>26</ele>
        <time>2014-05-06T13:07:24Z</time>
      </trkpt>
      <trkpt lat="48.08945" lon="-4.50242">
        <ele>25.39999961853</ele>
        <time>2014-05-06T13:07:36Z</time>
      </trkpt>
      <trkpt lat="48.08944" lon="-4.50247">
        <ele>25.200000762939</ele>
        <time>2014-05-06T13:07:45Z</time>
      </trkpt>
      <trkpt lat="48.08942" lon="-4.50249">
        <ele>25.200000762939</ele>
        <time>2014-05-06T13:07:50Z</time>
      </trkpt>
      <trkpt lat="48.0894" lon="-4.50256">
        <ele>25</ele>
        <time>2014-05-06T13:07:57Z</time>
      </trkpt>
      <trkpt lat="48.08939" lon="-4.50269">
        <ele>24.200000762939</ele>
        <time>2014-05-06T13:08:07Z</time>
      </trkpt>
      <trkpt lat="48.08937" lon="-4.50277">
        <ele>23.799999237061</ele>
        <time>2014-05-06T13:08:13Z</time>
      </trkpt>
      <trkpt lat="48.08937" lon="-4.50282">
        <ele>23.39999961853</ele>
        <time>2014-05-06T13:08:17Z</time>
      </trkpt>
      <trkpt lat="48.08934" lon="-4.50288">
        <ele>22.799999237061</ele>
        <time>2014-05-06T13:08:24Z</time>
      </trkpt>
      <trkpt lat="48.08926" lon="-4.50288">
        <ele>24</ele>
        <time>2014-05-06T13:08:34Z</time>
      </trkpt>
      <trkpt lat="48.08917" lon="-4.50282">
        <ele>25.60000038147</ele>
        <time>2014-05-06T13:08:45Z</time>
      </trkpt>
      <trkpt lat="48.08902" lon="-4.50272">
        <ele>27</ele>
        <time>2014-05-06T13:09:01Z</time>
      </trkpt>
      <trkpt lat="48.08893" lon="-4.50264">
        <ele>28</ele>
        <time>2014-05-06T13:09:11Z</time>
      </trkpt>
      <trkpt lat="48.08882" lon="-4.50255">
        <ele>29.200000762939</ele>
        <time>2014-05-06T13:09:23Z</time>
      </trkpt>
      <trkpt lat="48.0888" lon="-4.50253">
        <ele>29.39999961853</ele>
        <time>2014-05-06T13:09:25Z</time>
      </trkpt>
      <trkpt lat="48.08873" lon="-4.50245">
        <ele>30.39999961853</ele>
        <time>2014-05-06T13:09:34Z</time>
      </trkpt>
      <trkpt lat="48.0886" lon="-4.5024">
        <ele>32</ele>
        <time>2014-05-06T13:09:46Z</time>
      </trkpt>
      <trkpt lat="48.08848" lon="-4.50241">
        <ele>32.799999237061</ele>
        <time>2014-05-06T13:09:57Z</time>
      </trkpt>
      <trkpt lat="48.08835" lon="-4.50242">
        <ele>34.400001525879</ele>
        <time>2014-05-06T13:10:09Z</time>
      </trkpt>
      <trkpt lat="48.08823" lon="-4.50247">
        <ele>35.599998474121</ele>
        <time>2014-05-06T13:10:20Z</time>
      </trkpt>
      <trkpt lat="48.0881" lon="-4.50253">
        <ele>37</ele>
        <time>2014-05-06T13:10:31Z</time>
      </trkpt>
      <trkpt lat="48.08798" lon="-4.50258">
        <ele>38.599998474121</ele>
        <time>2014-05-06T13:10:42Z</time>
      </trkpt>
      <trkpt lat="48.08788" lon="-4.50265">
        <ele>39.400001525879</ele>
        <time>2014-05-06T13:10:53Z</time>
      </trkpt>
      <trkpt lat="48.08779" lon="-4.50283">
        <ele>39.200000762939</ele>
        <time>2014-05-06T13:11:06Z</time>
      </trkpt>
      <trkpt lat="48.08778" lon="-4.50284">
        <ele>39.200000762939</ele>
        <time>2014-05-06T13:11:07Z</time>
      </trkpt>
      <trkpt lat="48.08777" lon="-4.50302">
        <ele>39.599998474121</ele>
        <time>2014-05-06T13:11:17Z</time>
      </trkpt>
      <trkpt lat="48.08777" lon="-4.5031">
        <ele>39.599998474121</ele>
        <time>2014-05-06T13:11:22Z</time>
      </trkpt>
      <trkpt lat="48.08777" lon="-4.50315">
        <ele>39.799999237061</ele>
        <time>2014-05-06T13:11:25Z</time>
      </trkpt>
      <trkpt lat="48.08776" lon="-4.50318">
        <ele>39.799999237061</ele>
        <time>2014-05-06T13:11:27Z</time>
      </trkpt>
      <trkpt lat="48.08777" lon="-4.5033">
        <ele>39.799999237061</ele>
        <time>2014-05-06T13:11:34Z</time>
      </trkpt>
      <trkpt lat="48.08777" lon="-4.5034">
        <ele>40</ele>
        <time>2014-05-06T13:11:40Z</time>
      </trkpt>
      <trkpt lat="48.08775" lon="-4.50353">
        <ele>40</ele>
        <time>2014-05-06T13:11:50Z</time>
      </trkpt>
      <trkpt lat="48.08773" lon="-4.50365">
        <ele>39</ele>
        <time>2014-05-06T13:12:00Z</time>
      </trkpt>
      <trkpt lat="48.08771" lon="-4.50378">
        <ele>39.400001525879</ele>
        <time>2014-05-06T13:12:11Z</time>
      </trkpt>
      <trkpt lat="48.08771" lon="-4.50387">
        <ele>39.599998474121</ele>
        <time>2014-05-06T13:12:18Z</time>
      </trkpt>
      <trkpt lat="48.08771" lon="-4.50392">
        <ele>39.799999237061</ele>
        <time>2014-05-06T13:12:29Z</time>
      </trkpt>
      <trkpt lat="48.08771" lon="-4.50401">
        <ele>40</ele>
        <time>2014-05-06T13:12:39Z</time>
      </trkpt>
      <trkpt lat="48.08772" lon="-4.50408">
        <ele>39.799999237061</ele>
        <time>2014-05-06T13:12:44Z</time>
      </trkpt>
      <trkpt lat="48.08773" lon="-4.50427">
        <ele>40</ele>
        <time>2014-05-06T13:12:55Z</time>
      </trkpt>
      <trkpt lat="48.08773" lon="-4.50441">
        <ele>40</ele>
        <time>2014-05-06T13:13:05Z</time>
      </trkpt>
      <trkpt lat="48.08774" lon="-4.5045">
        <ele>39</ele>
        <time>2014-05-06T13:13:12Z</time>
      </trkpt>
      <trkpt lat="48.08776" lon="-4.50465">
        <ele>38.400001525879</ele>
        <time>2014-05-06T13:13:22Z</time>
      </trkpt>
      <trkpt lat="48.08776" lon="-4.50474">
        <ele>38.599998474121</ele>
        <time>2014-05-06T13:13:27Z</time>
      </trkpt>
      <trkpt lat="48.08777" lon="-4.50478">
        <ele>38.400001525879</ele>
        <time>2014-05-06T13:13:30Z</time>
      </trkpt>
      <trkpt lat="48.08778" lon="-4.50499">
        <ele>39</ele>
        <time>2014-05-06T13:13:42Z</time>
      </trkpt>
      <trkpt lat="48.08776" lon="-4.50516">
        <ele>40.200000762939</ele>
        <time>2014-05-06T13:13:52Z</time>
      </trkpt>
      <trkpt lat="48.08774" lon="-4.50527">
        <ele>41.200000762939</ele>
        <time>2014-05-06T13:14:00Z</time>
      </trkpt>
      <trkpt lat="48.08774" lon="-4.50529">
        <ele>41.400001525879</ele>
        <time>2014-05-06T13:14:02Z</time>
      </trkpt>
      <trkpt lat="48.08774" lon="-4.50532">
        <ele>41.400001525879</ele>
        <time>2014-05-06T13:14:04Z</time>
      </trkpt>
      <trkpt lat="48.08774" lon="-4.50541">
        <ele>41.799999237061</ele>
        <time>2014-05-06T13:14:10Z</time>
      </trkpt>
      <trkpt lat="48.08775" lon="-4.50546">
        <ele>41.400001525879</ele>
        <time>2014-05-06T13:14:14Z</time>
      </trkpt>
      <trkpt lat="48.08781" lon="-4.50556">
        <ele>39</ele>
        <time>2014-05-06T13:14:22Z</time>
      </trkpt>
      <trkpt lat="48.08782" lon="-4.5056">
        <ele>39</ele>
        <time>2014-05-06T13:14:24Z</time>
      </trkpt>
      <trkpt lat="48.08787" lon="-4.50575">
        <ele>37</ele>
        <time>2014-05-06T13:14:34Z</time>
      </trkpt>
      <trkpt lat="48.08794" lon="-4.50583">
        <ele>34.400001525879</ele>
        <time>2014-05-06T13:14:47Z</time>
      </trkpt>
      <trkpt lat="48.08803" lon="-4.5059">
        <ele>31.799999237061</ele>
        <time>2014-05-06T13:14:57Z</time>
      </trkpt>
      <trkpt lat="48.08814" lon="-4.506">
        <ele>29.200000762939</ele>
        <time>2014-05-06T13:15:10Z</time>
      </trkpt>
      <trkpt lat="48.08826" lon="-4.50611">
        <ele>26.39999961853</ele>
        <time>2014-05-06T13:15:23Z</time>
      </trkpt>
      <trkpt lat="48.08838" lon="-4.50616">
        <ele>22.60000038147</ele>
        <time>2014-05-06T13:15:35Z</time>
      </trkpt>
      <trkpt lat="48.08845" lon="-4.50618">
        <ele>20.60000038147</ele>
        <time>2014-05-06T13:15:43Z</time>
      </trkpt>
      <trkpt lat="48.08847" lon="-4.5062">
        <ele>20.60000038147</ele>
        <time>2014-05-06T13:15:45Z</time>
      </trkpt>
      <trkpt lat="48.08848" lon="-4.50638">
        <ele>22.60000038147</ele>
        <time>2014-05-06T13:15:58Z</time>
      </trkpt>
      <trkpt lat="48.08849" lon="-4.50657">
        <ele>24.799999237061</ele>
        <time>2014-05-06T13:16:09Z</time>
      </trkpt>
      <trkpt lat="48.08848" lon="-4.50677">
        <ele>27.60000038147</ele>
        <time>2014-05-06T13:16:23Z</time>
      </trkpt>
      <trkpt lat="48.08849" lon="-4.50679">
        <ele>27.799999237061</ele>
        <time>2014-05-06T13:16:25Z</time>
      </trkpt>
      <trkpt lat="48.08857" lon="-4.50692">
        <ele>27.39999961853</ele>
        <time>2014-05-06T13:16:36Z</time>
      </trkpt>
      <trkpt lat="48.08865" lon="-4.507">
        <ele>26</ele>
        <time>2014-05-06T13:16:46Z</time>
      </trkpt>
      <trkpt lat="48.08876" lon="-4.50707">
        <ele>23.60000038147</ele>
        <time>2014-05-06T13:16:57Z</time>
      </trkpt>
      <trkpt lat="48.08875" lon="-4.50708">
        <ele>23.60000038147</ele>
        <time>2014-05-06T13:17:09Z</time>
      </trkpt>
      <trkpt lat="48.08875" lon="-4.50708">
        <ele>23.60000038147</ele>
        <time>2014-05-06T13:17:28Z</time>
      </trkpt>
      <trkpt lat="48.08875" lon="-4.50708">
        <ele>23.799999237061</ele>
        <time>2014-05-06T13:17:41Z</time>
      </trkpt>
      <trkpt lat="48.08875" lon="-4.50709">
        <ele>24</ele>
        <time>2014-05-06T13:17:57Z</time>
      </trkpt>
      <trkpt lat="48.08874" lon="-4.50709">
        <ele>24</ele>
        <time>2014-05-06T13:18:12Z</time>
      </trkpt>
      <trkpt lat="48.08874" lon="-4.50709">
        <ele>24</ele>
        <time>2014-05-06T13:18:25Z</time>
      </trkpt>
      <trkpt lat="48.08874" lon="-4.5071">
        <ele>24.200000762939</ele>
        <time>2014-05-06T13:18:43Z</time>
      </trkpt>
      <trkpt lat="48.0888" lon="-4.50713">
        <ele>22.799999237061</ele>
        <time>2014-05-06T13:18:48Z</time>
      </trkpt>
      <trkpt lat="48.08887" lon="-4.50721">
        <ele>21.200000762939</ele>
        <time>2014-05-06T13:18:59Z</time>
      </trkpt>
      <trkpt lat="48.08887" lon="-4.50722">
        <ele>21.39999961853</ele>
        <time>2014-05-06T13:19:06Z</time>
      </trkpt>
      <trkpt lat="48.08891" lon="-4.50722">
        <ele>20.39999961853</ele>
        <time>2014-05-06T13:19:10Z</time>
      </trkpt>
      <trkpt lat="48.08896" lon="-4.5073">
        <ele>19.60000038147</ele>
        <time>2014-05-06T13:19:18Z</time>
      </trkpt>
      <trkpt lat="48.08901" lon="-4.50734">
        <ele>18.799999237061</ele>
        <time>2014-05-06T13:19:23Z</time>
      </trkpt>
      <trkpt lat="48.08908" lon="-4.5074">
        <ele>18.200000762939</ele>
        <time>2014-05-06T13:19:29Z</time>
      </trkpt>
      <trkpt lat="48.08911" lon="-4.50742">
        <ele>17.60000038147</ele>
        <time>2014-05-06T13:19:32Z</time>
      </trkpt>
      <trkpt lat="48.08914" lon="-4.50746">
        <ele>17.39999961853</ele>
        <time>2014-05-06T13:19:35Z</time>
      </trkpt>
      <trkpt lat="48.08915" lon="-4.50747">
        <ele>17.200000762939</ele>
        <time>2014-05-06T13:19:37Z</time>
      </trkpt>
      <trkpt lat="48.08917" lon="-4.50752">
        <ele>17.39999961853</ele>
        <time>2014-05-06T13:19:40Z</time>
      </trkpt>
      <trkpt lat="48.0892" lon="-4.50757">
        <ele>17.200000762939</ele>
        <time>2014-05-06T13:19:44Z</time>
      </trkpt>
      <trkpt lat="48.08921" lon="-4.50759">
        <ele>17.39999961853</ele>
        <time>2014-05-06T13:19:46Z</time>
      </trkpt>
      <trkpt lat="48.08917" lon="-4.50774">
        <ele>20</ele>
        <time>2014-05-06T13:19:57Z</time>
      </trkpt>
      <trkpt lat="48.08911" lon="-4.50791">
        <ele>22</ele>
        <time>2014-05-06T13:20:09Z</time>
      </trkpt>
      <trkpt lat="48.08906" lon="-4.50811">
        <ele>22.200000762939</ele>
        <time>2014-05-06T13:20:21Z</time>
      </trkpt>
      <trkpt lat="48.08902" lon="-4.50825">
        <ele>22</ele>
        <time>2014-05-06T13:20:30Z</time>
      </trkpt>
      <trkpt lat="48.08891" lon="-4.50838">
        <ele>24</ele>
        <time>2014-05-06T13:20:43Z</time>
      </trkpt>
      <trkpt lat="48.08879" lon="-4.50855">
        <ele>25.60000038147</ele>
        <time>2014-05-06T13:20:56Z</time>
      </trkpt>
      <trkpt lat="48.08873" lon="-4.50862">
        <ele>26.799999237061</ele>
        <time>2014-05-06T13:21:03Z</time>
      </trkpt>
      <trkpt lat="48.08869" lon="-4.50868">
        <ele>27.39999961853</ele>
        <time>2014-05-06T13:21:07Z</time>
      </trkpt>
      <trkpt lat="48.0886" lon="-4.50876">
        <ele>28.799999237061</ele>
        <time>2014-05-06T13:21:19Z</time>
      </trkpt>
      <trkpt lat="48.08856" lon="-4.5089">
        <ele>27.799999237061</ele>
        <time>2014-05-06T13:21:29Z</time>
      </trkpt>
      <trkpt lat="48.08853" lon="-4.50905">
        <ele>27</ele>
        <time>2014-05-06T13:21:40Z</time>
      </trkpt>
      <trkpt lat="48.08846" lon="-4.50916">
        <ele>27.60000038147</ele>
        <time>2014-05-06T13:21:51Z</time>
      </trkpt>
      <trkpt lat="48.08844" lon="-4.50919">
        <ele>27.39999961853</ele>
        <time>2014-05-06T13:21:54Z</time>
      </trkpt>
      <trkpt lat="48.08844" lon="-4.50932">
        <ele>26</ele>
        <time>2014-05-06T13:22:04Z</time>
      </trkpt>
      <trkpt lat="48.0884" lon="-4.50944">
        <ele>25.200000762939</ele>
        <time>2014-05-06T13:22:13Z</time>
      </trkpt>
      <trkpt lat="48.08841" lon="-4.50949">
        <ele>24.39999961853</ele>
        <time>2014-05-06T13:22:17Z</time>
      </trkpt>
      <trkpt lat="48.08845" lon="-4.50957">
        <ele>24.200000762939</ele>
        <time>2014-05-06T13:22:24Z</time>
      </trkpt>
      <trkpt lat="48.08853" lon="-4.50966">
        <ele>23</ele>
        <time>2014-05-06T13:22:35Z</time>
      </trkpt>
      <trkpt lat="48.08859" lon="-4.50974">
        <ele>22.39999961853</ele>
        <time>2014-05-06T13:22:45Z</time>
      </trkpt>
      <trkpt lat="48.0886" lon="-4.50974">
        <ele>22.200000762939</ele>
        <time>2014-05-06T13:22:54Z</time>
      </trkpt>
      <trkpt lat="48.08868" lon="-4.50981">
        <ele>21</ele>
        <time>2014-05-06T13:23:05Z</time>
      </trkpt>
      <trkpt lat="48.08871" lon="-4.50985">
        <ele>20.60000038147</ele>
        <time>2014-05-06T13:23:09Z</time>
      </trkpt>
      <trkpt lat="48.08882" lon="-4.50999">
        <ele>19</ele>
        <time>2014-05-06T13:23:21Z</time>
      </trkpt>
      <trkpt lat="48.08883" lon="-4.51001">
        <ele>19</ele>
        <time>2014-05-06T13:23:23Z</time>
      </trkpt>
      <trkpt lat="48.08886" lon="-4.51007">
        <ele>18.60000038147</ele>
        <time>2014-05-06T13:23:27Z</time>
      </trkpt>
      <trkpt lat="48.08888" lon="-4.51011">
        <ele>18.39999961853</ele>
        <time>2014-05-06T13:23:30Z</time>
      </trkpt>
      <trkpt lat="48.08891" lon="-4.51016">
        <ele>18</ele>
        <time>2014-05-06T13:23:34Z</time>
      </trkpt>
      <trkpt lat="48.08897" lon="-4.51024">
        <ele>16.799999237061</ele>
        <time>2014-05-06T13:23:41Z</time>
      </trkpt>
      <trkpt lat="48.08913" lon="-4.51036">
        <ele>13.800000190735</ele>
        <time>2014-05-06T13:23:56Z</time>
      </trkpt>
      <trkpt lat="48.08916" lon="-4.51038">
        <ele>13.60000038147</ele>
        <time>2014-05-06T13:23:59Z</time>
      </trkpt>
      <trkpt lat="48.08918" lon="-4.51044">
        <ele>14.199999809265</ele>
        <time>2014-05-06T13:24:03Z</time>
      </trkpt>
      <trkpt lat="48.08919" lon="-4.51048">
        <ele>14.39999961853</ele>
        <time>2014-05-06T13:24:06Z</time>
      </trkpt>
      <trkpt lat="48.0892" lon="-4.51061">
        <ele>16.799999237061</ele>
        <time>2014-05-06T13:24:16Z</time>
      </trkpt>
      <trkpt lat="48.08918" lon="-4.51079">
        <ele>20.60000038147</ele>
        <time>2014-05-06T13:24:28Z</time>
      </trkpt>
      <trkpt lat="48.08918" lon="-4.51083">
        <ele>21</ele>
        <time>2014-05-06T13:24:30Z</time>
      </trkpt>
      <trkpt lat="48.08915" lon="-4.51097">
        <ele>24.60000038147</ele>
        <time>2014-05-06T13:24:42Z</time>
      </trkpt>
      <trkpt lat="48.08911" lon="-4.51108">
        <ele>27.39999961853</ele>
        <time>2014-05-06T13:24:53Z</time>
      </trkpt>
      <trkpt lat="48.08908" lon="-4.51121">
        <ele>30</ele>
        <time>2014-05-06T13:25:03Z</time>
      </trkpt>
      <trkpt lat="48.08905" lon="-4.51133">
        <ele>31.60000038147</ele>
        <time>2014-05-06T13:25:13Z</time>
      </trkpt>
      <trkpt lat="48.08903" lon="-4.51141">
        <ele>32.799999237061</ele>
        <time>2014-05-06T13:25:22Z</time>
      </trkpt>
      <trkpt lat="48.08897" lon="-4.51146">
        <ele>34.599998474121</ele>
        <time>2014-05-06T13:25:34Z</time>
      </trkpt>
      <trkpt lat="48.08895" lon="-4.5115">
        <ele>35.200000762939</ele>
        <time>2014-05-06T13:25:39Z</time>
      </trkpt>
      <trkpt lat="48.08893" lon="-4.51153">
        <ele>35.799999237061</ele>
        <time>2014-05-06T13:25:42Z</time>
      </trkpt>
      <trkpt lat="48.08891" lon="-4.5116">
        <ele>36.400001525879</ele>
        <time>2014-05-06T13:25:47Z</time>
      </trkpt>
      <trkpt lat="48.0889" lon="-4.51173">
        <ele>36.599998474121</ele>
        <time>2014-05-06T13:25:55Z</time>
      </trkpt>
      <trkpt lat="48.08889" lon="-4.51176">
        <ele>36.799999237061</ele>
        <time>2014-05-06T13:25:57Z</time>
      </trkpt>
      <trkpt lat="48.08891" lon="-4.51198">
        <ele>36</ele>
        <time>2014-05-06T13:26:11Z</time>
      </trkpt>
      <trkpt lat="48.08892" lon="-4.51205">
        <ele>35.400001525879</ele>
        <time>2014-05-06T13:26:15Z</time>
      </trkpt>
      <trkpt lat="48.08892" lon="-4.51212">
        <ele>35</ele>
        <time>2014-05-06T13:26:19Z</time>
      </trkpt>
      <trkpt lat="48.08892" lon="-4.51219">
        <ele>34.799999237061</ele>
        <time>2014-05-06T13:26:23Z</time>
      </trkpt>
      <trkpt lat="48.08893" lon="-4.51238">
        <ele>33.599998474121</ele>
        <time>2014-05-06T13:26:34Z</time>
      </trkpt>
      <trkpt lat="48.08895" lon="-4.51252">
        <ele>32</ele>
        <time>2014-05-06T13:26:44Z</time>
      </trkpt>
      <trkpt lat="48.08893" lon="-4.51263">
        <ele>31.799999237061</ele>
        <time>2014-05-06T13:26:54Z</time>
      </trkpt>
      <trkpt lat="48.0889" lon="-4.51265">
        <ele>32.799999237061</ele>
        <time>2014-05-06T13:27:01Z</time>
      </trkpt>
      <trkpt lat="48.08885" lon="-4.51265">
        <ele>34.599998474121</ele>
        <time>2014-05-06T13:27:06Z</time>
      </trkpt>
      <trkpt lat="48.0888" lon="-4.51263">
        <ele>36.799999237061</ele>
        <time>2014-05-06T13:27:14Z</time>
      </trkpt>
      <trkpt lat="48.08874" lon="-4.51268">
        <ele>38.799999237061</ele>
        <time>2014-05-06T13:27:23Z</time>
      </trkpt>
      <trkpt lat="48.08864" lon="-4.51277">
        <ele>41.599998474121</ele>
        <time>2014-05-06T13:27:34Z</time>
      </trkpt>
      <trkpt lat="48.08854" lon="-4.51291">
        <ele>44.400001525879</ele>
        <time>2014-05-06T13:27:45Z</time>
      </trkpt>
      <trkpt lat="48.08852" lon="-4.51297">
        <ele>44.599998474121</ele>
        <time>2014-05-06T13:27:56Z</time>
      </trkpt>
      <trkpt lat="48.08851" lon="-4.51298">
        <ele>44.799999237061</ele>
        <time>2014-05-06T13:28:06Z</time>
      </trkpt>
      <trkpt lat="48.08845" lon="-4.51308">
        <ele>46.400001525879</ele>
        <time>2014-05-06T13:28:15Z</time>
      </trkpt>
      <trkpt lat="48.08838" lon="-4.51318">
        <ele>47</ele>
        <time>2014-05-06T13:28:25Z</time>
      </trkpt>
      <trkpt lat="48.08837" lon="-4.5132">
        <ele>47</ele>
        <time>2014-05-06T13:28:27Z</time>
      </trkpt>
      <trkpt lat="48.08832" lon="-4.51332">
        <ele>47.200000762939</ele>
        <time>2014-05-06T13:28:39Z</time>
      </trkpt>
      <trkpt lat="48.08831" lon="-4.51332">
        <ele>47.200000762939</ele>
        <time>2014-05-06T13:28:40Z</time>
      </trkpt>
      <trkpt lat="48.08828" lon="-4.51347">
        <ele>46.599998474121</ele>
        <time>2014-05-06T13:28:50Z</time>
      </trkpt>
      <trkpt lat="48.08828" lon="-4.51353">
        <ele>46.200000762939</ele>
        <time>2014-05-06T13:28:54Z</time>
      </trkpt>
      <trkpt lat="48.08826" lon="-4.51368">
        <ele>45.200000762939</ele>
        <time>2014-05-06T13:29:04Z</time>
      </trkpt>
      <trkpt lat="48.08825" lon="-4.5138">
        <ele>44.799999237061</ele>
        <time>2014-05-06T13:29:13Z</time>
      </trkpt>
      <trkpt lat="48.08826" lon="-4.5139">
        <ele>44.200000762939</ele>
        <time>2014-05-06T13:29:24Z</time>
      </trkpt>
      <trkpt lat="48.08826" lon="-4.51396">
        <ele>43.599998474121</ele>
        <time>2014-05-06T13:29:33Z</time>
      </trkpt>
      <trkpt lat="48.08826" lon="-4.51413">
        <ele>42.799999237061</ele>
        <time>2014-05-06T13:29:43Z</time>
      </trkpt>
      <trkpt lat="48.08826" lon="-4.51432">
        <ele>41.400001525879</ele>
        <time>2014-05-06T13:29:55Z</time>
      </trkpt>
      <trkpt lat="48.08827" lon="-4.51449">
        <ele>40.400001525879</ele>
        <time>2014-05-06T13:30:06Z</time>
      </trkpt>
      <trkpt lat="48.08829" lon="-4.5146">
        <ele>38.599998474121</ele>
        <time>2014-05-06T13:30:16Z</time>
      </trkpt>
      <trkpt lat="48.08834" lon="-4.51467">
        <ele>37.400001525879</ele>
        <time>2014-05-06T13:30:24Z</time>
      </trkpt>
      <trkpt lat="48.0884" lon="-4.5148">
        <ele>36</ele>
        <time>2014-05-06T13:30:36Z</time>
      </trkpt>
      <trkpt lat="48.08844" lon="-4.51484">
        <ele>35.200000762939</ele>
        <time>2014-05-06T13:30:44Z</time>
      </trkpt>
      <trkpt lat="48.0885" lon="-4.51489">
        <ele>32.400001525879</ele>
        <time>2014-05-06T13:30:52Z</time>
      </trkpt>
      <trkpt lat="48.08853" lon="-4.51495">
        <ele>30.799999237061</ele>
        <time>2014-05-06T13:30:57Z</time>
      </trkpt>
      <trkpt lat="48.08859" lon="-4.51504">
        <ele>27.799999237061</ele>
        <time>2014-05-06T13:31:08Z</time>
      </trkpt>
      <trkpt lat="48.08862" lon="-4.51506">
        <ele>26.60000038147</ele>
        <time>2014-05-06T13:31:16Z</time>
      </trkpt>
      <trkpt lat="48.08862" lon="-4.51507">
        <ele>26.39999961853</ele>
        <time>2014-05-06T13:31:17Z</time>
      </trkpt>
      <trkpt lat="48.08861" lon="-4.51513">
        <ele>26.39999961853</ele>
        <time>2014-05-06T13:31:22Z</time>
      </trkpt>
      <trkpt lat="48.08858" lon="-4.51526">
        <ele>27.39999961853</ele>
        <time>2014-05-06T13:31:33Z</time>
      </trkpt>
      <trkpt lat="48.08858" lon="-4.51531">
        <ele>28</ele>
        <time>2014-05-06T13:31:37Z</time>
      </trkpt>
      <trkpt lat="48.08851" lon="-4.51542">
        <ele>29.200000762939</ele>
        <time>2014-05-06T13:31:49Z</time>
      </trkpt>
      <trkpt lat="48.08848" lon="-4.51544">
        <ele>29.799999237061</ele>
        <time>2014-05-06T13:31:54Z</time>
      </trkpt>
      <trkpt lat="48.08844" lon="-4.51552">
        <ele>29.799999237061</ele>
        <time>2014-05-06T13:32:00Z</time>
      </trkpt>
      <trkpt lat="48.08843" lon="-4.51562">
        <ele>29</ele>
        <time>2014-05-06T13:32:07Z</time>
      </trkpt>
      <trkpt lat="48.0885" lon="-4.51578">
        <ele>24.39999961853</ele>
        <time>2014-05-06T13:32:19Z</time>
      </trkpt>
      <trkpt lat="48.08853" lon="-4.51588">
        <ele>21.799999237061</ele>
        <time>2014-05-06T13:32:29Z</time>
      </trkpt>
      <trkpt lat="48.08855" lon="-4.51592">
        <ele>20.39999961853</ele>
        <time>2014-05-06T13:32:38Z</time>
      </trkpt>
      <trkpt lat="48.08855" lon="-4.51595">
        <ele>20</ele>
        <time>2014-05-06T13:32:47Z</time>
      </trkpt>
      <trkpt lat="48.08856" lon="-4.51595">
        <ele>19.60000038147</ele>
        <time>2014-05-06T13:32:56Z</time>
      </trkpt>
      <trkpt lat="48.08856" lon="-4.51596">
        <ele>19.39999961853</ele>
        <time>2014-05-06T13:33:01Z</time>
      </trkpt>
      <trkpt lat="48.08852" lon="-4.51602">
        <ele>20</ele>
        <time>2014-05-06T13:33:09Z</time>
      </trkpt>
      <trkpt lat="48.0885" lon="-4.51609">
        <ele>19.60000038147</ele>
        <time>2014-05-06T13:33:20Z</time>
      </trkpt>
      <trkpt lat="48.08842" lon="-4.51602">
        <ele>23.39999961853</ele>
        <time>2014-05-06T13:33:34Z</time>
      </trkpt>
      <trkpt lat="48.08839" lon="-4.51601">
        <ele>24</ele>
        <time>2014-05-06T13:33:48Z</time>
      </trkpt>
      <trkpt lat="48.08834" lon="-4.51598">
        <ele>25.39999961853</ele>
        <time>2014-05-06T13:34:07Z</time>
      </trkpt>
      <trkpt lat="48.0882" lon="-4.51589">
        <ele>29</ele>
        <time>2014-05-06T13:34:23Z</time>
      </trkpt>
      <trkpt lat="48.08812" lon="-4.51584">
        <ele>31</ele>
        <time>2014-05-06T13:34:31Z</time>
      </trkpt>
      <trkpt lat="48.08803" lon="-4.51583">
        <ele>32.599998474121</ele>
        <time>2014-05-06T13:34:38Z</time>
      </trkpt>
      <trkpt lat="48.08796" lon="-4.5158">
        <ele>34.200000762939</ele>
        <time>2014-05-06T13:34:45Z</time>
      </trkpt>
      <trkpt lat="48.08794" lon="-4.51578">
        <ele>34.799999237061</ele>
        <time>2014-05-06T13:34:54Z</time>
      </trkpt>
      <trkpt lat="48.08792" lon="-4.51575">
        <ele>35.400001525879</ele>
        <time>2014-05-06T13:34:57Z</time>
      </trkpt>
      <trkpt lat="48.08782" lon="-4.51565">
        <ele>37.799999237061</ele>
        <time>2014-05-06T13:35:07Z</time>
      </trkpt>
      <trkpt lat="48.08775" lon="-4.51564">
        <ele>38.799999237061</ele>
        <time>2014-05-06T13:35:13Z</time>
      </trkpt>
      <trkpt lat="48.08761" lon="-4.51556">
        <ele>41.400001525879</ele>
        <time>2014-05-06T13:35:26Z</time>
      </trkpt>
      <trkpt lat="48.08758" lon="-4.51555">
        <ele>42</ele>
        <time>2014-05-06T13:35:40Z</time>
      </trkpt>
      <trkpt lat="48.08758" lon="-4.51567">
        <ele>40.599998474121</ele>
        <time>2014-05-06T13:35:52Z</time>
      </trkpt>
      <trkpt lat="48.0876" lon="-4.51571">
        <ele>39.799999237061</ele>
        <time>2014-05-06T13:35:56Z</time>
      </trkpt>
      <trkpt lat="48.08765" lon="-4.51581">
        <ele>38</ele>
        <time>2014-05-06T13:36:03Z</time>
      </trkpt>
      <trkpt lat="48.0877" lon="-4.51598">
        <ele>35.599998474121</ele>
        <time>2014-05-06T13:36:15Z</time>
      </trkpt>
      <trkpt lat="48.08778" lon="-4.51618">
        <ele>32</ele>
        <time>2014-05-06T13:36:28Z</time>
      </trkpt>
      <trkpt lat="48.0878" lon="-4.51628">
        <ele>31.799999237061</ele>
        <time>2014-05-06T13:36:37Z</time>
      </trkpt>
      <trkpt lat="48.08778" lon="-4.51644">
        <ele>32.400001525879</ele>
        <time>2014-05-06T13:36:50Z</time>
      </trkpt>
      <trkpt lat="48.0878" lon="-4.5165">
        <ele>32</ele>
        <time>2014-05-06T13:36:54Z</time>
      </trkpt>
      <trkpt lat="48.08784" lon="-4.51666">
        <ele>31.39999961853</ele>
        <time>2014-05-06T13:37:09Z</time>
      </trkpt>
      <trkpt lat="48.08788" lon="-4.51678">
        <ele>30.200000762939</ele>
        <time>2014-05-06T13:37:20Z</time>
      </trkpt>
      <trkpt lat="48.08788" lon="-4.51683">
        <ele>29.60000038147</ele>
        <time>2014-05-06T13:37:30Z</time>
      </trkpt>
      <trkpt lat="48.08789" lon="-4.51683">
        <ele>29.200000762939</ele>
        <time>2014-05-06T13:37:43Z</time>
      </trkpt>
      <trkpt lat="48.08789" lon="-4.51683">
        <ele>29.200000762939</ele>
        <time>2014-05-06T13:37:54Z</time>
      </trkpt>
      <trkpt lat="48.08788" lon="-4.51686">
        <ele>29.39999961853</ele>
        <time>2014-05-06T13:38:04Z</time>
      </trkpt>
      <trkpt lat="48.08788" lon="-4.51688">
        <ele>29.200000762939</ele>
        <time>2014-05-06T13:38:16Z</time>
      </trkpt>
      <trkpt lat="48.08788" lon="-4.51688">
        <ele>29</ele>
        <time>2014-05-06T13:38:32Z</time>
      </trkpt>
      <trkpt lat="48.08784" lon="-4.51697">
        <ele>29.200000762939</ele>
        <time>2014-05-06T13:38:43Z</time>
      </trkpt>
      <trkpt lat="48.08784" lon="-4.51701">
        <ele>28.799999237061</ele>
        <time>2014-05-06T13:38:45Z</time>
      </trkpt>
      <trkpt lat="48.08778" lon="-4.51723">
        <ele>30.799999237061</ele>
        <time>2014-05-06T13:38:59Z</time>
      </trkpt>
      <trkpt lat="48.08774" lon="-4.51741">
        <ele>32.400001525879</ele>
        <time>2014-05-06T13:39:11Z</time>
      </trkpt>
      <trkpt lat="48.08772" lon="-4.51755">
        <ele>33</ele>
        <time>2014-05-06T13:39:20Z</time>
      </trkpt>
      <trkpt lat="48.08772" lon="-4.51765">
        <ele>33.200000762939</ele>
        <time>2014-05-06T13:39:27Z</time>
      </trkpt>
      <trkpt lat="48.08774" lon="-4.51783">
        <ele>31.799999237061</ele>
        <time>2014-05-06T13:39:42Z</time>
      </trkpt>
      <trkpt lat="48.08777" lon="-4.5179">
        <ele>31</ele>
        <time>2014-05-06T13:39:48Z</time>
      </trkpt>
      <trkpt lat="48.08778" lon="-4.51799">
        <ele>30.39999961853</ele>
        <time>2014-05-06T13:39:58Z</time>
      </trkpt>
      <trkpt lat="48.0878" lon="-4.51802">
        <ele>30</ele>
        <time>2014-05-06T13:40:03Z</time>
      </trkpt>
      <trkpt lat="48.08779" lon="-4.51805">
        <ele>30.200000762939</ele>
        <time>2014-05-06T13:40:11Z</time>
      </trkpt>
      <trkpt lat="48.0878" lon="-4.51823">
        <ele>30.200000762939</ele>
        <time>2014-05-06T13:40:26Z</time>
      </trkpt>
      <trkpt lat="48.0878" lon="-4.51827">
        <ele>30.39999961853</ele>
        <time>2014-05-06T13:40:29Z</time>
      </trkpt>
      <trkpt lat="48.08781" lon="-4.51848">
        <ele>30</ele>
        <time>2014-05-06T13:40:43Z</time>
      </trkpt>
      <trkpt lat="48.08778" lon="-4.51862">
        <ele>31.39999961853</ele>
        <time>2014-05-06T13:40:57Z</time>
      </trkpt>
      <trkpt lat="48.08778" lon="-4.51865">
        <ele>31.60000038147</ele>
        <time>2014-05-06T13:41:05Z</time>
      </trkpt>
      <trkpt lat="48.08777" lon="-4.51868">
        <ele>32</ele>
        <time>2014-05-06T13:41:07Z</time>
      </trkpt>
      <trkpt lat="48.08773" lon="-4.51883">
        <ele>33.200000762939</ele>
        <time>2014-05-06T13:41:16Z</time>
      </trkpt>
      <trkpt lat="48.08771" lon="-4.519">
        <ele>33.599998474121</ele>
        <time>2014-05-06T13:41:26Z</time>
      </trkpt>
      <trkpt lat="48.08771" lon="-4.51901">
        <ele>33.799999237061</ele>
        <time>2014-05-06T13:41:27Z</time>
      </trkpt>
      <trkpt lat="48.08768" lon="-4.51917">
        <ele>34.799999237061</ele>
        <time>2014-05-06T13:41:38Z</time>
      </trkpt>
      <trkpt lat="48.08764" lon="-4.51936">
        <ele>35.799999237061</ele>
        <time>2014-05-06T13:41:51Z</time>
      </trkpt>
      <trkpt lat="48.08764" lon="-4.51953">
        <ele>35.599998474121</ele>
        <time>2014-05-06T13:42:02Z</time>
      </trkpt>
      <trkpt lat="48.0877" lon="-4.51965">
        <ele>33.599998474121</ele>
        <time>2014-05-06T13:42:12Z</time>
      </trkpt>
      <trkpt lat="48.08778" lon="-4.51982">
        <ele>30.799999237061</ele>
        <time>2014-05-06T13:42:23Z</time>
      </trkpt>
      <trkpt lat="48.08784" lon="-4.51989">
        <ele>28.60000038147</ele>
        <time>2014-05-06T13:42:30Z</time>
      </trkpt>
      <trkpt lat="48.08795" lon="-4.51989">
        <ele>25.60000038147</ele>
        <time>2014-05-06T13:42:39Z</time>
      </trkpt>
      <trkpt lat="48.08809" lon="-4.51998">
        <ele>23.60000038147</ele>
        <time>2014-05-06T13:42:54Z</time>
      </trkpt>
      <trkpt lat="48.08813" lon="-4.52">
        <ele>23.60000038147</ele>
        <time>2014-05-06T13:43:03Z</time>
      </trkpt>
      <trkpt lat="48.0882" lon="-4.52007">
        <ele>23.799999237061</ele>
        <time>2014-05-06T13:43:12Z</time>
      </trkpt>
      <trkpt lat="48.0882" lon="-4.52013">
        <ele>24.60000038147</ele>
        <time>2014-05-06T13:43:17Z</time>
      </trkpt>
      <trkpt lat="48.08822" lon="-4.52017">
        <ele>24.799999237061</ele>
        <time>2014-05-06T13:43:21Z</time>
      </trkpt>
      <trkpt lat="48.08825" lon="-4.52016">
        <ele>24.60000038147</ele>
        <time>2014-05-06T13:43:23Z</time>
      </trkpt>
      <trkpt lat="48.08835" lon="-4.52019">
        <ele>23.799999237061</ele>
        <time>2014-05-06T13:43:33Z</time>
      </trkpt>
      <trkpt lat="48.08838" lon="-4.52014">
        <ele>22.60000038147</ele>
        <time>2014-05-06T13:43:41Z</time>
      </trkpt>
      <trkpt lat="48.08838" lon="-4.52013">
        <ele>22.60000038147</ele>
        <time>2014-05-06T13:43:54Z</time>
      </trkpt>
      <trkpt lat="48.08838" lon="-4.52013">
        <ele>22.60000038147</ele>
        <time>2014-05-06T13:44:09Z</time>
      </trkpt>
      <trkpt lat="48.08838" lon="-4.52013">
        <ele>22.60000038147</ele>
        <time>2014-05-06T13:44:18Z</time>
      </trkpt>
      <trkpt lat="48.08837" lon="-4.52013">
        <ele>22.799999237061</ele>
        <time>2014-05-06T13:44:28Z</time>
      </trkpt>
      <trkpt lat="48.08839" lon="-4.52016">
        <ele>23</ele>
        <time>2014-05-06T13:44:39Z</time>
      </trkpt>
      <trkpt lat="48.08841" lon="-4.52018">
        <ele>23</ele>
        <time>2014-05-06T13:44:42Z</time>
      </trkpt>
      <trkpt lat="48.08843" lon="-4.52021">
        <ele>23.200000762939</ele>
        <time>2014-05-06T13:44:44Z</time>
      </trkpt>
      <trkpt lat="48.08847" lon="-4.52025">
        <ele>23.60000038147</ele>
        <time>2014-05-06T13:44:49Z</time>
      </trkpt>
      <trkpt lat="48.08854" lon="-4.52031">
        <ele>25.39999961853</ele>
        <time>2014-05-06T13:44:58Z</time>
      </trkpt>
      <trkpt lat="48.08855" lon="-4.52032">
        <ele>25.39999961853</ele>
        <time>2014-05-06T13:44:59Z</time>
      </trkpt>
      <trkpt lat="48.08864" lon="-4.5204">
        <ele>25.799999237061</ele>
        <time>2014-05-06T13:45:07Z</time>
      </trkpt>
      <trkpt lat="48.08869" lon="-4.52045">
        <ele>25.60000038147</ele>
        <time>2014-05-06T13:45:12Z</time>
      </trkpt>
      <trkpt lat="48.08875" lon="-4.52049">
        <ele>25.60000038147</ele>
        <time>2014-05-06T13:45:19Z</time>
      </trkpt>
      <trkpt lat="48.08883" lon="-4.52055">
        <ele>25.60000038147</ele>
        <time>2014-05-06T13:45:28Z</time>
      </trkpt>
      <trkpt lat="48.08887" lon="-4.52059">
        <ele>25.39999961853</ele>
        <time>2014-05-06T13:45:35Z</time>
      </trkpt>
      <trkpt lat="48.0889" lon="-4.52064">
        <ele>25</ele>
        <time>2014-05-06T13:45:40Z</time>
      </trkpt>
      <trkpt lat="48.08894" lon="-4.52071">
        <ele>24.60000038147</ele>
        <time>2014-05-06T13:45:45Z</time>
      </trkpt>
      <trkpt lat="48.08896" lon="-4.52073">
        <ele>24.39999961853</ele>
        <time>2014-05-06T13:45:55Z</time>
      </trkpt>
      <trkpt lat="48.08898" lon="-4.52076">
        <ele>24.200000762939</ele>
        <time>2014-05-06T13:46:03Z</time>
      </trkpt>
      <trkpt lat="48.08898" lon="-4.52076">
        <ele>24.200000762939</ele>
        <time>2014-05-06T13:46:04Z</time>
      </trkpt>
      <trkpt lat="48.08902" lon="-4.52077">
        <ele>24.39999961853</ele>
        <time>2014-05-06T13:46:13Z</time>
      </trkpt>
      <trkpt lat="48.08902" lon="-4.52078">
        <ele>24.200000762939</ele>
        <time>2014-05-06T13:46:21Z</time>
      </trkpt>
      <trkpt lat="48.08906" lon="-4.52078">
        <ele>24.39999961853</ele>
        <time>2014-05-06T13:46:29Z</time>
      </trkpt>
      <trkpt lat="48.08907" lon="-4.52079">
        <ele>24.39999961853</ele>
        <time>2014-05-06T13:46:39Z</time>
      </trkpt>
      <trkpt lat="48.08907" lon="-4.5208">
        <ele>24.200000762939</ele>
        <time>2014-05-06T13:46:41Z</time>
      </trkpt>
      <trkpt lat="48.08907" lon="-4.52082">
        <ele>24</ele>
        <time>2014-05-06T13:46:49Z</time>
      </trkpt>
      <trkpt lat="48.08906" lon="-4.52087">
        <ele>23.39999961853</ele>
        <time>2014-05-06T13:46:57Z</time>
      </trkpt>
      <trkpt lat="48.08905" lon="-4.52087">
        <ele>23.39999961853</ele>
        <time>2014-05-06T13:47:11Z</time>
      </trkpt>
      <trkpt lat="48.08905" lon="-4.52086">
        <ele>23.39999961853</ele>
        <time>2014-05-06T13:47:20Z</time>
      </trkpt>
      <trkpt lat="48.08905" lon="-4.52086">
        <ele>23.39999961853</ele>
        <time>2014-05-06T13:47:26Z</time>
      </trkpt>
      <trkpt lat="48.08906" lon="-4.52082">
        <ele>24</ele>
        <time>2014-05-06T13:47:34Z</time>
      </trkpt>
      <trkpt lat="48.08907" lon="-4.52081">
        <ele>24.200000762939</ele>
        <time>2014-05-06T13:47:35Z</time>
      </trkpt>
      <trkpt lat="48.0891" lon="-4.52078">
        <ele>24.799999237061</ele>
        <time>2014-05-06T13:47:39Z</time>
      </trkpt>
      <trkpt lat="48.08912" lon="-4.52078">
        <ele>24.799999237061</ele>
        <time>2014-05-06T13:47:41Z</time>
      </trkpt>
      <trkpt lat="48.08916" lon="-4.52078">
        <ele>25</ele>
        <time>2014-05-06T13:47:46Z</time>
      </trkpt>
      <trkpt lat="48.08918" lon="-4.52073">
        <ele>25.799999237061</ele>
        <time>2014-05-06T13:47:53Z</time>
      </trkpt>
      <trkpt lat="48.08917" lon="-4.52076">
        <ele>25.39999961853</ele>
        <time>2014-05-06T13:47:55Z</time>
      </trkpt>
      <trkpt lat="48.08912" lon="-4.52076">
        <ele>25.200000762939</ele>
        <time>2014-05-06T13:48:00Z</time>
      </trkpt>
      <trkpt lat="48.08908" lon="-4.52078">
        <ele>24.60000038147</ele>
        <time>2014-05-06T13:48:05Z</time>
      </trkpt>
      <trkpt lat="48.08905" lon="-4.52078">
        <ele>24.39999961853</ele>
        <time>2014-05-06T13:48:16Z</time>
      </trkpt>
      <trkpt lat="48.08904" lon="-4.52078">
        <ele>24.39999961853</ele>
        <time>2014-05-06T13:48:27Z</time>
      </trkpt>
      <trkpt lat="48.08904" lon="-4.52079">
        <ele>24.200000762939</ele>
        <time>2014-05-06T13:48:45Z</time>
      </trkpt>
      <trkpt lat="48.08904" lon="-4.52078">
        <ele>24.39999961853</ele>
        <time>2014-05-06T13:49:05Z</time>
      </trkpt>
      <trkpt lat="48.08904" lon="-4.52079">
        <ele>24.200000762939</ele>
        <time>2014-05-06T13:49:18Z</time>
      </trkpt>
      <trkpt lat="48.08905" lon="-4.52079">
        <ele>24.200000762939</ele>
        <time>2014-05-06T13:49:28Z</time>
      </trkpt>
      <trkpt lat="48.08906" lon="-4.52079">
        <ele>24.39999961853</ele>
        <time>2014-05-06T13:49:42Z</time>
      </trkpt>
      <trkpt lat="48.08906" lon="-4.52082">
        <ele>24</ele>
        <time>2014-05-06T13:49:51Z</time>
      </trkpt>
      <trkpt lat="48.08906" lon="-4.52085">
        <ele>23.60000038147</ele>
        <time>2014-05-06T13:49:59Z</time>
      </trkpt>
      <trkpt lat="48.08906" lon="-4.52083">
        <ele>23.799999237061</ele>
        <time>2014-05-06T13:50:12Z</time>
      </trkpt>
      <trkpt lat="48.08907" lon="-4.52081">
        <ele>24.200000762939</ele>
        <time>2014-05-06T13:50:23Z</time>
      </trkpt>
      <trkpt lat="48.08908" lon="-4.52082">
        <ele>24</ele>
        <time>2014-05-06T13:50:32Z</time>
      </trkpt>
      <trkpt lat="48.08909" lon="-4.52081">
        <ele>24.200000762939</ele>
        <time>2014-05-06T13:50:34Z</time>
      </trkpt>
      <trkpt lat="48.08911" lon="-4.5208">
        <ele>24.60000038147</ele>
        <time>2014-05-06T13:50:37Z</time>
      </trkpt>
      <trkpt lat="48.08914" lon="-4.5208">
        <ele>24.60000038147</ele>
        <time>2014-05-06T13:50:47Z</time>
      </trkpt>
      <trkpt lat="48.08919" lon="-4.52073">
        <ele>25.799999237061</ele>
        <time>2014-05-06T13:50:55Z</time>
      </trkpt>
      <trkpt lat="48.08926" lon="-4.52076">
        <ele>26</ele>
        <time>2014-05-06T13:51:04Z</time>
      </trkpt>
      <trkpt lat="48.08929" lon="-4.52074">
        <ele>26</ele>
        <time>2014-05-06T13:51:13Z</time>
      </trkpt>
      <trkpt lat="48.08934" lon="-4.52072">
        <ele>25.60000038147</ele>
        <time>2014-05-06T13:51:18Z</time>
      </trkpt>
      <trkpt lat="48.08943" lon="-4.52061">
        <ele>26</ele>
        <time>2014-05-06T13:51:28Z</time>
      </trkpt>
      <trkpt lat="48.08943" lon="-4.52055">
        <ele>26.60000038147</ele>
        <time>2014-05-06T13:51:33Z</time>
      </trkpt>
      <trkpt lat="48.08946" lon="-4.5205">
        <ele>27</ele>
        <time>2014-05-06T13:51:37Z</time>
      </trkpt>
      <trkpt lat="48.08948" lon="-4.52039">
        <ele>28</ele>
        <time>2014-05-06T13:51:47Z</time>
      </trkpt>
      <trkpt lat="48.08948" lon="-4.52033">
        <ele>28.39999961853</ele>
        <time>2014-05-06T13:51:53Z</time>
      </trkpt>
      <trkpt lat="48.08944" lon="-4.52026">
        <ele>28.799999237061</ele>
        <time>2014-05-06T13:52:01Z</time>
      </trkpt>
      <trkpt lat="48.08943" lon="-4.52018">
        <ele>29</ele>
        <time>2014-05-06T13:52:11Z</time>
      </trkpt>
      <trkpt lat="48.08935" lon="-4.52013">
        <ele>27.200000762939</ele>
        <time>2014-05-06T13:52:20Z</time>
      </trkpt>
      <trkpt lat="48.08931" lon="-4.52003">
        <ele>24.60000038147</ele>
        <time>2014-05-06T13:52:30Z</time>
      </trkpt>
      <trkpt lat="48.08923" lon="-4.51993">
        <ele>21.60000038147</ele>
        <time>2014-05-06T13:52:42Z</time>
      </trkpt>
      <trkpt lat="48.08916" lon="-4.51991">
        <ele>20.60000038147</ele>
        <time>2014-05-06T13:52:52Z</time>
      </trkpt>
      <trkpt lat="48.08906" lon="-4.51993">
        <ele>20.200000762939</ele>
        <time>2014-05-06T13:53:03Z</time>
      </trkpt>
      <trkpt lat="48.08901" lon="-4.51998">
        <ele>21</ele>
        <time>2014-05-06T13:53:11Z</time>
      </trkpt>
      <trkpt lat="48.08895" lon="-4.52004">
        <ele>21.799999237061</ele>
        <time>2014-05-06T13:53:19Z</time>
      </trkpt>
      <trkpt lat="48.08885" lon="-4.52008">
        <ele>22.200000762939</ele>
        <time>2014-05-06T13:53:31Z</time>
      </trkpt>
      <trkpt lat="48.08879" lon="-4.52007">
        <ele>21.60000038147</ele>
        <time>2014-05-06T13:53:42Z</time>
      </trkpt>
      <trkpt lat="48.08874" lon="-4.52009">
        <ele>21.60000038147</ele>
        <time>2014-05-06T13:53:48Z</time>
      </trkpt>
      <trkpt lat="48.08873" lon="-4.52009">
        <ele>21.60000038147</ele>
        <time>2014-05-06T13:53:50Z</time>
      </trkpt>
      <trkpt lat="48.08867" lon="-4.52008">
        <ele>21</ele>
        <time>2014-05-06T13:53:59Z</time>
      </trkpt>
      <trkpt lat="48.08862" lon="-4.52009">
        <ele>21.200000762939</ele>
        <time>2014-05-06T13:54:03Z</time>
      </trkpt>
      <trkpt lat="48.08853" lon="-4.52011">
        <ele>21.60000038147</ele>
        <time>2014-05-06T13:54:10Z</time>
      </trkpt>
      <trkpt lat="48.08841" lon="-4.52017">
        <ele>22.799999237061</ele>
        <time>2014-05-06T13:54:19Z</time>
      </trkpt>
      <trkpt lat="48.08832" lon="-4.5202">
        <ele>24.200000762939</ele>
        <time>2014-05-06T13:54:26Z</time>
      </trkpt>
      <trkpt lat="48.08827" lon="-4.52017">
        <ele>24.39999961853</ele>
        <time>2014-05-06T13:54:30Z</time>
      </trkpt>
      <trkpt lat="48.08822" lon="-4.52018">
        <ele>25</ele>
        <time>2014-05-06T13:54:34Z</time>
      </trkpt>
      <trkpt lat="48.08818" lon="-4.52016">
        <ele>25.200000762939</ele>
        <time>2014-05-06T13:54:37Z</time>
      </trkpt>
      <trkpt lat="48.08816" lon="-4.52017">
        <ele>25.39999961853</ele>
        <time>2014-05-06T13:54:49Z</time>
      </trkpt>
      <trkpt lat="48.08816" lon="-4.52017">
        <ele>25.39999961853</ele>
        <time>2014-05-06T13:55:04Z</time>
      </trkpt>
      <trkpt lat="48.08815" lon="-4.52019">
        <ele>26</ele>
        <time>2014-05-06T13:55:12Z</time>
      </trkpt>
      <trkpt lat="48.08817" lon="-4.52021">
        <ele>26</ele>
        <time>2014-05-06T13:55:22Z</time>
      </trkpt>
      <trkpt lat="48.08814" lon="-4.5202">
        <ele>26.200000762939</ele>
        <time>2014-05-06T13:55:25Z</time>
      </trkpt>
      <trkpt lat="48.08805" lon="-4.52025">
        <ele>28</ele>
        <time>2014-05-06T13:55:34Z</time>
      </trkpt>
      <trkpt lat="48.08801" lon="-4.52031">
        <ele>29.200000762939</ele>
        <time>2014-05-06T13:55:44Z</time>
      </trkpt>
      <trkpt lat="48.08801" lon="-4.52031">
        <ele>29.200000762939</ele>
        <time>2014-05-06T13:55:47Z</time>
      </trkpt>
      <trkpt lat="48.08794" lon="-4.52033">
        <ele>30.200000762939</ele>
        <time>2014-05-06T13:55:55Z</time>
      </trkpt>
      <trkpt lat="48.08792" lon="-4.52034">
        <ele>30.39999961853</ele>
        <time>2014-05-06T13:55:57Z</time>
      </trkpt>
      <trkpt lat="48.08786" lon="-4.52034">
        <ele>31</ele>
        <time>2014-05-06T13:56:03Z</time>
      </trkpt>
      <trkpt lat="48.0878" lon="-4.52035">
        <ele>31.60000038147</ele>
        <time>2014-05-06T13:56:08Z</time>
      </trkpt>
      <trkpt lat="48.0877" lon="-4.52036">
        <ele>32.400001525879</ele>
        <time>2014-05-06T13:56:17Z</time>
      </trkpt>
      <trkpt lat="48.08768" lon="-4.52034">
        <ele>33</ele>
        <time>2014-05-06T13:56:21Z</time>
      </trkpt>
      <trkpt lat="48.08764" lon="-4.52034">
        <ele>33.400001525879</ele>
        <time>2014-05-06T13:56:24Z</time>
      </trkpt>
      <trkpt lat="48.08756" lon="-4.52036">
        <ele>34.200000762939</ele>
        <time>2014-05-06T13:56:33Z</time>
      </trkpt>
      <trkpt lat="48.08749" lon="-4.52034">
        <ele>36.200000762939</ele>
        <time>2014-05-06T13:56:41Z</time>
      </trkpt>
      <trkpt lat="48.08743" lon="-4.52036">
        <ele>36.799999237061</ele>
        <time>2014-05-06T13:56:46Z</time>
      </trkpt>
      <trkpt lat="48.08732" lon="-4.52031">
        <ele>39.799999237061</ele>
        <time>2014-05-06T13:56:58Z</time>
      </trkpt>
      <trkpt lat="48.08725" lon="-4.52024">
        <ele>41.400001525879</ele>
        <time>2014-05-06T13:57:10Z</time>
      </trkpt>
      <trkpt lat="48.0872" lon="-4.52019">
        <ele>42.799999237061</ele>
        <time>2014-05-06T13:57:19Z</time>
      </trkpt>
      <trkpt lat="48.08712" lon="-4.52016">
        <ele>44.400001525879</ele>
        <time>2014-05-06T13:57:28Z</time>
      </trkpt>
      <trkpt lat="48.08702" lon="-4.52012">
        <ele>46.599998474121</ele>
        <time>2014-05-06T13:57:40Z</time>
      </trkpt>
      <trkpt lat="48.08692" lon="-4.52011">
        <ele>48.799999237061</ele>
        <time>2014-05-06T13:57:50Z</time>
      </trkpt>
      <trkpt lat="48.08683" lon="-4.52012">
        <ele>51</ele>
        <time>2014-05-06T13:58:00Z</time>
      </trkpt>
      <trkpt lat="48.08681" lon="-4.52013">
        <ele>51.400001525879</ele>
        <time>2014-05-06T13:58:09Z</time>
      </trkpt>
      <trkpt lat="48.08681" lon="-4.52013">
        <ele>51.400001525879</ele>
        <time>2014-05-06T13:58:12Z</time>
      </trkpt>
      <trkpt lat="48.08677" lon="-4.52025">
        <ele>51.400001525879</ele>
        <time>2014-05-06T13:58:22Z</time>
      </trkpt>
      <trkpt lat="48.08671" lon="-4.5203">
        <ele>52.400001525879</ele>
        <time>2014-05-06T13:58:29Z</time>
      </trkpt>
      <trkpt lat="48.08667" lon="-4.52038">
        <ele>52.799999237061</ele>
        <time>2014-05-06T13:58:37Z</time>
      </trkpt>
      <trkpt lat="48.08661" lon="-4.52049">
        <ele>53</ele>
        <time>2014-05-06T13:58:47Z</time>
      </trkpt>
      <trkpt lat="48.08652" lon="-4.52059">
        <ele>53.799999237061</ele>
        <time>2014-05-06T13:58:57Z</time>
      </trkpt>
      <trkpt lat="48.08651" lon="-4.52061">
        <ele>53.599998474121</ele>
        <time>2014-05-06T13:58:59Z</time>
      </trkpt>
      <trkpt lat="48.08649" lon="-4.52068">
        <ele>52.599998474121</ele>
        <time>2014-05-06T13:59:04Z</time>
      </trkpt>
      <trkpt lat="48.08647" lon="-4.5207">
        <ele>52.799999237061</ele>
        <time>2014-05-06T13:59:06Z</time>
      </trkpt>
      <trkpt lat="48.0864" lon="-4.52081">
        <ele>52.799999237061</ele>
        <time>2014-05-06T13:59:15Z</time>
      </trkpt>
      <trkpt lat="48.08636" lon="-4.52093">
        <ele>51.400001525879</ele>
        <time>2014-05-06T13:59:23Z</time>
      </trkpt>
      <trkpt lat="48.08633" lon="-4.521">
        <ele>51</ele>
        <time>2014-05-06T13:59:28Z</time>
      </trkpt>
      <trkpt lat="48.08629" lon="-4.52102">
        <ele>51.799999237061</ele>
        <time>2014-05-06T13:59:33Z</time>
      </trkpt>
      <trkpt lat="48.08627" lon="-4.52105">
        <ele>51.799999237061</ele>
        <time>2014-05-06T13:59:35Z</time>
      </trkpt>
      <trkpt lat="48.08623" lon="-4.52114">
        <ele>51.200000762939</ele>
        <time>2014-05-06T13:59:41Z</time>
      </trkpt>
      <trkpt lat="48.0862" lon="-4.52118">
        <ele>51.400001525879</ele>
        <time>2014-05-06T13:59:44Z</time>
      </trkpt>
      <trkpt lat="48.08618" lon="-4.52135">
        <ele>48.400001525879</ele>
        <time>2014-05-06T13:59:56Z</time>
      </trkpt>
      <trkpt lat="48.08615" lon="-4.52144">
        <ele>47.400001525879</ele>
        <time>2014-05-06T14:00:02Z</time>
      </trkpt>
      <trkpt lat="48.08614" lon="-4.52149">
        <ele>46.799999237061</ele>
        <time>2014-05-06T14:00:09Z</time>
      </trkpt>
      <trkpt lat="48.08612" lon="-4.52162">
        <ele>44.799999237061</ele>
        <time>2014-05-06T14:00:17Z</time>
      </trkpt>
      <trkpt lat="48.08603" lon="-4.52181">
        <ele>43.599998474121</ele>
        <time>2014-05-06T14:00:28Z</time>
      </trkpt>
      <trkpt lat="48.086" lon="-4.52188">
        <ele>43.400001525879</ele>
        <time>2014-05-06T14:00:33Z</time>
      </trkpt>
      <trkpt lat="48.08596" lon="-4.52193">
        <ele>43.599998474121</ele>
        <time>2014-05-06T14:00:37Z</time>
      </trkpt>
      <trkpt lat="48.08595" lon="-4.52196">
        <ele>43.400001525879</ele>
        <time>2014-05-06T14:00:39Z</time>
      </trkpt>
      <trkpt lat="48.08593" lon="-4.522">
        <ele>43</ele>
        <time>2014-05-06T14:00:42Z</time>
      </trkpt>
      <trkpt lat="48.08585" lon="-4.52212">
        <ele>43.400001525879</ele>
        <time>2014-05-06T14:00:52Z</time>
      </trkpt>
      <trkpt lat="48.08584" lon="-4.52214">
        <ele>43.599998474121</ele>
        <time>2014-05-06T14:00:54Z</time>
      </trkpt>
      <trkpt lat="48.0858" lon="-4.52218">
        <ele>44.200000762939</ele>
        <time>2014-05-06T14:01:00Z</time>
      </trkpt>
      <trkpt lat="48.08577" lon="-4.52222">
        <ele>44.400001525879</ele>
        <time>2014-05-06T14:01:04Z</time>
      </trkpt>
      <trkpt lat="48.08572" lon="-4.52225">
        <ele>45.599998474121</ele>
        <time>2014-05-06T14:01:09Z</time>
      </trkpt>
      <trkpt lat="48.08564" lon="-4.52231">
        <ele>47.599998474121</ele>
        <time>2014-05-06T14:01:20Z</time>
      </trkpt>
      <trkpt lat="48.08554" lon="-4.52235">
        <ele>50.200000762939</ele>
        <time>2014-05-06T14:01:32Z</time>
      </trkpt>
      <trkpt lat="48.08545" lon="-4.52242">
        <ele>52</ele>
        <time>2014-05-06T14:01:44Z</time>
      </trkpt>
      <trkpt lat="48.0854" lon="-4.52245">
        <ele>53</ele>
        <time>2014-05-06T14:01:52Z</time>
      </trkpt>
      <trkpt lat="48.08537" lon="-4.52247">
        <ele>53.799999237061</ele>
        <time>2014-05-06T14:01:56Z</time>
      </trkpt>
      <trkpt lat="48.08529" lon="-4.52253">
        <ele>55.599998474121</ele>
        <time>2014-05-06T14:02:07Z</time>
      </trkpt>
      <trkpt lat="48.08525" lon="-4.52257">
        <ele>56.200000762939</ele>
        <time>2014-05-06T14:02:13Z</time>
      </trkpt>
      <trkpt lat="48.08519" lon="-4.52265">
        <ele>56.799999237061</ele>
        <time>2014-05-06T14:02:23Z</time>
      </trkpt>
      <trkpt lat="48.08517" lon="-4.5227">
        <ele>56.799999237061</ele>
        <time>2014-05-06T14:02:33Z</time>
      </trkpt>
      <trkpt lat="48.08514" lon="-4.52276">
        <ele>56.599998474121</ele>
        <time>2014-05-06T14:02:37Z</time>
      </trkpt>
      <trkpt lat="48.08511" lon="-4.52289">
        <ele>56</ele>
        <time>2014-05-06T14:02:45Z</time>
      </trkpt>
      <trkpt lat="48.08511" lon="-4.52297">
        <ele>55.200000762939</ele>
        <time>2014-05-06T14:02:51Z</time>
      </trkpt>
      <trkpt lat="48.08511" lon="-4.5231">
        <ele>54.200000762939</ele>
        <time>2014-05-06T14:03:00Z</time>
      </trkpt>
      <trkpt lat="48.08511" lon="-4.52322">
        <ele>53.200000762939</ele>
        <time>2014-05-06T14:03:08Z</time>
      </trkpt>
      <trkpt lat="48.08513" lon="-4.52334">
        <ele>51.400001525879</ele>
        <time>2014-05-06T14:03:16Z</time>
      </trkpt>
      <trkpt lat="48.08522" lon="-4.52346">
        <ele>46.599998474121</ele>
        <time>2014-05-06T14:03:28Z</time>
      </trkpt>
      <trkpt lat="48.08528" lon="-4.52354">
        <ele>44</ele>
        <time>2014-05-06T14:03:36Z</time>
      </trkpt>
      <trkpt lat="48.08528" lon="-4.52356">
        <ele>43.799999237061</ele>
        <time>2014-05-06T14:03:37Z</time>
      </trkpt>
      <trkpt lat="48.08536" lon="-4.52367">
        <ele>41.400001525879</ele>
        <time>2014-05-06T14:03:48Z</time>
      </trkpt>
      <trkpt lat="48.08542" lon="-4.52373">
        <ele>39.400001525879</ele>
        <time>2014-05-06T14:03:58Z</time>
      </trkpt>
      <trkpt lat="48.08545" lon="-4.52377">
        <ele>38.400001525879</ele>
        <time>2014-05-06T14:04:05Z</time>
      </trkpt>
      <trkpt lat="48.08553" lon="-4.52391">
        <ele>36</ele>
        <time>2014-05-06T14:04:17Z</time>
      </trkpt>
      <trkpt lat="48.08562" lon="-4.52403">
        <ele>33.799999237061</ele>
        <time>2014-05-06T14:04:30Z</time>
      </trkpt>
      <trkpt lat="48.08563" lon="-4.52404">
        <ele>33.799999237061</ele>
        <time>2014-05-06T14:04:32Z</time>
      </trkpt>
      <trkpt lat="48.08566" lon="-4.52404">
        <ele>33.400001525879</ele>
        <time>2014-05-06T14:04:35Z</time>
      </trkpt>
      <trkpt lat="48.08575" lon="-4.52407">
        <ele>32.200000762939</ele>
        <time>2014-05-06T14:04:47Z</time>
      </trkpt>
      <trkpt lat="48.08585" lon="-4.52406">
        <ele>30.200000762939</ele>
        <time>2014-05-06T14:04:57Z</time>
      </trkpt>
      <trkpt lat="48.08594" lon="-4.52411">
        <ele>29.39999961853</ele>
        <time>2014-05-06T14:05:06Z</time>
      </trkpt>
      <trkpt lat="48.08603" lon="-4.52418">
        <ele>30.39999961853</ele>
        <time>2014-05-06T14:05:17Z</time>
      </trkpt>
      <trkpt lat="48.08603" lon="-4.52426">
        <ele>31.799999237061</ele>
        <time>2014-05-06T14:05:27Z</time>
      </trkpt>
      <trkpt lat="48.08603" lon="-4.52427">
        <ele>32</ele>
        <time>2014-05-06T14:05:28Z</time>
      </trkpt>
      <trkpt lat="48.08599" lon="-4.52429">
        <ele>32.400001525879</ele>
        <time>2014-05-06T14:05:33Z</time>
      </trkpt>
      <trkpt lat="48.08593" lon="-4.52428">
        <ele>32.200000762939</ele>
        <time>2014-05-06T14:05:40Z</time>
      </trkpt>
      <trkpt lat="48.0859" lon="-4.52429">
        <ele>33</ele>
        <time>2014-05-06T14:05:43Z</time>
      </trkpt>
      <trkpt lat="48.08585" lon="-4.52429">
        <ele>34</ele>
        <time>2014-05-06T14:05:48Z</time>
      </trkpt>
      <trkpt lat="48.0858" lon="-4.52431">
        <ele>35.200000762939</ele>
        <time>2014-05-06T14:05:56Z</time>
      </trkpt>
      <trkpt lat="48.08579" lon="-4.52431">
        <ele>35.400001525879</ele>
        <time>2014-05-06T14:05:58Z</time>
      </trkpt>
      <trkpt lat="48.08572" lon="-4.52427">
        <ele>36</ele>
        <time>2014-05-06T14:06:05Z</time>
      </trkpt>
      <trkpt lat="48.08566" lon="-4.52435">
        <ele>38.599998474121</ele>
        <time>2014-05-06T14:06:14Z</time>
      </trkpt>
      <trkpt lat="48.08564" lon="-4.5244">
        <ele>39.799999237061</ele>
        <time>2014-05-06T14:06:18Z</time>
      </trkpt>
      <trkpt lat="48.08562" lon="-4.52446">
        <ele>41.400001525879</ele>
        <time>2014-05-06T14:06:23Z</time>
      </trkpt>
      <trkpt lat="48.08556" lon="-4.52458">
        <ele>42.400001525879</ele>
        <time>2014-05-06T14:06:33Z</time>
      </trkpt>
      <trkpt lat="48.08549" lon="-4.52469">
        <ele>42.400001525879</ele>
        <time>2014-05-06T14:06:43Z</time>
      </trkpt>
      <trkpt lat="48.08542" lon="-4.5248">
        <ele>42.599998474121</ele>
        <time>2014-05-06T14:06:53Z</time>
      </trkpt>
      <trkpt lat="48.08532" lon="-4.52496">
        <ele>42.799999237061</ele>
        <time>2014-05-06T14:07:04Z</time>
      </trkpt>
      <trkpt lat="48.08529" lon="-4.52499">
        <ele>43</ele>
        <time>2014-05-06T14:07:07Z</time>
      </trkpt>
      <trkpt lat="48.08521" lon="-4.52517">
        <ele>42.599998474121</ele>
        <time>2014-05-06T14:07:18Z</time>
      </trkpt>
      <trkpt lat="48.08517" lon="-4.52526">
        <ele>42.400001525879</ele>
        <time>2014-05-06T14:07:25Z</time>
      </trkpt>
      <trkpt lat="48.08514" lon="-4.52531">
        <ele>42.400001525879</ele>
        <time>2014-05-06T14:07:31Z</time>
      </trkpt>
      <trkpt lat="48.08508" lon="-4.52543">
        <ele>42.400001525879</ele>
        <time>2014-05-06T14:07:42Z</time>
      </trkpt>
      <trkpt lat="48.08505" lon="-4.52549">
        <ele>42.400001525879</ele>
        <time>2014-05-06T14:07:48Z</time>
      </trkpt>
      <trkpt lat="48.08501" lon="-4.52558">
        <ele>42.599998474121</ele>
        <time>2014-05-06T14:07:55Z</time>
      </trkpt>
      <trkpt lat="48.08494" lon="-4.52566">
        <ele>43.400001525879</ele>
        <time>2014-05-06T14:08:05Z</time>
      </trkpt>
      <trkpt lat="48.08493" lon="-4.52589">
        <ele>41</ele>
        <time>2014-05-06T14:08:19Z</time>
      </trkpt>
      <trkpt lat="48.08493" lon="-4.52596">
        <ele>40.200000762939</ele>
        <time>2014-05-06T14:08:23Z</time>
      </trkpt>
      <trkpt lat="48.08492" lon="-4.52602">
        <ele>39.799999237061</ele>
        <time>2014-05-06T14:08:26Z</time>
      </trkpt>
      <trkpt lat="48.08493" lon="-4.52607">
        <ele>39.200000762939</ele>
        <time>2014-05-06T14:08:29Z</time>
      </trkpt>
      <trkpt lat="48.08494" lon="-4.52609">
        <ele>38.599998474121</ele>
        <time>2014-05-06T14:08:31Z</time>
      </trkpt>
      <trkpt lat="48.08493" lon="-4.52621">
        <ele>37.799999237061</ele>
        <time>2014-05-06T14:08:38Z</time>
      </trkpt>
      <trkpt lat="48.08494" lon="-4.52624">
        <ele>37.400001525879</ele>
        <time>2014-05-06T14:08:40Z</time>
      </trkpt>
      <trkpt lat="48.08496" lon="-4.52636">
        <ele>37</ele>
        <time>2014-05-06T14:08:47Z</time>
      </trkpt>
      <trkpt lat="48.08504" lon="-4.52645">
        <ele>36</ele>
        <time>2014-05-06T14:08:57Z</time>
      </trkpt>
      <trkpt lat="48.08507" lon="-4.52646">
        <ele>35.400001525879</ele>
        <time>2014-05-06T14:09:02Z</time>
      </trkpt>
      <trkpt lat="48.0851" lon="-4.52652">
        <ele>35.200000762939</ele>
        <time>2014-05-06T14:09:06Z</time>
      </trkpt>
      <trkpt lat="48.08508" lon="-4.52657">
        <ele>35.799999237061</ele>
        <time>2014-05-06T14:09:11Z</time>
      </trkpt>
      <trkpt lat="48.08513" lon="-4.52673">
        <ele>35</ele>
        <time>2014-05-06T14:09:23Z</time>
      </trkpt>
      <trkpt lat="48.0852" lon="-4.52684">
        <ele>32.799999237061</ele>
        <time>2014-05-06T14:09:33Z</time>
      </trkpt>
      <trkpt lat="48.08521" lon="-4.52688">
        <ele>33</ele>
        <time>2014-05-06T14:09:36Z</time>
      </trkpt>
      <trkpt lat="48.08522" lon="-4.52702">
        <ele>32.200000762939</ele>
        <time>2014-05-06T14:09:46Z</time>
      </trkpt>
      <trkpt lat="48.08522" lon="-4.52705">
        <ele>32</ele>
        <time>2014-05-06T14:09:48Z</time>
      </trkpt>
      <trkpt lat="48.08525" lon="-4.52712">
        <ele>30.60000038147</ele>
        <time>2014-05-06T14:09:54Z</time>
      </trkpt>
      <trkpt lat="48.08532" lon="-4.5272">
        <ele>27.799999237061</ele>
        <time>2014-05-06T14:10:02Z</time>
      </trkpt>
      <trkpt lat="48.0854" lon="-4.52737">
        <ele>24.39999961853</ele>
        <time>2014-05-06T14:10:15Z</time>
      </trkpt>
      <trkpt lat="48.0854" lon="-4.52747">
        <ele>24</ele>
        <time>2014-05-06T14:10:25Z</time>
      </trkpt>
      <trkpt lat="48.08538" lon="-4.52749">
        <ele>24.60000038147</ele>
        <time>2014-05-06T14:10:28Z</time>
      </trkpt>
      <trkpt lat="48.08528" lon="-4.52756">
        <ele>28.60000038147</ele>
        <time>2014-05-06T14:10:39Z</time>
      </trkpt>
      <trkpt lat="48.0852" lon="-4.52758">
        <ele>31.60000038147</ele>
        <time>2014-05-06T14:10:49Z</time>
      </trkpt>
      <trkpt lat="48.08516" lon="-4.52762">
        <ele>33.200000762939</ele>
        <time>2014-05-06T14:10:55Z</time>
      </trkpt>
      <trkpt lat="48.08511" lon="-4.52767">
        <ele>35</ele>
        <time>2014-05-06T14:11:01Z</time>
      </trkpt>
      <trkpt lat="48.08507" lon="-4.5277">
        <ele>35.599998474121</ele>
        <time>2014-05-06T14:11:05Z</time>
      </trkpt>
      <trkpt lat="48.08502" lon="-4.52781">
        <ele>36.200000762939</ele>
        <time>2014-05-06T14:11:13Z</time>
      </trkpt>
      <trkpt lat="48.08506" lon="-4.52785">
        <ele>35.599998474121</ele>
        <time>2014-05-06T14:11:23Z</time>
      </trkpt>
      <trkpt lat="48.0851" lon="-4.52789">
        <ele>35.400001525879</ele>
        <time>2014-05-06T14:11:33Z</time>
      </trkpt>
      <trkpt lat="48.08507" lon="-4.52786">
        <ele>35.400001525879</ele>
        <time>2014-05-06T14:11:46Z</time>
      </trkpt>
      <trkpt lat="48.08507" lon="-4.52785">
        <ele>35.400001525879</ele>
        <time>2014-05-06T14:12:04Z</time>
      </trkpt>
      <trkpt lat="48.08507" lon="-4.52785">
        <ele>35.400001525879</ele>
        <time>2014-05-06T14:12:25Z</time>
      </trkpt>
      <trkpt lat="48.08507" lon="-4.52785">
        <ele>35.400001525879</ele>
        <time>2014-05-06T14:12:33Z</time>
      </trkpt>
      <trkpt lat="48.08502" lon="-4.52789">
        <ele>36.200000762939</ele>
        <time>2014-05-06T14:12:43Z</time>
      </trkpt>
      <trkpt lat="48.08502" lon="-4.52792">
        <ele>36.200000762939</ele>
        <time>2014-05-06T14:12:55Z</time>
      </trkpt>
      <trkpt lat="48.08512" lon="-4.52794">
        <ele>35</ele>
        <time>2014-05-06T14:13:07Z</time>
      </trkpt>
      <trkpt lat="48.0852" lon="-4.52793">
        <ele>32.200000762939</ele>
        <time>2014-05-06T14:13:17Z</time>
      </trkpt>
      <trkpt lat="48.08526" lon="-4.52792">
        <ele>30.200000762939</ele>
        <time>2014-05-06T14:13:27Z</time>
      </trkpt>
      <trkpt lat="48.08533" lon="-4.5279">
        <ele>27.799999237061</ele>
        <time>2014-05-06T14:13:36Z</time>
      </trkpt>
      <trkpt lat="48.08541" lon="-4.528">
        <ele>25.799999237061</ele>
        <time>2014-05-06T14:13:45Z</time>
      </trkpt>
      <trkpt lat="48.08544" lon="-4.52803">
        <ele>25</ele>
        <time>2014-05-06T14:13:49Z</time>
      </trkpt>
      <trkpt lat="48.08551" lon="-4.52813">
        <ele>23.39999961853</ele>
        <time>2014-05-06T14:14:00Z</time>
      </trkpt>
      <trkpt lat="48.08552" lon="-4.52821">
        <ele>23.39999961853</ele>
        <time>2014-05-06T14:14:11Z</time>
      </trkpt>
      <trkpt lat="48.08556" lon="-4.52831">
        <ele>23.60000038147</ele>
        <time>2014-05-06T14:14:24Z</time>
      </trkpt>
      <trkpt lat="48.08566" lon="-4.52838">
        <ele>22.799999237061</ele>
        <time>2014-05-06T14:14:37Z</time>
      </trkpt>
      <trkpt lat="48.08567" lon="-4.52839">
        <ele>22.60000038147</ele>
        <time>2014-05-06T14:14:38Z</time>
      </trkpt>
      <trkpt lat="48.08582" lon="-4.52842">
        <ele>19.60000038147</ele>
        <time>2014-05-06T14:14:49Z</time>
      </trkpt>
      <trkpt lat="48.08592" lon="-4.52852">
        <ele>19</ele>
        <time>2014-05-06T14:14:59Z</time>
      </trkpt>
      <trkpt lat="48.08597" lon="-4.52859">
        <ele>19.39999961853</ele>
        <time>2014-05-06T14:15:07Z</time>
      </trkpt>
      <trkpt lat="48.08606" lon="-4.52865">
        <ele>18.60000038147</ele>
        <time>2014-05-06T14:15:16Z</time>
      </trkpt>
      <trkpt lat="48.08613" lon="-4.52868">
        <ele>17.60000038147</ele>
        <time>2014-05-06T14:15:26Z</time>
      </trkpt>
      <trkpt lat="48.08621" lon="-4.5287">
        <ele>16.39999961853</ele>
        <time>2014-05-06T14:15:35Z</time>
      </trkpt>
      <trkpt lat="48.08629" lon="-4.52873">
        <ele>15.60000038147</ele>
        <time>2014-05-06T14:15:43Z</time>
      </trkpt>
      <trkpt lat="48.08637" lon="-4.52882">
        <ele>15.39999961853</ele>
        <time>2014-05-06T14:15:53Z</time>
      </trkpt>
      <trkpt lat="48.08638" lon="-4.52883">
        <ele>15.60000038147</ele>
        <time>2014-05-06T14:15:54Z</time>
      </trkpt>
      <trkpt lat="48.08644" lon="-4.52887">
        <ele>15.199999809265</ele>
        <time>2014-05-06T14:16:02Z</time>
      </trkpt>
      <trkpt lat="48.08646" lon="-4.52887">
        <ele>14.800000190735</ele>
        <time>2014-05-06T14:16:11Z</time>
      </trkpt>
      <trkpt lat="48.08646" lon="-4.52889">
        <ele>15.199999809265</ele>
        <time>2014-05-06T14:16:19Z</time>
      </trkpt>
      <trkpt lat="48.08649" lon="-4.52891">
        <ele>15</ele>
        <time>2014-05-06T14:16:28Z</time>
      </trkpt>
      <trkpt lat="48.0865" lon="-4.52894">
        <ele>15.39999961853</ele>
        <time>2014-05-06T14:16:38Z</time>
      </trkpt>
      <trkpt lat="48.08651" lon="-4.52896">
        <ele>15.39999961853</ele>
        <time>2014-05-06T14:16:49Z</time>
      </trkpt>
      <trkpt lat="48.08652" lon="-4.529">
        <ele>15.60000038147</ele>
        <time>2014-05-06T14:16:57Z</time>
      </trkpt>
      <trkpt lat="48.08652" lon="-4.52904">
        <ele>16</ele>
        <time>2014-05-06T14:17:09Z</time>
      </trkpt>
      <trkpt lat="48.08652" lon="-4.52905">
        <ele>16</ele>
        <time>2014-05-06T14:17:10Z</time>
      </trkpt>
      <trkpt lat="48.08657" lon="-4.52922">
        <ele>17</ele>
        <time>2014-05-06T14:17:21Z</time>
      </trkpt>
      <trkpt lat="48.08659" lon="-4.52926">
        <ele>17</ele>
        <time>2014-05-06T14:17:24Z</time>
      </trkpt>
      <trkpt lat="48.08662" lon="-4.52928">
        <ele>16.60000038147</ele>
        <time>2014-05-06T14:17:27Z</time>
      </trkpt>
      <trkpt lat="48.08667" lon="-4.52942">
        <ele>17.200000762939</ele>
        <time>2014-05-06T14:17:39Z</time>
      </trkpt>
      <trkpt lat="48.08675" lon="-4.5296">
        <ele>16.60000038147</ele>
        <time>2014-05-06T14:17:51Z</time>
      </trkpt>
      <trkpt lat="48.08684" lon="-4.52971">
        <ele>15.199999809265</ele>
        <time>2014-05-06T14:18:03Z</time>
      </trkpt>
      <trkpt lat="48.08684" lon="-4.52971">
        <ele>15.199999809265</ele>
        <time>2014-05-06T14:18:06Z</time>
      </trkpt>
      <trkpt lat="48.08685" lon="-4.52968">
        <ele>14.800000190735</ele>
        <time>2014-05-06T14:18:10Z</time>
      </trkpt>
      <trkpt lat="48.08679" lon="-4.52965">
        <ele>15.800000190735</ele>
        <time>2014-05-06T14:18:20Z</time>
      </trkpt>
      <trkpt lat="48.08679" lon="-4.52966">
        <ele>16</ele>
        <time>2014-05-06T14:18:28Z</time>
      </trkpt>
      <trkpt lat="48.08675" lon="-4.52963">
        <ele>16.60000038147</ele>
        <time>2014-05-06T14:18:39Z</time>
      </trkpt>
      <trkpt lat="48.08666" lon="-4.52958">
        <ele>18.39999961853</ele>
        <time>2014-05-06T14:18:50Z</time>
      </trkpt>
      <trkpt lat="48.08659" lon="-4.52957">
        <ele>20</ele>
        <time>2014-05-06T14:18:59Z</time>
      </trkpt>
      <trkpt lat="48.08648" lon="-4.52954">
        <ele>22.39999961853</ele>
        <time>2014-05-06T14:19:13Z</time>
      </trkpt>
      <trkpt lat="48.0864" lon="-4.52955">
        <ele>24.39999961853</ele>
        <time>2014-05-06T14:19:24Z</time>
      </trkpt>
      <trkpt lat="48.08637" lon="-4.52957">
        <ele>25</ele>
        <time>2014-05-06T14:19:29Z</time>
      </trkpt>
      <trkpt lat="48.08632" lon="-4.52965">
        <ele>26</ele>
        <time>2014-05-06T14:19:39Z</time>
      </trkpt>
      <trkpt lat="48.08628" lon="-4.52968">
        <ele>27.200000762939</ele>
        <time>2014-05-06T14:19:48Z</time>
      </trkpt>
      <trkpt lat="48.0862" lon="-4.5297">
        <ele>28.799999237061</ele>
        <time>2014-05-06T14:19:58Z</time>
      </trkpt>
      <trkpt lat="48.08619" lon="-4.5297">
        <ele>29</ele>
        <time>2014-05-06T14:19:59Z</time>
      </trkpt>
      <trkpt lat="48.08615" lon="-4.52968">
        <ele>30</ele>
        <time>2014-05-06T14:20:03Z</time>
      </trkpt>
      <trkpt lat="48.08604" lon="-4.52966">
        <ele>32.599998474121</ele>
        <time>2014-05-06T14:20:15Z</time>
      </trkpt>
      <trkpt lat="48.08596" lon="-4.52965">
        <ele>34.400001525879</ele>
        <time>2014-05-06T14:20:25Z</time>
      </trkpt>
      <trkpt lat="48.08588" lon="-4.52963">
        <ele>35.799999237061</ele>
        <time>2014-05-06T14:20:34Z</time>
      </trkpt>
      <trkpt lat="48.0858" lon="-4.52961">
        <ele>37.400001525879</ele>
        <time>2014-05-06T14:20:44Z</time>
      </trkpt>
      <trkpt lat="48.08573" lon="-4.5296">
        <ele>38.599998474121</ele>
        <time>2014-05-06T14:20:52Z</time>
      </trkpt>
      <trkpt lat="48.08565" lon="-4.52956">
        <ele>39.799999237061</ele>
        <time>2014-05-06T14:21:00Z</time>
      </trkpt>
      <trkpt lat="48.08559" lon="-4.52955">
        <ele>40.799999237061</ele>
        <time>2014-05-06T14:21:09Z</time>
      </trkpt>
      <trkpt lat="48.08551" lon="-4.52952">
        <ele>42</ele>
        <time>2014-05-06T14:21:17Z</time>
      </trkpt>
      <trkpt lat="48.08544" lon="-4.52949">
        <ele>43.200000762939</ele>
        <time>2014-05-06T14:21:27Z</time>
      </trkpt>
      <trkpt lat="48.0854" lon="-4.52949">
        <ele>43.799999237061</ele>
        <time>2014-05-06T14:21:37Z</time>
      </trkpt>
      <trkpt lat="48.08538" lon="-4.52949">
        <ele>44</ele>
        <time>2014-05-06T14:21:50Z</time>
      </trkpt>
      <trkpt lat="48.08535" lon="-4.52949">
        <ele>44.400001525879</ele>
        <time>2014-05-06T14:21:59Z</time>
      </trkpt>
      <trkpt lat="48.08535" lon="-4.52948">
        <ele>44.400001525879</ele>
        <time>2014-05-06T14:22:00Z</time>
      </trkpt>
      <trkpt lat="48.08533" lon="-4.52947">
        <ele>44.400001525879</ele>
        <time>2014-05-06T14:22:02Z</time>
      </trkpt>
      <trkpt lat="48.08526" lon="-4.52943">
        <ele>45</ele>
        <time>2014-05-06T14:22:11Z</time>
      </trkpt>
      <trkpt lat="48.08518" lon="-4.52941">
        <ele>46</ele>
        <time>2014-05-06T14:22:20Z</time>
      </trkpt>
      <trkpt lat="48.0851" lon="-4.52937">
        <ele>47.400001525879</ele>
        <time>2014-05-06T14:22:29Z</time>
      </trkpt>
      <trkpt lat="48.08507" lon="-4.52933">
        <ele>47.400001525879</ele>
        <time>2014-05-06T14:22:34Z</time>
      </trkpt>
      <trkpt lat="48.08501" lon="-4.5292">
        <ele>46.200000762939</ele>
        <time>2014-05-06T14:22:46Z</time>
      </trkpt>
      <trkpt lat="48.08497" lon="-4.52903">
        <ele>44.799999237061</ele>
        <time>2014-05-06T14:22:58Z</time>
      </trkpt>
      <trkpt lat="48.08496" lon="-4.52888">
        <ele>43.200000762939</ele>
        <time>2014-05-06T14:23:08Z</time>
      </trkpt>
      <trkpt lat="48.08496" lon="-4.52885">
        <ele>42.799999237061</ele>
        <time>2014-05-06T14:23:10Z</time>
      </trkpt>
      <trkpt lat="48.08489" lon="-4.52871">
        <ele>42.400001525879</ele>
        <time>2014-05-06T14:23:20Z</time>
      </trkpt>
      <trkpt lat="48.08482" lon="-4.52863">
        <ele>42.400001525879</ele>
        <time>2014-05-06T14:23:31Z</time>
      </trkpt>
      <trkpt lat="48.08478" lon="-4.5286">
        <ele>42.599998474121</ele>
        <time>2014-05-06T14:23:36Z</time>
      </trkpt>
      <trkpt lat="48.08469" lon="-4.52853">
        <ele>43</ele>
        <time>2014-05-06T14:23:48Z</time>
      </trkpt>
      <trkpt lat="48.08463" lon="-4.52849">
        <ele>43.400001525879</ele>
        <time>2014-05-06T14:23:57Z</time>
      </trkpt>
      <trkpt lat="48.08453" lon="-4.52844">
        <ele>44</ele>
        <time>2014-05-06T14:24:09Z</time>
      </trkpt>
      <trkpt lat="48.08446" lon="-4.52839">
        <ele>44.799999237061</ele>
        <time>2014-05-06T14:24:20Z</time>
      </trkpt>
      <trkpt lat="48.08433" lon="-4.52825">
        <ele>46.599998474121</ele>
        <time>2014-05-06T14:24:30Z</time>
      </trkpt>
      <trkpt lat="48.08429" lon="-4.52824">
        <ele>47</ele>
        <time>2014-05-06T14:24:42Z</time>
      </trkpt>
      <trkpt lat="48.08428" lon="-4.52819">
        <ele>47.200000762939</ele>
        <time>2014-05-06T14:24:46Z</time>
      </trkpt>
      <trkpt lat="48.08425" lon="-4.52815">
        <ele>47.599998474121</ele>
        <time>2014-05-06T14:24:50Z</time>
      </trkpt>
      <trkpt lat="48.08423" lon="-4.52813">
        <ele>47.799999237061</ele>
        <time>2014-05-06T14:24:52Z</time>
      </trkpt>
      <trkpt lat="48.08421" lon="-4.52808">
        <ele>47.799999237061</ele>
        <time>2014-05-06T14:24:55Z</time>
      </trkpt>
      <trkpt lat="48.08411" lon="-4.52797">
        <ele>49</ele>
        <time>2014-05-06T14:25:07Z</time>
      </trkpt>
      <trkpt lat="48.08397" lon="-4.52787">
        <ele>50</ele>
        <time>2014-05-06T14:25:19Z</time>
      </trkpt>
      <trkpt lat="48.08386" lon="-4.52775">
        <ele>51.200000762939</ele>
        <time>2014-05-06T14:25:30Z</time>
      </trkpt>
      <trkpt lat="48.08378" lon="-4.52763">
        <ele>52.599998474121</ele>
        <time>2014-05-06T14:25:40Z</time>
      </trkpt>
      <trkpt lat="48.0837" lon="-4.52745">
        <ele>54.200000762939</ele>
        <time>2014-05-06T14:25:54Z</time>
      </trkpt>
      <trkpt lat="48.08374" lon="-4.52736">
        <ele>54.400001525879</ele>
        <time>2014-05-06T14:26:02Z</time>
      </trkpt>
      <trkpt lat="48.08382" lon="-4.52731">
        <ele>53.799999237061</ele>
        <time>2014-05-06T14:26:11Z</time>
      </trkpt>
      <trkpt lat="48.08389" lon="-4.52731">
        <ele>53.200000762939</ele>
        <time>2014-05-06T14:26:17Z</time>
      </trkpt>
      <trkpt lat="48.08398" lon="-4.52731">
        <ele>52.200000762939</ele>
        <time>2014-05-06T14:26:26Z</time>
      </trkpt>
      <trkpt lat="48.08407" lon="-4.52728">
        <ele>51.599998474121</ele>
        <time>2014-05-06T14:26:34Z</time>
      </trkpt>
      <trkpt lat="48.08409" lon="-4.52724">
        <ele>51.599998474121</ele>
        <time>2014-05-06T14:26:37Z</time>
      </trkpt>
      <trkpt lat="48.0841" lon="-4.52718">
        <ele>51.799999237061</ele>
        <time>2014-05-06T14:26:42Z</time>
      </trkpt>
      <trkpt lat="48.084" lon="-4.52708">
        <ele>53.200000762939</ele>
        <time>2014-05-06T14:26:53Z</time>
      </trkpt>
      <trkpt lat="48.0839" lon="-4.52705">
        <ele>54.200000762939</ele>
        <time>2014-05-06T14:27:05Z</time>
      </trkpt>
      <trkpt lat="48.08379" lon="-4.52699">
        <ele>55.599998474121</ele>
        <time>2014-05-06T14:27:16Z</time>
      </trkpt>
      <trkpt lat="48.08376" lon="-4.52696">
        <ele>56</ele>
        <time>2014-05-06T14:27:28Z</time>
      </trkpt>
      <trkpt lat="48.08375" lon="-4.52694">
        <ele>56.200000762939</ele>
        <time>2014-05-06T14:27:35Z</time>
      </trkpt>
      <trkpt lat="48.08373" lon="-4.52678">
        <ele>57</ele>
        <time>2014-05-06T14:27:44Z</time>
      </trkpt>
      <trkpt lat="48.08373" lon="-4.52676">
        <ele>57</ele>
        <time>2014-05-06T14:27:46Z</time>
      </trkpt>
      <trkpt lat="48.08371" lon="-4.52661">
        <ele>58.200000762939</ele>
        <time>2014-05-06T14:27:57Z</time>
      </trkpt>
      <trkpt lat="48.08369" lon="-4.52646">
        <ele>59.799999237061</ele>
        <time>2014-05-06T14:28:06Z</time>
      </trkpt>
      <trkpt lat="48.08364" lon="-4.52628">
        <ele>62</ele>
        <time>2014-05-06T14:28:16Z</time>
      </trkpt>
      <trkpt lat="48.08361" lon="-4.52617">
        <ele>63.400001525879</ele>
        <time>2014-05-06T14:28:23Z</time>
      </trkpt>
      <trkpt lat="48.08358" lon="-4.52616">
        <ele>64</ele>
        <time>2014-05-06T14:28:26Z</time>
      </trkpt>
      <trkpt lat="48.08357" lon="-4.5261">
        <ele>64.599998474121</ele>
        <time>2014-05-06T14:28:31Z</time>
      </trkpt>
      <trkpt lat="48.08353" lon="-4.52599">
        <ele>65.800003051758</ele>
        <time>2014-05-06T14:28:40Z</time>
      </trkpt>
      <trkpt lat="48.08352" lon="-4.52597">
        <ele>66.199996948242</ele>
        <time>2014-05-06T14:28:42Z</time>
      </trkpt>
      <trkpt lat="48.08351" lon="-4.52594">
        <ele>66.400001525879</ele>
        <time>2014-05-06T14:28:44Z</time>
      </trkpt>
      <trkpt lat="48.08345" lon="-4.52579">
        <ele>68</ele>
        <time>2014-05-06T14:28:56Z</time>
      </trkpt>
      <trkpt lat="48.08344" lon="-4.52577">
        <ele>68.400001525879</ele>
        <time>2014-05-06T14:28:58Z</time>
      </trkpt>
      <trkpt lat="48.08343" lon="-4.52574">
        <ele>68.599998474121</ele>
        <time>2014-05-06T14:29:00Z</time>
      </trkpt>
      <trkpt lat="48.08338" lon="-4.52562">
        <ele>69.599998474121</ele>
        <time>2014-05-06T14:29:10Z</time>
      </trkpt>
      <trkpt lat="48.08336" lon="-4.52558">
        <ele>70</ele>
        <time>2014-05-06T14:29:15Z</time>
      </trkpt>
      <trkpt lat="48.08334" lon="-4.52553">
        <ele>70.199996948242</ele>
        <time>2014-05-06T14:29:19Z</time>
      </trkpt>
      <trkpt lat="48.08329" lon="-4.52539">
        <ele>71.400001525879</ele>
        <time>2014-05-06T14:29:31Z</time>
      </trkpt>
      <trkpt lat="48.08328" lon="-4.52538">
        <ele>71.400001525879</ele>
        <time>2014-05-06T14:29:32Z</time>
      </trkpt>
      <trkpt lat="48.08322" lon="-4.52521">
        <ele>72.400001525879</ele>
        <time>2014-05-06T14:29:44Z</time>
      </trkpt>
      <trkpt lat="48.08316" lon="-4.52509">
        <ele>72.800003051758</ele>
        <time>2014-05-06T14:29:54Z</time>
      </trkpt>
      <trkpt lat="48.08314" lon="-4.525">
        <ele>73.199996948242</ele>
        <time>2014-05-06T14:29:59Z</time>
      </trkpt>
      <trkpt lat="48.08313" lon="-4.52486">
        <ele>73.599998474121</ele>
        <time>2014-05-06T14:30:09Z</time>
      </trkpt>
      <trkpt lat="48.08318" lon="-4.52473">
        <ele>73.599998474121</ele>
        <time>2014-05-06T14:30:20Z</time>
      </trkpt>
      <trkpt lat="48.08321" lon="-4.52465">
        <ele>73.800003051758</ele>
        <time>2014-05-06T14:30:29Z</time>
      </trkpt>
      <trkpt lat="48.08325" lon="-4.52453">
        <ele>73.800003051758</ele>
        <time>2014-05-06T14:30:39Z</time>
      </trkpt>
      <trkpt lat="48.08325" lon="-4.52438">
        <ele>74.199996948242</ele>
        <time>2014-05-06T14:30:49Z</time>
      </trkpt>
      <trkpt lat="48.08325" lon="-4.52436">
        <ele>74.199996948242</ele>
        <time>2014-05-06T14:30:50Z</time>
      </trkpt>
      <trkpt lat="48.0832" lon="-4.52427">
        <ele>74.599998474121</ele>
        <time>2014-05-06T14:31:01Z</time>
      </trkpt>
      <trkpt lat="48.08312" lon="-4.52423">
        <ele>75.199996948242</ele>
        <time>2014-05-06T14:31:09Z</time>
      </trkpt>
      <trkpt lat="48.0831" lon="-4.52422">
        <ele>75.199996948242</ele>
        <time>2014-05-06T14:31:11Z</time>
      </trkpt>
      <trkpt lat="48.08301" lon="-4.52416">
        <ele>75.800003051758</ele>
        <time>2014-05-06T14:31:21Z</time>
      </trkpt>
      <trkpt lat="48.08298" lon="-4.52413">
        <ele>76</ele>
        <time>2014-05-06T14:31:24Z</time>
      </trkpt>
      <trkpt lat="48.08285" lon="-4.52404">
        <ele>76.599998474121</ele>
        <time>2014-05-06T14:31:38Z</time>
      </trkpt>
      <trkpt lat="48.08277" lon="-4.52402">
        <ele>77</ele>
        <time>2014-05-06T14:31:47Z</time>
      </trkpt>
      <trkpt lat="48.08275" lon="-4.52399">
        <ele>77</ele>
        <time>2014-05-06T14:31:53Z</time>
      </trkpt>
      <trkpt lat="48.08262" lon="-4.52394">
        <ele>77.599998474121</ele>
        <time>2014-05-06T14:32:06Z</time>
      </trkpt>
      <trkpt lat="48.08258" lon="-4.52391">
        <ele>77.599998474121</ele>
        <time>2014-05-06T14:32:09Z</time>
      </trkpt>
      <trkpt lat="48.08251" lon="-4.52387">
        <ele>77.599998474121</ele>
        <time>2014-05-06T14:32:17Z</time>
      </trkpt>
      <trkpt lat="48.0824" lon="-4.52382">
        <ele>77.599998474121</ele>
        <time>2014-05-06T14:32:31Z</time>
      </trkpt>
      <trkpt lat="48.08236" lon="-4.52373">
        <ele>77.800003051758</ele>
        <time>2014-05-06T14:32:42Z</time>
      </trkpt>
      <trkpt lat="48.08239" lon="-4.52358">
        <ele>77.800003051758</ele>
        <time>2014-05-06T14:32:52Z</time>
      </trkpt>
      <trkpt lat="48.0824" lon="-4.52355">
        <ele>77.800003051758</ele>
        <time>2014-05-06T14:32:59Z</time>
      </trkpt>
      <trkpt lat="48.08244" lon="-4.52342">
        <ele>77.599998474121</ele>
        <time>2014-05-06T14:33:10Z</time>
      </trkpt>
      <trkpt lat="48.08246" lon="-4.52336">
        <ele>77.599998474121</ele>
        <time>2014-05-06T14:33:20Z</time>
      </trkpt>
      <trkpt lat="48.08246" lon="-4.52333">
        <ele>77.599998474121</ele>
        <time>2014-05-06T14:33:26Z</time>
      </trkpt>
      <trkpt lat="48.08247" lon="-4.52318">
        <ele>77.400001525879</ele>
        <time>2014-05-06T14:33:36Z</time>
      </trkpt>
      <trkpt lat="48.08248" lon="-4.523">
        <ele>77.199996948242</ele>
        <time>2014-05-06T14:33:47Z</time>
      </trkpt>
      <trkpt lat="48.08248" lon="-4.52294">
        <ele>77.199996948242</ele>
        <time>2014-05-06T14:33:51Z</time>
      </trkpt>
      <trkpt lat="48.08249" lon="-4.5229">
        <ele>77.199996948242</ele>
        <time>2014-05-06T14:33:54Z</time>
      </trkpt>
      <trkpt lat="48.08249" lon="-4.5228">
        <ele>77.199996948242</ele>
        <time>2014-05-06T14:34:00Z</time>
      </trkpt>
      <trkpt lat="48.08249" lon="-4.52277">
        <ele>77.199996948242</ele>
        <time>2014-05-06T14:34:02Z</time>
      </trkpt>
      <trkpt lat="48.08248" lon="-4.52271">
        <ele>77.199996948242</ele>
        <time>2014-05-06T14:34:13Z</time>
      </trkpt>
      <trkpt lat="48.08249" lon="-4.52257">
        <ele>77.199996948242</ele>
        <time>2014-05-06T14:34:23Z</time>
      </trkpt>
      <trkpt lat="48.08248" lon="-4.52236">
        <ele>77.199996948242</ele>
        <time>2014-05-06T14:34:36Z</time>
      </trkpt>
      <trkpt lat="48.08247" lon="-4.52227">
        <ele>77.199996948242</ele>
        <time>2014-05-06T14:34:42Z</time>
      </trkpt>
      <trkpt lat="48.08244" lon="-4.52212">
        <ele>77.199996948242</ele>
        <time>2014-05-06T14:34:53Z</time>
      </trkpt>
      <trkpt lat="48.08241" lon="-4.52194">
        <ele>77.599998474121</ele>
        <time>2014-05-06T14:35:05Z</time>
      </trkpt>
      <trkpt lat="48.0824" lon="-4.52184">
        <ele>77.800003051758</ele>
        <time>2014-05-06T14:35:11Z</time>
      </trkpt>
      <trkpt lat="48.08237" lon="-4.52167">
        <ele>78.400001525879</ele>
        <time>2014-05-06T14:35:22Z</time>
      </trkpt>
      <trkpt lat="48.08237" lon="-4.52163">
        <ele>78.400001525879</ele>
        <time>2014-05-06T14:35:25Z</time>
      </trkpt>
      <trkpt lat="48.08235" lon="-4.52145">
        <ele>79</ele>
        <time>2014-05-06T14:35:37Z</time>
      </trkpt>
      <trkpt lat="48.08234" lon="-4.52128">
        <ele>78.800003051758</ele>
        <time>2014-05-06T14:35:47Z</time>
      </trkpt>
      <trkpt lat="48.08232" lon="-4.52107">
        <ele>78.800003051758</ele>
        <time>2014-05-06T14:35:59Z</time>
      </trkpt>
      <trkpt lat="48.08232" lon="-4.52095">
        <ele>79</ele>
        <time>2014-05-06T14:36:08Z</time>
      </trkpt>
      <trkpt lat="48.08232" lon="-4.52073">
        <ele>79.199996948242</ele>
        <time>2014-05-06T14:36:20Z</time>
      </trkpt>
      <trkpt lat="48.08233" lon="-4.52058">
        <ele>79.400001525879</ele>
        <time>2014-05-06T14:36:29Z</time>
      </trkpt>
      <trkpt lat="48.08233" lon="-4.52042">
        <ele>79.800003051758</ele>
        <time>2014-05-06T14:36:40Z</time>
      </trkpt>
      <trkpt lat="48.08235" lon="-4.52025">
        <ele>80</ele>
        <time>2014-05-06T14:36:51Z</time>
      </trkpt>
      <trkpt lat="48.08236" lon="-4.52018">
        <ele>80</ele>
        <time>2014-05-06T14:36:53Z</time>
      </trkpt>
      <trkpt lat="48.08236" lon="-4.51997">
        <ele>80</ele>
        <time>2014-05-06T14:37:04Z</time>
      </trkpt>
      <trkpt lat="48.08236" lon="-4.51985">
        <ele>80</ele>
        <time>2014-05-06T14:37:12Z</time>
      </trkpt>
      <trkpt lat="48.08237" lon="-4.51968">
        <ele>80</ele>
        <time>2014-05-06T14:37:23Z</time>
      </trkpt>
      <trkpt lat="48.08238" lon="-4.51952">
        <ele>79.800003051758</ele>
        <time>2014-05-06T14:37:32Z</time>
      </trkpt>
      <trkpt lat="48.08239" lon="-4.51941">
        <ele>79.800003051758</ele>
        <time>2014-05-06T14:37:38Z</time>
      </trkpt>
      <trkpt lat="48.08239" lon="-4.51937">
        <ele>79.800003051758</ele>
        <time>2014-05-06T14:37:40Z</time>
      </trkpt>
      <trkpt lat="48.08239" lon="-4.51915">
        <ele>79.800003051758</ele>
        <time>2014-05-06T14:37:52Z</time>
      </trkpt>
      <trkpt lat="48.0824" lon="-4.51902">
        <ele>79.800003051758</ele>
        <time>2014-05-06T14:37:59Z</time>
      </trkpt>
      <trkpt lat="48.08241" lon="-4.51882">
        <ele>79.800003051758</ele>
        <time>2014-05-06T14:38:11Z</time>
      </trkpt>
      <trkpt lat="48.08241" lon="-4.51862">
        <ele>79.400001525879</ele>
        <time>2014-05-06T14:38:22Z</time>
      </trkpt>
      <trkpt lat="48.08242" lon="-4.51838">
        <ele>78.800003051758</ele>
        <time>2014-05-06T14:38:36Z</time>
      </trkpt>
      <trkpt lat="48.08243" lon="-4.51827">
        <ele>78.599998474121</ele>
        <time>2014-05-06T14:38:42Z</time>
      </trkpt>
      <trkpt lat="48.08244" lon="-4.51817">
        <ele>78.400001525879</ele>
        <time>2014-05-06T14:38:48Z</time>
      </trkpt>
      <trkpt lat="48.08245" lon="-4.51793">
        <ele>78</ele>
        <time>2014-05-06T14:39:02Z</time>
      </trkpt>
      <trkpt lat="48.08245" lon="-4.51772">
        <ele>77.599998474121</ele>
        <time>2014-05-06T14:39:13Z</time>
      </trkpt>
      <trkpt lat="48.08246" lon="-4.51748">
        <ele>77.400001525879</ele>
        <time>2014-05-06T14:39:26Z</time>
      </trkpt>
      <trkpt lat="48.08247" lon="-4.51745">
        <ele>77.400001525879</ele>
        <time>2014-05-06T14:39:28Z</time>
      </trkpt>
      <trkpt lat="48.08249" lon="-4.51725">
        <ele>77.199996948242</ele>
        <time>2014-05-06T14:39:40Z</time>
      </trkpt>
      <trkpt lat="48.08251" lon="-4.5171">
        <ele>77</ele>
        <time>2014-05-06T14:39:50Z</time>
      </trkpt>
      <trkpt lat="48.08252" lon="-4.51697">
        <ele>77</ele>
        <time>2014-05-06T14:40:00Z</time>
      </trkpt>
      <trkpt lat="48.08251" lon="-4.51691">
        <ele>76.800003051758</ele>
        <time>2014-05-06T14:40:11Z</time>
      </trkpt>
      <trkpt lat="48.0825" lon="-4.51689">
        <ele>76.599998474121</ele>
        <time>2014-05-06T14:40:21Z</time>
      </trkpt>
      <trkpt lat="48.0825" lon="-4.51687">
        <ele>76.599998474121</ele>
        <time>2014-05-06T14:40:31Z</time>
      </trkpt>
      <trkpt lat="48.08255" lon="-4.51671">
        <ele>75.800003051758</ele>
        <time>2014-05-06T14:40:42Z</time>
      </trkpt>
      <trkpt lat="48.08258" lon="-4.51655">
        <ele>74.800003051758</ele>
        <time>2014-05-06T14:40:54Z</time>
      </trkpt>
      <trkpt lat="48.0826" lon="-4.51648">
        <ele>74.599998474121</ele>
        <time>2014-05-06T14:41:03Z</time>
      </trkpt>
      <trkpt lat="48.0826" lon="-4.51648">
        <ele>74.400001525879</ele>
        <time>2014-05-06T14:41:13Z</time>
      </trkpt>
      <trkpt lat="48.0826" lon="-4.51648">
        <ele>74.400001525879</ele>
        <time>2014-05-06T14:41:25Z</time>
      </trkpt>
      <trkpt lat="48.0826" lon="-4.51649">
        <ele>74.599998474121</ele>
        <time>2014-05-06T14:41:36Z</time>
      </trkpt>
      <trkpt lat="48.0826" lon="-4.5165">
        <ele>74.599998474121</ele>
        <time>2014-05-06T14:41:37Z</time>
      </trkpt>
      <trkpt lat="48.08257" lon="-4.51663">
        <ele>75.199996948242</ele>
        <time>2014-05-06T14:41:45Z</time>
      </trkpt>
      <trkpt lat="48.08257" lon="-4.51669">
        <ele>75.599998474121</ele>
        <time>2014-05-06T14:41:48Z</time>
      </trkpt>
      <trkpt lat="48.08254" lon="-4.51681">
        <ele>76.199996948242</ele>
        <time>2014-05-06T14:41:57Z</time>
      </trkpt>
      <trkpt lat="48.08252" lon="-4.51697">
        <ele>77</ele>
        <time>2014-05-06T14:42:06Z</time>
      </trkpt>
      <trkpt lat="48.08248" lon="-4.51703">
        <ele>77.199996948242</ele>
        <time>2014-05-06T14:42:10Z</time>
      </trkpt>
      <trkpt lat="48.08235" lon="-4.51703">
        <ele>77.599998474121</ele>
        <time>2014-05-06T14:42:21Z</time>
      </trkpt>
      <trkpt lat="48.08221" lon="-4.51698">
        <ele>77.800003051758</ele>
        <time>2014-05-06T14:42:33Z</time>
      </trkpt>
      <trkpt lat="48.08209" lon="-4.51689">
        <ele>77.599998474121</ele>
        <time>2014-05-06T14:42:45Z</time>
      </trkpt>
      <trkpt lat="48.08201" lon="-4.51685">
        <ele>77.599998474121</ele>
        <time>2014-05-06T14:42:52Z</time>
      </trkpt>
      <trkpt lat="48.08195" lon="-4.51681">
        <ele>77.599998474121</ele>
        <time>2014-05-06T14:42:58Z</time>
      </trkpt>
      <trkpt lat="48.08186" lon="-4.51675">
        <ele>78.199996948242</ele>
        <time>2014-05-06T14:43:07Z</time>
      </trkpt>
      <trkpt lat="48.08171" lon="-4.51666">
        <ele>78.599998474121</ele>
        <time>2014-05-06T14:43:19Z</time>
      </trkpt>
      <trkpt lat="48.08157" lon="-4.51655">
        <ele>78.599998474121</ele>
        <time>2014-05-06T14:43:30Z</time>
      </trkpt>
      <trkpt lat="48.08145" lon="-4.51647">
        <ele>78.800003051758</ele>
        <time>2014-05-06T14:43:42Z</time>
      </trkpt>
      <trkpt lat="48.08131" lon="-4.51639">
        <ele>78.800003051758</ele>
        <time>2014-05-06T14:43:53Z</time>
      </trkpt>
      <trkpt lat="48.08117" lon="-4.51632">
        <ele>78.800003051758</ele>
        <time>2014-05-06T14:44:04Z</time>
      </trkpt>
      <trkpt lat="48.08111" lon="-4.5163">
        <ele>79</ele>
        <time>2014-05-06T14:44:08Z</time>
      </trkpt>
      <trkpt lat="48.08097" lon="-4.51624">
        <ele>79</ele>
        <time>2014-05-06T14:44:20Z</time>
      </trkpt>
      <trkpt lat="48.08085" lon="-4.51617">
        <ele>79.199996948242</ele>
        <time>2014-05-06T14:44:30Z</time>
      </trkpt>
      <trkpt lat="48.08072" lon="-4.51609">
        <ele>79.400001525879</ele>
        <time>2014-05-06T14:44:41Z</time>
      </trkpt>
      <trkpt lat="48.08069" lon="-4.51607">
        <ele>79.400001525879</ele>
        <time>2014-05-06T14:44:44Z</time>
      </trkpt>
      <trkpt lat="48.08055" lon="-4.51595">
        <ele>79.400001525879</ele>
        <time>2014-05-06T14:44:57Z</time>
      </trkpt>
      <trkpt lat="48.08051" lon="-4.51591">
        <ele>79.400001525879</ele>
        <time>2014-05-06T14:45:01Z</time>
      </trkpt>
      <trkpt lat="48.08034" lon="-4.51581">
        <ele>79.599998474121</ele>
        <time>2014-05-06T14:45:16Z</time>
      </trkpt>
      <trkpt lat="48.0802" lon="-4.51572">
        <ele>79.599998474121</ele>
        <time>2014-05-06T14:45:28Z</time>
      </trkpt>
      <trkpt lat="48.08007" lon="-4.51565">
        <ele>79.800003051758</ele>
        <time>2014-05-06T14:45:39Z</time>
      </trkpt>
      <trkpt lat="48.07995" lon="-4.51559">
        <ele>79.800003051758</ele>
        <time>2014-05-06T14:45:49Z</time>
      </trkpt>
      <trkpt lat="48.07981" lon="-4.51553">
        <ele>80</ele>
        <time>2014-05-06T14:46:00Z</time>
      </trkpt>
      <trkpt lat="48.07968" lon="-4.51548">
        <ele>80.599998474121</ele>
        <time>2014-05-06T14:46:11Z</time>
      </trkpt>
      <trkpt lat="48.07953" lon="-4.51545">
        <ele>81</ele>
        <time>2014-05-06T14:46:22Z</time>
      </trkpt>
      <trkpt lat="48.07938" lon="-4.51542">
        <ele>81.599998474121</ele>
        <time>2014-05-06T14:46:34Z</time>
      </trkpt>
      <trkpt lat="48.07923" lon="-4.51538">
        <ele>82</ele>
        <time>2014-05-06T14:46:47Z</time>
      </trkpt>
      <trkpt lat="48.07922" lon="-4.51538">
        <ele>82</ele>
        <time>2014-05-06T14:46:48Z</time>
      </trkpt>
      <trkpt lat="48.07913" lon="-4.51536">
        <ele>81.800003051758</ele>
        <time>2014-05-06T14:46:54Z</time>
      </trkpt>
      <trkpt lat="48.07902" lon="-4.51533">
        <ele>81.400001525879</ele>
        <time>2014-05-06T14:47:03Z</time>
      </trkpt>
      <trkpt lat="48.07897" lon="-4.51533">
        <ele>81.199996948242</ele>
        <time>2014-05-06T14:47:07Z</time>
      </trkpt>
      <trkpt lat="48.07883" lon="-4.5153">
        <ele>81</ele>
        <time>2014-05-06T14:47:17Z</time>
      </trkpt>
      <trkpt lat="48.07866" lon="-4.51526">
        <ele>80.400001525879</ele>
        <time>2014-05-06T14:47:31Z</time>
      </trkpt>
      <trkpt lat="48.07846" lon="-4.51522">
        <ele>80.199996948242</ele>
        <time>2014-05-06T14:47:46Z</time>
      </trkpt>
      <trkpt lat="48.07828" lon="-4.51518">
        <ele>80.199996948242</ele>
        <time>2014-05-06T14:48:01Z</time>
      </trkpt>
      <trkpt lat="48.07814" lon="-4.51517">
        <ele>80.199996948242</ele>
        <time>2014-05-06T14:48:13Z</time>
      </trkpt>
      <trkpt lat="48.07805" lon="-4.51516">
        <ele>80.199996948242</ele>
        <time>2014-05-06T14:48:23Z</time>
      </trkpt>
      <trkpt lat="48.07792" lon="-4.51513">
        <ele>80.199996948242</ele>
        <time>2014-05-06T14:48:34Z</time>
      </trkpt>
      <trkpt lat="48.07777" lon="-4.51508">
        <ele>80.400001525879</ele>
        <time>2014-05-06T14:48:46Z</time>
      </trkpt>
      <trkpt lat="48.07767" lon="-4.51502">
        <ele>80.599998474121</ele>
        <time>2014-05-06T14:48:55Z</time>
      </trkpt>
      <trkpt lat="48.07767" lon="-4.51498">
        <ele>80.800003051758</ele>
        <time>2014-05-06T14:48:58Z</time>
      </trkpt>
      <trkpt lat="48.07767" lon="-4.51486">
        <ele>81</ele>
        <time>2014-05-06T14:49:05Z</time>
      </trkpt>
      <trkpt lat="48.07769" lon="-4.51475">
        <ele>81.400001525879</ele>
        <time>2014-05-06T14:49:12Z</time>
      </trkpt>
      <trkpt lat="48.07769" lon="-4.51466">
        <ele>81.400001525879</ele>
        <time>2014-05-06T14:49:16Z</time>
      </trkpt>
      <trkpt lat="48.0777" lon="-4.5146">
        <ele>81.599998474121</ele>
        <time>2014-05-06T14:49:20Z</time>
      </trkpt>
      <trkpt lat="48.07771" lon="-4.51455">
        <ele>81.800003051758</ele>
        <time>2014-05-06T14:49:23Z</time>
      </trkpt>
      <trkpt lat="48.07767" lon="-4.5144">
        <ele>82</ele>
        <time>2014-05-06T14:49:33Z</time>
      </trkpt>
      <trkpt lat="48.07765" lon="-4.51424">
        <ele>82.400001525879</ele>
        <time>2014-05-06T14:49:44Z</time>
      </trkpt>
      <trkpt lat="48.07762" lon="-4.51408">
        <ele>83</ele>
        <time>2014-05-06T14:49:55Z</time>
      </trkpt>
      <trkpt lat="48.07758" lon="-4.5139">
        <ele>83.400001525879</ele>
        <time>2014-05-06T14:50:04Z</time>
      </trkpt>
      <trkpt lat="48.07756" lon="-4.51374">
        <ele>84</ele>
        <time>2014-05-06T14:50:13Z</time>
      </trkpt>
      <trkpt lat="48.07757" lon="-4.51366">
        <ele>84.199996948242</ele>
        <time>2014-05-06T14:50:24Z</time>
      </trkpt>
      <trkpt lat="48.07756" lon="-4.51363">
        <ele>84.199996948242</ele>
        <time>2014-05-06T14:50:27Z</time>
      </trkpt>
      <trkpt lat="48.07751" lon="-4.51354">
        <ele>84.400001525879</ele>
        <time>2014-05-06T14:50:37Z</time>
      </trkpt>
      <trkpt lat="48.07742" lon="-4.51348">
        <ele>84.599998474121</ele>
        <time>2014-05-06T14:50:47Z</time>
      </trkpt>
      <trkpt lat="48.07733" lon="-4.5134">
        <ele>85</ele>
        <time>2014-05-06T14:50:56Z</time>
      </trkpt>
      <trkpt lat="48.07727" lon="-4.51335">
        <ele>85.199996948242</ele>
        <time>2014-05-06T14:51:02Z</time>
      </trkpt>
      <trkpt lat="48.07724" lon="-4.51333">
        <ele>85.199996948242</ele>
        <time>2014-05-06T14:51:06Z</time>
      </trkpt>
      <trkpt lat="48.07715" lon="-4.51329">
        <ele>85.599998474121</ele>
        <time>2014-05-06T14:51:16Z</time>
      </trkpt>
      <trkpt lat="48.07704" lon="-4.51323">
        <ele>86.400001525879</ele>
        <time>2014-05-06T14:51:27Z</time>
      </trkpt>
      <trkpt lat="48.07697" lon="-4.51321">
        <ele>86.800003051758</ele>
        <time>2014-05-06T14:51:33Z</time>
      </trkpt>
      <trkpt lat="48.07694" lon="-4.5132">
        <ele>87</ele>
        <time>2014-05-06T14:51:36Z</time>
      </trkpt>
      <trkpt lat="48.07682" lon="-4.51315">
        <ele>88</ele>
        <time>2014-05-06T14:51:47Z</time>
      </trkpt>
      <trkpt lat="48.07675" lon="-4.5131">
        <ele>88.400001525879</ele>
        <time>2014-05-06T14:51:54Z</time>
      </trkpt>
      <trkpt lat="48.07667" lon="-4.51305">
        <ele>88.599998474121</ele>
        <time>2014-05-06T14:52:07Z</time>
      </trkpt>
      <trkpt lat="48.07667" lon="-4.51304">
        <ele>88.599998474121</ele>
        <time>2014-05-06T14:52:09Z</time>
      </trkpt>
      <trkpt lat="48.07665" lon="-4.51303">
        <ele>88.599998474121</ele>
        <time>2014-05-06T14:52:11Z</time>
      </trkpt>
      <trkpt lat="48.07657" lon="-4.51298">
        <ele>89</ele>
        <time>2014-05-06T14:52:19Z</time>
      </trkpt>
      <trkpt lat="48.07655" lon="-4.51297">
        <ele>89</ele>
        <time>2014-05-06T14:52:21Z</time>
      </trkpt>
      <trkpt lat="48.07647" lon="-4.5129">
        <ele>89.400001525879</ele>
        <time>2014-05-06T14:52:31Z</time>
      </trkpt>
      <trkpt lat="48.07644" lon="-4.51288">
        <ele>89.599998474121</ele>
        <time>2014-05-06T14:52:34Z</time>
      </trkpt>
      <trkpt lat="48.07633" lon="-4.51279">
        <ele>90</ele>
        <time>2014-05-06T14:52:45Z</time>
      </trkpt>
      <trkpt lat="48.07624" lon="-4.51269">
        <ele>90.400001525879</ele>
        <time>2014-05-06T14:52:54Z</time>
      </trkpt>
      <trkpt lat="48.07612" lon="-4.51259">
        <ele>91</ele>
        <time>2014-05-06T14:53:03Z</time>
      </trkpt>
      <trkpt lat="48.07606" lon="-4.51245">
        <ele>91.400001525879</ele>
        <time>2014-05-06T14:53:14Z</time>
      </trkpt>
      <trkpt lat="48.07604" lon="-4.51237">
        <ele>91.800003051758</ele>
        <time>2014-05-06T14:53:20Z</time>
      </trkpt>
      <trkpt lat="48.07602" lon="-4.51231">
        <ele>92</ele>
        <time>2014-05-06T14:53:24Z</time>
      </trkpt>
      <trkpt lat="48.07599" lon="-4.51219">
        <ele>92.400001525879</ele>
        <time>2014-05-06T14:53:33Z</time>
      </trkpt>
      <trkpt lat="48.07595" lon="-4.51203">
        <ele>92.800003051758</ele>
        <time>2014-05-06T14:53:44Z</time>
      </trkpt>
      <trkpt lat="48.07579" lon="-4.51199">
        <ele>92.400001525879</ele>
        <time>2014-05-06T14:53:59Z</time>
      </trkpt>
      <trkpt lat="48.07573" lon="-4.512">
        <ele>92.199996948242</ele>
        <time>2014-05-06T14:54:12Z</time>
      </trkpt>
      <trkpt lat="48.07572" lon="-4.51201">
        <ele>92.199996948242</ele>
        <time>2014-05-06T14:54:27Z</time>
      </trkpt>
      <trkpt lat="48.07565" lon="-4.51199">
        <ele>92</ele>
        <time>2014-05-06T14:54:36Z</time>
      </trkpt>
      <trkpt lat="48.07557" lon="-4.51202">
        <ele>91.599998474121</ele>
        <time>2014-05-06T14:54:45Z</time>
      </trkpt>
      <trkpt lat="48.07554" lon="-4.51198">
        <ele>91.599998474121</ele>
        <time>2014-05-06T14:54:49Z</time>
      </trkpt>
      <trkpt lat="48.07541" lon="-4.51196">
        <ele>91</ele>
        <time>2014-05-06T14:55:01Z</time>
      </trkpt>
      <trkpt lat="48.07535" lon="-4.51194">
        <ele>90.599998474121</ele>
        <time>2014-05-06T14:55:12Z</time>
      </trkpt>
      <trkpt lat="48.07535" lon="-4.51195">
        <ele>90.800003051758</ele>
        <time>2014-05-06T14:55:24Z</time>
      </trkpt>
      <trkpt lat="48.07535" lon="-4.51195">
        <ele>90.800003051758</ele>
        <time>2014-05-06T14:55:41Z</time>
      </trkpt>
      <trkpt lat="48.07536" lon="-4.5119">
        <ele>90.599998474121</ele>
        <time>2014-05-06T14:55:53Z</time>
      </trkpt>
      <trkpt lat="48.07537" lon="-4.51191">
        <ele>90.599998474121</ele>
        <time>2014-05-06T14:56:05Z</time>
      </trkpt>
      <trkpt lat="48.07537" lon="-4.51191">
        <ele>90.599998474121</ele>
        <time>2014-05-06T14:56:19Z</time>
      </trkpt>
      <trkpt lat="48.07537" lon="-4.51192">
        <ele>90.599998474121</ele>
        <time>2014-05-06T14:56:32Z</time>
      </trkpt>
      <trkpt lat="48.07537" lon="-4.5119">
        <ele>90.599998474121</ele>
        <time>2014-05-06T14:56:44Z</time>
      </trkpt>
      <trkpt lat="48.07537" lon="-4.51191">
        <ele>90.599998474121</ele>
        <time>2014-05-06T14:56:52Z</time>
      </trkpt>
      <trkpt lat="48.07537" lon="-4.51191">
        <ele>90.599998474121</ele>
        <time>2014-05-06T14:57:01Z</time>
      </trkpt>
      <trkpt lat="48.07536" lon="-4.51191">
        <ele>90.599998474121</ele>
        <time>2014-05-06T14:57:11Z</time>
      </trkpt>
      <trkpt lat="48.07536" lon="-4.51189">
        <ele>90.599998474121</ele>
        <time>2014-05-06T14:57:26Z</time>
      </trkpt>
      <trkpt lat="48.07536" lon="-4.51189">
        <ele>90.599998474121</ele>
        <time>2014-05-06T14:57:38Z</time>
      </trkpt>
      <trkpt lat="48.07536" lon="-4.51189">
        <ele>90.599998474121</ele>
        <time>2014-05-06T14:57:50Z</time>
      </trkpt>
      <trkpt lat="48.07535" lon="-4.51188">
        <ele>90.400001525879</ele>
        <time>2014-05-06T14:57:58Z</time>
      </trkpt>
      <trkpt lat="48.07535" lon="-4.51187">
        <ele>90.400001525879</ele>
        <time>2014-05-06T14:58:06Z</time>
      </trkpt>
      <trkpt lat="48.07535" lon="-4.51187">
        <ele>90.400001525879</ele>
        <time>2014-05-06T14:58:21Z</time>
      </trkpt>
      <trkpt lat="48.07535" lon="-4.51189">
        <ele>90.599998474121</ele>
        <time>2014-05-06T14:58:30Z</time>
      </trkpt>
      <trkpt lat="48.07534" lon="-4.51189">
        <ele>90.599998474121</ele>
        <time>2014-05-06T14:58:37Z</time>
      </trkpt>
    </trkseg>
  </trk>
</gpx>